<?xml version="1.0" encoding="utf-8"?>
<gpx xmlns:xsi="http://www.w3.org/2001/XMLSchema-instance" xmlns:xsd="http://www.w3.org/2001/XMLSchema" version="1.1" creator="Shapelink.com" xmlns="http://www.topografix.com/GPX/1/1" xmlns:gpxtpx="http://www.garmin.com/xmlschemas/TrackPointExtension/v1">
  <metadata>
    <name>Löpning 27.58 km, 2019-04-27</name>
    <desc></desc>
    <author><name>Marian Moron</name></author> 
    <time>2019-04-27T09:52:49Z</time>
  </metadata>
  <trk>
    <name>Löpning 27.58 km, 2019-04-27</name>
    <trkseg>
      <trkpt lat="51.229997785928" lon="4.458497398154">
        <ele>14.2</ele>
        <time>2019-04-27T09:52:49Z</time>
      </trkpt>
      <trkpt lat="51.23004371874" lon="4.458789758826">
        <ele>11.6</ele>
        <time>2019-04-27T09:52:57Z</time>
      </trkpt>
      <trkpt lat="51.230081269652" lon="4.458822196779">
        <ele>10.4</ele>
        <time>2019-04-27T09:53:00Z</time>
      </trkpt>
      <trkpt lat="51.230148743947" lon="4.458842816253">
        <ele>9.2</ele>
        <time>2019-04-27T09:53:05Z</time>
      </trkpt>
      <trkpt lat="51.229960570292" lon="4.458946500356">
        <ele>7.6</ele>
        <time>2019-04-27T09:53:15Z</time>
      </trkpt>
      <trkpt lat="51.229798883441" lon="4.459081784222">
        <ele>7.4</ele>
        <time>2019-04-27T09:53:23Z</time>
      </trkpt>
      <trkpt lat="51.22975957233" lon="4.459087400095">
        <ele>7.8</ele>
        <time>2019-04-27T09:53:26Z</time>
      </trkpt>
      <trkpt lat="51.2297117955" lon="4.459076419806">
        <ele>8</ele>
        <time>2019-04-27T09:53:29Z</time>
      </trkpt>
      <trkpt lat="51.229524627673" lon="4.459191168017">
        <ele>7.8</ele>
        <time>2019-04-27T09:53:37Z</time>
      </trkpt>
      <trkpt lat="51.229338717131" lon="4.459231317318">
        <ele>7.6</ele>
        <time>2019-04-27T09:53:44Z</time>
      </trkpt>
      <trkpt lat="51.229153980055" lon="4.459244393082">
        <ele>7.4</ele>
        <time>2019-04-27T09:53:51Z</time>
      </trkpt>
      <trkpt lat="51.22894988079" lon="4.459270293153">
        <ele>7.4</ele>
        <time>2019-04-27T09:54:01Z</time>
      </trkpt>
      <trkpt lat="51.228762042411" lon="4.459301054726">
        <ele>7</ele>
        <time>2019-04-27T09:54:08Z</time>
      </trkpt>
      <trkpt lat="51.228757516185" lon="4.459256630656">
        <ele>6.6</ele>
        <time>2019-04-27T09:54:11Z</time>
      </trkpt>
      <trkpt lat="51.228940241605" lon="4.459250008955">
        <ele>5</ele>
        <time>2019-04-27T09:54:20Z</time>
      </trkpt>
      <trkpt lat="51.229128666717" lon="4.459175493864">
        <ele>0.8</ele>
        <time>2019-04-27T09:54:30Z</time>
      </trkpt>
      <trkpt lat="51.229312481784" lon="4.459099972945">
        <ele>0</ele>
        <time>2019-04-27T09:54:39Z</time>
      </trkpt>
      <trkpt lat="51.229512976832" lon="4.459049765364">
        <ele>0</ele>
        <time>2019-04-27T09:54:48Z</time>
      </trkpt>
      <trkpt lat="51.229703329781" lon="4.459066193888">
        <ele>0</ele>
        <time>2019-04-27T09:54:57Z</time>
      </trkpt>
      <trkpt lat="51.229887480124" lon="4.459014980479">
        <ele>0</ele>
        <time>2019-04-27T09:55:06Z</time>
      </trkpt>
      <trkpt lat="51.230000719593" lon="4.458944740157">
        <ele>0</ele>
        <time>2019-04-27T09:55:10Z</time>
      </trkpt>
      <trkpt lat="51.230180846624" lon="4.458813898698">
        <ele>0</ele>
        <time>2019-04-27T09:55:20Z</time>
      </trkpt>
      <trkpt lat="51.230328451883" lon="4.458823621702">
        <ele>0.2</ele>
        <time>2019-04-27T09:55:26Z</time>
      </trkpt>
      <trkpt lat="51.230444289741" lon="4.459083041507">
        <ele>7</ele>
        <time>2019-04-27T09:55:32Z</time>
      </trkpt>
      <trkpt lat="51.230511261122" lon="4.459383532622">
        <ele>8.2</ele>
        <time>2019-04-27T09:55:39Z</time>
      </trkpt>
      <trkpt lat="51.230564570006" lon="4.459673378724">
        <ele>8.6</ele>
        <time>2019-04-27T09:55:46Z</time>
      </trkpt>
      <trkpt lat="51.230661632408" lon="4.459944365551">
        <ele>4.8</ele>
        <time>2019-04-27T09:55:55Z</time>
      </trkpt>
      <trkpt lat="51.230741763372" lon="4.460199091492">
        <ele>3.6</ele>
        <time>2019-04-27T09:56:02Z</time>
      </trkpt>
      <trkpt lat="51.230794401704" lon="4.460513915656">
        <ele>2.6</ele>
        <time>2019-04-27T09:56:10Z</time>
      </trkpt>
      <trkpt lat="51.230770178013" lon="4.46081700516">
        <ele>2.2</ele>
        <time>2019-04-27T09:56:18Z</time>
      </trkpt>
      <trkpt lat="51.230851650081" lon="4.461120262302">
        <ele>2.2</ele>
        <time>2019-04-27T09:56:26Z</time>
      </trkpt>
      <trkpt lat="51.230932451597" lon="4.461421926883">
        <ele>1.4</ele>
        <time>2019-04-27T09:56:36Z</time>
      </trkpt>
      <trkpt lat="51.231053989147" lon="4.461633234582">
        <ele>0</ele>
        <time>2019-04-27T09:56:44Z</time>
      </trkpt>
      <trkpt lat="51.23115180592" lon="4.461860048796">
        <ele>0</ele>
        <time>2019-04-27T09:56:52Z</time>
      </trkpt>
      <trkpt lat="51.231141580002" lon="4.462171017286">
        <ele>0</ele>
        <time>2019-04-27T09:57:00Z</time>
      </trkpt>
      <trkpt lat="51.231221878604" lon="4.462449212547">
        <ele>0</ele>
        <time>2019-04-27T09:57:07Z</time>
      </trkpt>
      <trkpt lat="51.231326065621" lon="4.462694802217">
        <ele>0</ele>
        <time>2019-04-27T09:57:15Z</time>
      </trkpt>
      <trkpt lat="51.231402257092" lon="4.46295019871">
        <ele>0</ele>
        <time>2019-04-27T09:57:22Z</time>
      </trkpt>
      <trkpt lat="51.231448273723" lon="4.463238787527">
        <ele>0</ele>
        <time>2019-04-27T09:57:29Z</time>
      </trkpt>
      <trkpt lat="51.231435784692" lon="4.463528465991">
        <ele>0</ele>
        <time>2019-04-27T09:57:35Z</time>
      </trkpt>
      <trkpt lat="51.231391863536" lon="4.463807164166">
        <ele>1.8</ele>
        <time>2019-04-27T09:57:41Z</time>
      </trkpt>
      <trkpt lat="51.231382559627" lon="4.46409851901">
        <ele>3.6</ele>
        <time>2019-04-27T09:57:48Z</time>
      </trkpt>
      <trkpt lat="51.231384068369" lon="4.464388616569">
        <ele>5</ele>
        <time>2019-04-27T09:57:55Z</time>
      </trkpt>
      <trkpt lat="51.231373004261" lon="4.464519793304">
        <ele>5</ele>
        <time>2019-04-27T09:57:59Z</time>
      </trkpt>
      <trkpt lat="51.231401083626" lon="4.464819530048">
        <ele>4.8</ele>
        <time>2019-04-27T09:58:07Z</time>
      </trkpt>
      <trkpt lat="51.23140074835" lon="4.465112309815">
        <ele>5.6</ele>
        <time>2019-04-27T09:58:14Z</time>
      </trkpt>
      <trkpt lat="51.231344421982" lon="4.465413890577">
        <ele>7</ele>
        <time>2019-04-27T09:58:22Z</time>
      </trkpt>
      <trkpt lat="51.231297902437" lon="4.465710526018">
        <ele>8</ele>
        <time>2019-04-27T09:58:30Z</time>
      </trkpt>
      <trkpt lat="51.231222381518" lon="4.465986541985">
        <ele>3.4</ele>
        <time>2019-04-27T09:58:37Z</time>
      </trkpt>
      <trkpt lat="51.231155493956" lon="4.466266665083">
        <ele>2.6</ele>
        <time>2019-04-27T09:58:44Z</time>
      </trkpt>
      <trkpt lat="51.231107046574" lon="4.466554499529">
        <ele>5</ele>
        <time>2019-04-27T09:58:51Z</time>
      </trkpt>
      <trkpt lat="51.231223219708" lon="4.467105274178">
        <ele>4.4</ele>
        <time>2019-04-27T09:59:06Z</time>
      </trkpt>
      <trkpt lat="51.231237468938" lon="4.467126480385">
        <ele>4.8</ele>
        <time>2019-04-27T09:59:07Z</time>
      </trkpt>
      <trkpt lat="51.231435868511" lon="4.467133856457">
        <ele>3.8</ele>
        <time>2019-04-27T09:59:16Z</time>
      </trkpt>
      <trkpt lat="51.231623036338" lon="4.467177107061">
        <ele>3.6</ele>
        <time>2019-04-27T09:59:24Z</time>
      </trkpt>
      <trkpt lat="51.231808863061" lon="4.467126396566">
        <ele>0</ele>
        <time>2019-04-27T09:59:32Z</time>
      </trkpt>
      <trkpt lat="51.231982200753" lon="4.467032435467">
        <ele>0</ele>
        <time>2019-04-27T09:59:40Z</time>
      </trkpt>
      <trkpt lat="51.232032073058" lon="4.467074428786">
        <ele>0</ele>
        <time>2019-04-27T09:59:41Z</time>
      </trkpt>
      <trkpt lat="51.232126872347" lon="4.467318761171">
        <ele>0</ele>
        <time>2019-04-27T09:59:48Z</time>
      </trkpt>
      <trkpt lat="51.232267017715" lon="4.467564015565">
        <ele>0</ele>
        <time>2019-04-27T09:59:56Z</time>
      </trkpt>
      <trkpt lat="51.232374473673" lon="4.467826452854">
        <ele>0</ele>
        <time>2019-04-27T10:00:03Z</time>
      </trkpt>
      <trkpt lat="51.232504896037" lon="4.46804974667">
        <ele>0</ele>
        <time>2019-04-27T10:00:11Z</time>
      </trkpt>
      <trkpt lat="51.232620482438" lon="4.468270274459">
        <ele>0</ele>
        <time>2019-04-27T10:00:18Z</time>
      </trkpt>
      <trkpt lat="51.232711761329" lon="4.4685417642">
        <ele>4</ele>
        <time>2019-04-27T10:00:25Z</time>
      </trkpt>
      <trkpt lat="51.232790635008" lon="4.46881501414">
        <ele>8.6</ele>
        <time>2019-04-27T10:00:32Z</time>
      </trkpt>
      <trkpt lat="51.232887278315" lon="4.469055909946">
        <ele>7.4</ele>
        <time>2019-04-27T10:00:40Z</time>
      </trkpt>
      <trkpt lat="51.233023651828" lon="4.469263781066">
        <ele>6.2</ele>
        <time>2019-04-27T10:00:48Z</time>
      </trkpt>
      <trkpt lat="51.233138651496" lon="4.469500485922">
        <ele>4.6</ele>
        <time>2019-04-27T10:00:56Z</time>
      </trkpt>
      <trkpt lat="51.233235043346" lon="4.469781950124">
        <ele>5.6</ele>
        <time>2019-04-27T10:01:04Z</time>
      </trkpt>
      <trkpt lat="51.233345013874" lon="4.470018152066">
        <ele>6.8</ele>
        <time>2019-04-27T10:01:12Z</time>
      </trkpt>
      <trkpt lat="51.23346185756" lon="4.470242032615">
        <ele>9</ele>
        <time>2019-04-27T10:01:19Z</time>
      </trkpt>
      <trkpt lat="51.233573169192" lon="4.470503044981">
        <ele>7.4</ele>
        <time>2019-04-27T10:01:27Z</time>
      </trkpt>
      <trkpt lat="51.233694120009" lon="4.470720890562">
        <ele>4.8</ele>
        <time>2019-04-27T10:01:35Z</time>
      </trkpt>
      <trkpt lat="51.233831918445" lon="4.470948291509">
        <ele>3</ele>
        <time>2019-04-27T10:01:43Z</time>
      </trkpt>
      <trkpt lat="51.233951109063" lon="4.471167478194">
        <ele>1.8</ele>
        <time>2019-04-27T10:01:50Z</time>
      </trkpt>
      <trkpt lat="51.234048925836" lon="4.471460593237">
        <ele>2.4</ele>
        <time>2019-04-27T10:01:58Z</time>
      </trkpt>
      <trkpt lat="51.23415671707" lon="4.471703835975">
        <ele>5</ele>
        <time>2019-04-27T10:02:05Z</time>
      </trkpt>
      <trkpt lat="51.23427071091" lon="4.471954957699">
        <ele>5</ele>
        <time>2019-04-27T10:02:13Z</time>
      </trkpt>
      <trkpt lat="51.234376658126" lon="4.472194093306">
        <ele>5.8</ele>
        <time>2019-04-27T10:02:20Z</time>
      </trkpt>
      <trkpt lat="51.234500961703" lon="4.472445298849">
        <ele>5.8</ele>
        <time>2019-04-27T10:02:28Z</time>
      </trkpt>
      <trkpt lat="51.234600538675" lon="4.47272097954">
        <ele>6.4</ele>
        <time>2019-04-27T10:02:36Z</time>
      </trkpt>
      <trkpt lat="51.234665246943" lon="4.472991295815">
        <ele>7.8</ele>
        <time>2019-04-27T10:02:43Z</time>
      </trkpt>
      <trkpt lat="51.234773373453" lon="4.473266305954">
        <ele>10.2</ele>
        <time>2019-04-27T10:02:51Z</time>
      </trkpt>
      <trkpt lat="51.234865490534" lon="4.473556068237">
        <ele>9</ele>
        <time>2019-04-27T10:02:59Z</time>
      </trkpt>
      <trkpt lat="51.23492701368" lon="4.473833760584">
        <ele>7.6</ele>
        <time>2019-04-27T10:03:06Z</time>
      </trkpt>
      <trkpt lat="51.235064644478" lon="4.474034087994">
        <ele>4.8</ele>
        <time>2019-04-27T10:03:15Z</time>
      </trkpt>
      <trkpt lat="51.235201437086" lon="4.474274229429">
        <ele>8</ele>
        <time>2019-04-27T10:03:23Z</time>
      </trkpt>
      <trkpt lat="51.235274946349" lon="4.474559884581">
        <ele>9.8</ele>
        <time>2019-04-27T10:03:31Z</time>
      </trkpt>
      <trkpt lat="51.235352562743" lon="4.474839169489">
        <ele>8.6</ele>
        <time>2019-04-27T10:03:38Z</time>
      </trkpt>
      <trkpt lat="51.235447110575" lon="4.475101522959">
        <ele>11.2</ele>
        <time>2019-04-27T10:03:45Z</time>
      </trkpt>
      <trkpt lat="51.235532605955" lon="4.475364882257">
        <ele>15.6</ele>
        <time>2019-04-27T10:03:52Z</time>
      </trkpt>
      <trkpt lat="51.235617933697" lon="4.475642490785">
        <ele>20.2</ele>
        <time>2019-04-27T10:04:00Z</time>
      </trkpt>
      <trkpt lat="51.235679540662" lon="4.475923954987">
        <ele>20.6</ele>
        <time>2019-04-27T10:04:07Z</time>
      </trkpt>
      <trkpt lat="51.235723377999" lon="4.476219668419">
        <ele>18.4</ele>
        <time>2019-04-27T10:04:15Z</time>
      </trkpt>
      <trkpt lat="51.235778949996" lon="4.476517477326">
        <ele>16.4</ele>
        <time>2019-04-27T10:04:23Z</time>
      </trkpt>
      <trkpt lat="51.235823793161" lon="4.476811933473">
        <ele>14.6</ele>
        <time>2019-04-27T10:04:31Z</time>
      </trkpt>
      <trkpt lat="51.235890261628" lon="4.477102450127">
        <ele>15.4</ele>
        <time>2019-04-27T10:04:39Z</time>
      </trkpt>
      <trkpt lat="51.235952203869" lon="4.477380393931">
        <ele>17.2</ele>
        <time>2019-04-27T10:04:47Z</time>
      </trkpt>
      <trkpt lat="51.23601414611" lon="4.477678370476">
        <ele>16.4</ele>
        <time>2019-04-27T10:04:55Z</time>
      </trkpt>
      <trkpt lat="51.236102491336" lon="4.478063351143">
        <ele>17.6</ele>
        <time>2019-04-27T10:05:05Z</time>
      </trkpt>
      <trkpt lat="51.236146663949" lon="4.478341378766">
        <ele>16.8</ele>
        <time>2019-04-27T10:05:13Z</time>
      </trkpt>
      <trkpt lat="51.236176922608" lon="4.478634326171">
        <ele>20.2</ele>
        <time>2019-04-27T10:05:21Z</time>
      </trkpt>
      <trkpt lat="51.236233248976" lon="4.47892526192">
        <ele>26</ele>
        <time>2019-04-27T10:05:28Z</time>
      </trkpt>
      <trkpt lat="51.236257975581" lon="4.479235056944">
        <ele>28</ele>
        <time>2019-04-27T10:05:36Z</time>
      </trkpt>
      <trkpt lat="51.236209695837" lon="4.479516269689">
        <ele>22</ele>
        <time>2019-04-27T10:05:44Z</time>
      </trkpt>
      <trkpt lat="51.236188657268" lon="4.479840649219">
        <ele>17.2</ele>
        <time>2019-04-27T10:05:52Z</time>
      </trkpt>
      <trkpt lat="51.236150016709" lon="4.480139044859">
        <ele>13.4</ele>
        <time>2019-04-27T10:06:00Z</time>
      </trkpt>
      <trkpt lat="51.236121685887" lon="4.480449594254">
        <ele>11</ele>
        <time>2019-04-27T10:06:08Z</time>
      </trkpt>
      <trkpt lat="51.236103664802" lon="4.480761484753">
        <ele>10.2</ele>
        <time>2019-04-27T10:06:16Z</time>
      </trkpt>
      <trkpt lat="51.236103916259" lon="4.481066082999">
        <ele>11</ele>
        <time>2019-04-27T10:06:24Z</time>
      </trkpt>
      <trkpt lat="51.23610802339" lon="4.481369675417">
        <ele>12</ele>
        <time>2019-04-27T10:06:32Z</time>
      </trkpt>
      <trkpt lat="51.236095115264" lon="4.481658096596">
        <ele>13</ele>
        <time>2019-04-27T10:06:40Z</time>
      </trkpt>
      <trkpt lat="51.236073489962" lon="4.481942913558">
        <ele>14</ele>
        <time>2019-04-27T10:06:48Z</time>
      </trkpt>
      <trkpt lat="51.2360485119" lon="4.482237872619">
        <ele>13.2</ele>
        <time>2019-04-27T10:06:56Z</time>
      </trkpt>
      <trkpt lat="51.236047506072" lon="4.482530065653">
        <ele>10.4</ele>
        <time>2019-04-27T10:07:04Z</time>
      </trkpt>
      <trkpt lat="51.236053038126" lon="4.482835166813">
        <ele>9.4</ele>
        <time>2019-04-27T10:07:12Z</time>
      </trkpt>
      <trkpt lat="51.236043566579" lon="4.48315895961">
        <ele>10.6</ele>
        <time>2019-04-27T10:07:20Z</time>
      </trkpt>
      <trkpt lat="51.236041387285" lon="4.483449140988">
        <ele>9.4</ele>
        <time>2019-04-27T10:07:27Z</time>
      </trkpt>
      <trkpt lat="51.236047841348" lon="4.483764551885">
        <ele>8.8</ele>
        <time>2019-04-27T10:07:35Z</time>
      </trkpt>
      <trkpt lat="51.236055049782" lon="4.484067138475">
        <ele>8</ele>
        <time>2019-04-27T10:07:42Z</time>
      </trkpt>
      <trkpt lat="51.236057564352" lon="4.484362097536">
        <ele>7.8</ele>
        <time>2019-04-27T10:07:49Z</time>
      </trkpt>
      <trkpt lat="51.236054127773" lon="4.484650602534">
        <ele>8.2</ele>
        <time>2019-04-27T10:07:56Z</time>
      </trkpt>
      <trkpt lat="51.235987072573" lon="4.484950255459">
        <ele>8.2</ele>
        <time>2019-04-27T10:08:04Z</time>
      </trkpt>
      <trkpt lat="51.236016157766" lon="4.485249321651">
        <ele>6.8</ele>
        <time>2019-04-27T10:08:12Z</time>
      </trkpt>
      <trkpt lat="51.236039040353" lon="4.485548471662">
        <ele>7.6</ele>
        <time>2019-04-27T10:08:20Z</time>
      </trkpt>
      <trkpt lat="51.236035436136" lon="4.485857428496">
        <ele>6.8</ele>
        <time>2019-04-27T10:08:28Z</time>
      </trkpt>
      <trkpt lat="51.236038872715" lon="4.486154483032">
        <ele>6.4</ele>
        <time>2019-04-27T10:08:36Z</time>
      </trkpt>
      <trkpt lat="51.236048595719" lon="4.486467966092">
        <ele>8.4</ele>
        <time>2019-04-27T10:08:45Z</time>
      </trkpt>
      <trkpt lat="51.236055049782" lon="4.486758482746">
        <ele>8.2</ele>
        <time>2019-04-27T10:08:53Z</time>
      </trkpt>
      <trkpt lat="51.236074831066" lon="4.487065260286">
        <ele>9.6</ele>
        <time>2019-04-27T10:09:01Z</time>
      </trkpt>
      <trkpt lat="51.236078770559" lon="4.487168106199">
        <ele>9.2</ele>
        <time>2019-04-27T10:09:04Z</time>
      </trkpt>
      <trkpt lat="51.236054965963" lon="4.487198364858">
        <ele>6.6</ele>
        <time>2019-04-27T10:09:17Z</time>
      </trkpt>
      <trkpt lat="51.236047589891" lon="4.4872417831">
        <ele>6.2</ele>
        <time>2019-04-27T10:09:19Z</time>
      </trkpt>
      <trkpt lat="51.236057899628" lon="4.487558786558">
        <ele>6.2</ele>
        <time>2019-04-27T10:09:28Z</time>
      </trkpt>
      <trkpt lat="51.236074160514" lon="4.487876125292">
        <ele>5.2</ele>
        <time>2019-04-27T10:09:36Z</time>
      </trkpt>
      <trkpt lat="51.23608706864" lon="4.488163624462">
        <ele>4.2</ele>
        <time>2019-04-27T10:09:43Z</time>
      </trkpt>
      <trkpt lat="51.236094109436" lon="4.488453135288">
        <ele>5</ele>
        <time>2019-04-27T10:09:50Z</time>
      </trkpt>
      <trkpt lat="51.236111208512" lon="4.488742310838">
        <ele>5</ele>
        <time>2019-04-27T10:09:57Z</time>
      </trkpt>
      <trkpt lat="51.23612143443" lon="4.489059649572">
        <ele>5.6</ele>
        <time>2019-04-27T10:10:05Z</time>
      </trkpt>
      <trkpt lat="51.236112465797" lon="4.489382268903">
        <ele>5</ele>
        <time>2019-04-27T10:10:13Z</time>
      </trkpt>
      <trkpt lat="51.236079608749" lon="4.489664487476">
        <ele>5.8</ele>
        <time>2019-04-27T10:10:20Z</time>
      </trkpt>
      <trkpt lat="51.236068041727" lon="4.489975623604">
        <ele>5.8</ele>
        <time>2019-04-27T10:10:28Z</time>
      </trkpt>
      <trkpt lat="51.236041638742" lon="4.490262787498">
        <ele>6.4</ele>
        <time>2019-04-27T10:10:35Z</time>
      </trkpt>
      <trkpt lat="51.236007021495" lon="4.490496391051">
        <ele>8</ele>
        <time>2019-04-27T10:10:42Z</time>
      </trkpt>
      <trkpt lat="51.236178515169" lon="4.49059538129">
        <ele>8.8</ele>
        <time>2019-04-27T10:10:51Z</time>
      </trkpt>
      <trkpt lat="51.236354954164" lon="4.490595297471">
        <ele>9</ele>
        <time>2019-04-27T10:10:59Z</time>
      </trkpt>
      <trkpt lat="51.236545977665" lon="4.490656904436">
        <ele>7.8</ele>
        <time>2019-04-27T10:11:07Z</time>
      </trkpt>
      <trkpt lat="51.2367358277" lon="4.490712811709">
        <ele>6.8</ele>
        <time>2019-04-27T10:11:15Z</time>
      </trkpt>
      <trkpt lat="51.236918050206" lon="4.490726222749">
        <ele>4.4</ele>
        <time>2019-04-27T10:11:23Z</time>
      </trkpt>
      <trkpt lat="51.237128268258" lon="4.490679284109">
        <ele>2.6</ele>
        <time>2019-04-27T10:11:32Z</time>
      </trkpt>
      <trkpt lat="51.237314681714" lon="4.490588927227">
        <ele>1.4</ele>
        <time>2019-04-27T10:11:41Z</time>
      </trkpt>
      <trkpt lat="51.237492629451" lon="4.490512149023">
        <ele>1.4</ele>
        <time>2019-04-27T10:11:49Z</time>
      </trkpt>
      <trkpt lat="51.23767124774" lon="4.490417182096">
        <ele>1.2</ele>
        <time>2019-04-27T10:11:57Z</time>
      </trkpt>
      <trkpt lat="51.237826396709" lon="4.49024334149">
        <ele>1.8</ele>
        <time>2019-04-27T10:12:05Z</time>
      </trkpt>
      <trkpt lat="51.238002165152" lon="4.490180393421">
        <ele>3.4</ele>
        <time>2019-04-27T10:12:13Z</time>
      </trkpt>
      <trkpt lat="51.238189919712" lon="4.490152397875">
        <ele>5</ele>
        <time>2019-04-27T10:12:21Z</time>
      </trkpt>
      <trkpt lat="51.238382200498" lon="4.490159019576">
        <ele>5.6</ele>
        <time>2019-04-27T10:12:29Z</time>
      </trkpt>
      <trkpt lat="51.238569619782" lon="4.490186847484">
        <ele>5.4</ele>
        <time>2019-04-27T10:12:37Z</time>
      </trkpt>
      <trkpt lat="51.238757290523" lon="4.490252058666">
        <ele>5.8</ele>
        <time>2019-04-27T10:12:45Z</time>
      </trkpt>
      <trkpt lat="51.238945547997" lon="4.490334452743">
        <ele>8</ele>
        <time>2019-04-27T10:12:53Z</time>
      </trkpt>
      <trkpt lat="51.239126513218" lon="4.490432604792">
        <ele>10.8</ele>
        <time>2019-04-27T10:13:01Z</time>
      </trkpt>
      <trkpt lat="51.239299180358" lon="4.490513657765">
        <ele>10.8</ele>
        <time>2019-04-27T10:13:09Z</time>
      </trkpt>
      <trkpt lat="51.239487186375" lon="4.490591609435">
        <ele>11.8</ele>
        <time>2019-04-27T10:13:17Z</time>
      </trkpt>
      <trkpt lat="51.239679467161" lon="4.490676350444">
        <ele>11.2</ele>
        <time>2019-04-27T10:13:25Z</time>
      </trkpt>
      <trkpt lat="51.239871747947" lon="4.490771736466">
        <ele>10.8</ele>
        <time>2019-04-27T10:13:33Z</time>
      </trkpt>
      <trkpt lat="51.240067884407" lon="4.490862596262">
        <ele>10.6</ele>
        <time>2019-04-27T10:13:41Z</time>
      </trkpt>
      <trkpt lat="51.240261590116" lon="4.490955216257">
        <ele>11.2</ele>
        <time>2019-04-27T10:13:49Z</time>
      </trkpt>
      <trkpt lat="51.240456050196" lon="4.491047500976">
        <ele>11.2</ele>
        <time>2019-04-27T10:13:57Z</time>
      </trkpt>
      <trkpt lat="51.240631567182" lon="4.491125620284">
        <ele>9.2</ele>
        <time>2019-04-27T10:14:04Z</time>
      </trkpt>
      <trkpt lat="51.240803396132" lon="4.491218827012">
        <ele>8.6</ele>
        <time>2019-04-27T10:14:11Z</time>
      </trkpt>
      <trkpt lat="51.240975476539" lon="4.491308345704">
        <ele>8</ele>
        <time>2019-04-27T10:14:18Z</time>
      </trkpt>
      <trkpt lat="51.24117152918" lon="4.491393421989">
        <ele>5.4</ele>
        <time>2019-04-27T10:14:26Z</time>
      </trkpt>
      <trkpt lat="51.241351153297" lon="4.491521497421">
        <ele>1.6</ele>
        <time>2019-04-27T10:14:34Z</time>
      </trkpt>
      <trkpt lat="51.241502446592" lon="4.491699361339">
        <ele>0</ele>
        <time>2019-04-27T10:14:41Z</time>
      </trkpt>
      <trkpt lat="51.24163001911" lon="4.491910836676">
        <ele>1.6</ele>
        <time>2019-04-27T10:14:48Z</time>
      </trkpt>
      <trkpt lat="51.241744599683" lon="4.492181655865">
        <ele>2.2</ele>
        <time>2019-04-27T10:14:56Z</time>
      </trkpt>
      <trkpt lat="51.241825904113" lon="4.492454738167">
        <ele>2.6</ele>
        <time>2019-04-27T10:15:03Z</time>
      </trkpt>
      <trkpt lat="51.241882817214" lon="4.492762521535">
        <ele>7.2</ele>
        <time>2019-04-27T10:15:10Z</time>
      </trkpt>
      <trkpt lat="51.24191500371" lon="4.493059240795">
        <ele>11.8</ele>
        <time>2019-04-27T10:15:17Z</time>
      </trkpt>
      <trkpt lat="51.241963031997" lon="4.493345650318">
        <ele>14.6</ele>
        <time>2019-04-27T10:15:24Z</time>
      </trkpt>
      <trkpt lat="51.242012736664" lon="4.493656954084">
        <ele>17.8</ele>
        <time>2019-04-27T10:15:32Z</time>
      </trkpt>
      <trkpt lat="51.242076020009" lon="4.493941351951">
        <ele>15.6</ele>
        <time>2019-04-27T10:15:40Z</time>
      </trkpt>
      <trkpt lat="51.242172579497" lon="4.494224492533">
        <ele>19.2</ele>
        <time>2019-04-27T10:15:48Z</time>
      </trkpt>
      <trkpt lat="51.242265870044" lon="4.494483325605">
        <ele>23.8</ele>
        <time>2019-04-27T10:15:56Z</time>
      </trkpt>
      <trkpt lat="51.242265870044" lon="4.494807453678">
        <ele>16.8</ele>
        <time>2019-04-27T10:16:05Z</time>
      </trkpt>
      <trkpt lat="51.242337200013" lon="4.495099311436">
        <ele>18.8</ele>
        <time>2019-04-27T10:16:13Z</time>
      </trkpt>
      <trkpt lat="51.242407188878" lon="4.495366023494">
        <ele>20.4</ele>
        <time>2019-04-27T10:16:21Z</time>
      </trkpt>
      <trkpt lat="51.242463431427" lon="4.495653355026">
        <ele>21.4</ele>
        <time>2019-04-27T10:16:29Z</time>
      </trkpt>
      <trkpt lat="51.242568708091" lon="4.495928113708">
        <ele>23</ele>
        <time>2019-04-27T10:16:37Z</time>
      </trkpt>
      <trkpt lat="51.242670129081" lon="4.49618946135">
        <ele>23</ele>
        <time>2019-04-27T10:16:45Z</time>
      </trkpt>
      <trkpt lat="51.242721929223" lon="4.49650126803">
        <ele>19</ele>
        <time>2019-04-27T10:16:54Z</time>
      </trkpt>
      <trkpt lat="51.242838521452" lon="4.496757251256">
        <ele>20.4</ele>
        <time>2019-04-27T10:17:02Z</time>
      </trkpt>
      <trkpt lat="51.242930806171" lon="4.497045169521">
        <ele>22.2</ele>
        <time>2019-04-27T10:17:11Z</time>
      </trkpt>
      <trkpt lat="51.243003728701" lon="4.497324873524">
        <ele>20.6</ele>
        <time>2019-04-27T10:17:19Z</time>
      </trkpt>
      <trkpt lat="51.243029544953" lon="4.497657383497">
        <ele>6.2</ele>
        <time>2019-04-27T10:17:30Z</time>
      </trkpt>
      <trkpt lat="51.243170109416" lon="4.498083519293">
        <ele>4.8</ele>
        <time>2019-04-27T10:17:44Z</time>
      </trkpt>
      <trkpt lat="51.243290138224" lon="4.498299688494">
        <ele>3.4</ele>
        <time>2019-04-27T10:17:52Z</time>
      </trkpt>
      <trkpt lat="51.243429110126" lon="4.498492136918">
        <ele>1.4</ele>
        <time>2019-04-27T10:17:59Z</time>
      </trkpt>
      <trkpt lat="51.243564310173" lon="4.498700175676">
        <ele>3.4</ele>
        <time>2019-04-27T10:18:06Z</time>
      </trkpt>
      <trkpt lat="51.243697247107" lon="4.498907962977">
        <ele>6</ele>
        <time>2019-04-27T10:18:13Z</time>
      </trkpt>
      <trkpt lat="51.243774025311" lon="4.499185487686">
        <ele>6.8</ele>
        <time>2019-04-27T10:18:22Z</time>
      </trkpt>
      <trkpt lat="51.243867399677" lon="4.49943660941">
        <ele>7.2</ele>
        <time>2019-04-27T10:18:29Z</time>
      </trkpt>
      <trkpt lat="51.243948536469" lon="4.49971991763">
        <ele>6.6</ele>
        <time>2019-04-27T10:18:37Z</time>
      </trkpt>
      <trkpt lat="51.244029086528" lon="4.499997526158">
        <ele>4</ele>
        <time>2019-04-27T10:18:45Z</time>
      </trkpt>
      <trkpt lat="51.244106619103" lon="4.500282510758">
        <ele>3.6</ele>
        <time>2019-04-27T10:18:53Z</time>
      </trkpt>
      <trkpt lat="51.244180463642" lon="4.50055894582">
        <ele>7</ele>
        <time>2019-04-27T10:19:00Z</time>
      </trkpt>
      <trkpt lat="51.244223462789" lon="4.500843678963">
        <ele>6.8</ele>
        <time>2019-04-27T10:19:07Z</time>
      </trkpt>
      <trkpt lat="51.244202843315" lon="4.501152049064">
        <ele>6.4</ele>
        <time>2019-04-27T10:19:15Z</time>
      </trkpt>
      <trkpt lat="51.24436587127" lon="4.50114484063">
        <ele>1.8</ele>
        <time>2019-04-27T10:19:25Z</time>
      </trkpt>
      <trkpt lat="51.244535101831" lon="4.501003940891">
        <ele>1.4</ele>
        <time>2019-04-27T10:19:33Z</time>
      </trkpt>
      <trkpt lat="51.244715731776" lon="4.50112640045">
        <ele>3</ele>
        <time>2019-04-27T10:19:41Z</time>
      </trkpt>
      <trkpt lat="51.244894517703" lon="4.501241819213">
        <ele>6.2</ele>
        <time>2019-04-27T10:19:50Z</time>
      </trkpt>
      <trkpt lat="51.245084367738" lon="4.501330751172">
        <ele>8.4</ele>
        <time>2019-04-27T10:19:59Z</time>
      </trkpt>
      <trkpt lat="51.24522333964" lon="4.5015245407">
        <ele>10.2</ele>
        <time>2019-04-27T10:20:06Z</time>
      </trkpt>
      <trkpt lat="51.245366586311" lon="4.501743559747">
        <ele>9.6</ele>
        <time>2019-04-27T10:20:13Z</time>
      </trkpt>
      <trkpt lat="51.24551000062" lon="4.501939025655">
        <ele>9.4</ele>
        <time>2019-04-27T10:20:20Z</time>
      </trkpt>
      <trkpt lat="51.245660371906" lon="4.502165001679">
        <ele>10</ele>
        <time>2019-04-27T10:20:28Z</time>
      </trkpt>
      <trkpt lat="51.245798002704" lon="4.502391061522">
        <ele>11.2</ele>
        <time>2019-04-27T10:20:36Z</time>
      </trkpt>
      <trkpt lat="51.245936471692" lon="4.502609661474">
        <ele>11.4</ele>
        <time>2019-04-27T10:20:44Z</time>
      </trkpt>
      <trkpt lat="51.246083490218" lon="4.502799762966">
        <ele>9.8</ele>
        <time>2019-04-27T10:20:52Z</time>
      </trkpt>
      <trkpt lat="51.246225311966" lon="4.503017943823">
        <ele>8</ele>
        <time>2019-04-27T10:21:00Z</time>
      </trkpt>
      <trkpt lat="51.246354393226" lon="4.503245680046">
        <ele>4.2</ele>
        <time>2019-04-27T10:21:08Z</time>
      </trkpt>
      <trkpt lat="51.24641440763" lon="4.503288846831">
        <ele>5.6</ele>
        <time>2019-04-27T10:21:11Z</time>
      </trkpt>
      <trkpt lat="51.246601659276" lon="4.503315920368">
        <ele>6</ele>
        <time>2019-04-27T10:21:20Z</time>
      </trkpt>
      <trkpt lat="51.246793185691" lon="4.503363697198">
        <ele>7.4</ele>
        <time>2019-04-27T10:21:28Z</time>
      </trkpt>
      <trkpt lat="51.246979515328" lon="4.503388172346">
        <ele>13.2</ele>
        <time>2019-04-27T10:21:36Z</time>
      </trkpt>
      <trkpt lat="51.24715620578" lon="4.503437960832">
        <ele>13.4</ele>
        <time>2019-04-27T10:21:44Z</time>
      </trkpt>
      <trkpt lat="51.247354605353" lon="4.503490515345">
        <ele>4.8</ele>
        <time>2019-04-27T10:21:53Z</time>
      </trkpt>
      <trkpt lat="51.247549987442" lon="4.503450785139">
        <ele>4.4</ele>
        <time>2019-04-27T10:22:01Z</time>
      </trkpt>
      <trkpt lat="51.247753583793" lon="4.503424046878">
        <ele>4.4</ele>
        <time>2019-04-27T10:22:09Z</time>
      </trkpt>
      <trkpt lat="51.247950642262" lon="4.503405019965">
        <ele>3.2</ele>
        <time>2019-04-27T10:22:17Z</time>
      </trkpt>
      <trkpt lat="51.248136385166" lon="4.503409043277">
        <ele>2.6</ele>
        <time>2019-04-27T10:22:24Z</time>
      </trkpt>
      <trkpt lat="51.248318859129" lon="4.503441900325">
        <ele>1.4</ele>
        <time>2019-04-27T10:22:32Z</time>
      </trkpt>
      <trkpt lat="51.248516169055" lon="4.503438799022">
        <ele>1.8</ele>
        <time>2019-04-27T10:22:40Z</time>
      </trkpt>
      <trkpt lat="51.248696631362" lon="4.503456652469">
        <ele>1.8</ele>
        <time>2019-04-27T10:22:47Z</time>
      </trkpt>
      <trkpt lat="51.248892851641" lon="4.503431925864">
        <ele>2.6</ele>
        <time>2019-04-27T10:22:55Z</time>
      </trkpt>
      <trkpt lat="51.249089155739" lon="4.503423460145">
        <ele>2.6</ele>
        <time>2019-04-27T10:23:03Z</time>
      </trkpt>
      <trkpt lat="51.249284705466" lon="4.503428573104">
        <ele>1</ele>
        <time>2019-04-27T10:23:11Z</time>
      </trkpt>
      <trkpt lat="51.249463659031" lon="4.503509039344">
        <ele>1.8</ele>
        <time>2019-04-27T10:23:19Z</time>
      </trkpt>
      <trkpt lat="51.249649150478" lon="4.503560085115">
        <ele>4.2</ele>
        <time>2019-04-27T10:23:27Z</time>
      </trkpt>
      <trkpt lat="51.249837491771" lon="4.50366863072">
        <ele>6</ele>
        <time>2019-04-27T10:23:35Z</time>
      </trkpt>
      <trkpt lat="51.249998759527" lon="4.503791509374">
        <ele>7.4</ele>
        <time>2019-04-27T10:23:42Z</time>
      </trkpt>
      <trkpt lat="51.250065144175" lon="4.50374155325">
        <ele>7.6</ele>
        <time>2019-04-27T10:23:46Z</time>
      </trkpt>
      <trkpt lat="51.250146448605" lon="4.503425723258">
        <ele>9</ele>
        <time>2019-04-27T10:23:55Z</time>
      </trkpt>
      <trkpt lat="51.250224232637" lon="4.503164543254">
        <ele>7.6</ele>
        <time>2019-04-27T10:24:03Z</time>
      </trkpt>
      <trkpt lat="51.250310147112" lon="4.502877295541">
        <ele>6.2</ele>
        <time>2019-04-27T10:24:11Z</time>
      </trkpt>
      <trkpt lat="51.25039245737" lon="4.502596166615">
        <ele>6.2</ele>
        <time>2019-04-27T10:24:19Z</time>
      </trkpt>
      <trkpt lat="51.250488178668" lon="4.502321910847">
        <ele>6</ele>
        <time>2019-04-27T10:24:27Z</time>
      </trkpt>
      <trkpt lat="51.250682052015" lon="4.502310930558">
        <ele>5.2</ele>
        <time>2019-04-27T10:24:35Z</time>
      </trkpt>
      <trkpt lat="51.250865615625" lon="4.502390307151">
        <ele>3.6</ele>
        <time>2019-04-27T10:24:43Z</time>
      </trkpt>
      <trkpt lat="51.251051190891" lon="4.502440011818">
        <ele>2.4</ele>
        <time>2019-04-27T10:24:50Z</time>
      </trkpt>
      <trkpt lat="51.251239196908" lon="4.502494494168">
        <ele>4</ele>
        <time>2019-04-27T10:24:58Z</time>
      </trkpt>
      <trkpt lat="51.251420245948" lon="4.502603794144">
        <ele>4.4</ele>
        <time>2019-04-27T10:25:06Z</time>
      </trkpt>
      <trkpt lat="51.251600121522" lon="4.502698928709">
        <ele>3.8</ele>
        <time>2019-04-27T10:25:14Z</time>
      </trkpt>
      <trkpt lat="51.251767675703" lon="4.50284720452">
        <ele>3.6</ele>
        <time>2019-04-27T10:25:22Z</time>
      </trkpt>
      <trkpt lat="51.251966159095" lon="4.502918953584">
        <ele>5</ele>
        <time>2019-04-27T10:25:30Z</time>
      </trkpt>
      <trkpt lat="51.252157936967" lon="4.502995815607">
        <ele>4.8</ele>
        <time>2019-04-27T10:25:38Z</time>
      </trkpt>
      <trkpt lat="51.252351977952" lon="4.503062200255">
        <ele>5</ele>
        <time>2019-04-27T10:25:46Z</time>
      </trkpt>
      <trkpt lat="51.252469827466" lon="4.503165632901">
        <ele>3.6</ele>
        <time>2019-04-27T10:25:52Z</time>
      </trkpt>
      <trkpt lat="51.252490782216" lon="4.503338802955">
        <ele>3.4</ele>
        <time>2019-04-27T10:25:57Z</time>
      </trkpt>
      <trkpt lat="51.252660012777" lon="4.503245847684">
        <ele>2.4</ele>
        <time>2019-04-27T10:26:06Z</time>
      </trkpt>
      <trkpt lat="51.252707202874" lon="4.503243584571">
        <ele>2.8</ele>
        <time>2019-04-27T10:26:07Z</time>
      </trkpt>
      <trkpt lat="51.252893029597" lon="4.503265964244">
        <ele>5.6</ele>
        <time>2019-04-27T10:26:17Z</time>
      </trkpt>
      <trkpt lat="51.253087657315" lon="4.503303012242">
        <ele>8.8</ele>
        <time>2019-04-27T10:26:26Z</time>
      </trkpt>
      <trkpt lat="51.253277004436" lon="4.503342658629">
        <ele>10.8</ele>
        <time>2019-04-27T10:26:34Z</time>
      </trkpt>
      <trkpt lat="51.253477415665" lon="4.503451455691">
        <ele>9.8</ele>
        <time>2019-04-27T10:26:42Z</time>
      </trkpt>
      <trkpt lat="51.25367313303" lon="4.503506357136">
        <ele>8.4</ele>
        <time>2019-04-27T10:26:50Z</time>
      </trkpt>
      <trkpt lat="51.253861558142" lon="4.503463190351">
        <ele>6</ele>
        <time>2019-04-27T10:26:58Z</time>
      </trkpt>
      <trkpt lat="51.254056437317" lon="4.503448102931">
        <ele>5.6</ele>
        <time>2019-04-27T10:27:06Z</time>
      </trkpt>
      <trkpt lat="51.254249723931" lon="4.50338699888">
        <ele>3.2</ele>
        <time>2019-04-27T10:27:14Z</time>
      </trkpt>
      <trkpt lat="51.254434125731" lon="4.503321368603">
        <ele>6</ele>
        <time>2019-04-27T10:27:22Z</time>
      </trkpt>
      <trkpt lat="51.254622718481" lon="4.503416251711">
        <ele>9</ele>
        <time>2019-04-27T10:27:30Z</time>
      </trkpt>
      <trkpt lat="51.254823213529" lon="4.503469225319">
        <ele>11</ele>
        <time>2019-04-27T10:27:38Z</time>
      </trkpt>
      <trkpt lat="51.255024882043" lon="4.503531335198">
        <ele>14.2</ele>
        <time>2019-04-27T10:27:46Z</time>
      </trkpt>
      <trkpt lat="51.255201069581" lon="4.503664691227">
        <ele>13.4</ele>
        <time>2019-04-27T10:27:53Z</time>
      </trkpt>
      <trkpt lat="51.255373066169" lon="4.503754293738">
        <ele>14.8</ele>
        <time>2019-04-27T10:28:01Z</time>
      </trkpt>
      <trkpt lat="51.255548834612" lon="4.503851942873">
        <ele>15</ele>
        <time>2019-04-27T10:28:09Z</time>
      </trkpt>
      <trkpt lat="51.255717897535" lon="4.50395361532">
        <ele>14.2</ele>
        <time>2019-04-27T10:28:17Z</time>
      </trkpt>
      <trkpt lat="51.255882685689" lon="4.504070710463">
        <ele>12</ele>
        <time>2019-04-27T10:28:25Z</time>
      </trkpt>
      <trkpt lat="51.256045126911" lon="4.504249747847">
        <ele>9</ele>
        <time>2019-04-27T10:28:33Z</time>
      </trkpt>
      <trkpt lat="51.25622709796" lon="4.504382852419">
        <ele>8.4</ele>
        <time>2019-04-27T10:28:41Z</time>
      </trkpt>
      <trkpt lat="51.256399597462" lon="4.504534648628">
        <ele>7.8</ele>
        <time>2019-04-27T10:28:48Z</time>
      </trkpt>
      <trkpt lat="51.256587771117" lon="4.504658616929">
        <ele>6.6</ele>
        <time>2019-04-27T10:28:56Z</time>
      </trkpt>
      <trkpt lat="51.256767311415" lon="4.504815777554">
        <ele>7.2</ele>
        <time>2019-04-27T10:29:04Z</time>
      </trkpt>
      <trkpt lat="51.256934446501" lon="4.504935303448">
        <ele>7.4</ele>
        <time>2019-04-27T10:29:11Z</time>
      </trkpt>
      <trkpt lat="51.257102838872" lon="4.505089446589">
        <ele>7.4</ele>
        <time>2019-04-27T10:29:19Z</time>
      </trkpt>
      <trkpt lat="51.257262514067" lon="4.505243338273">
        <ele>6.4</ele>
        <time>2019-04-27T10:29:26Z</time>
      </trkpt>
      <trkpt lat="51.257450771541" lon="4.505329420386">
        <ele>5.2</ele>
        <time>2019-04-27T10:29:34Z</time>
      </trkpt>
      <trkpt lat="51.257617906627" lon="4.505446096434">
        <ele>4.4</ele>
        <time>2019-04-27T10:29:41Z</time>
      </trkpt>
      <trkpt lat="51.257801637875" lon="4.505567633984">
        <ele>5.8</ele>
        <time>2019-04-27T10:29:49Z</time>
      </trkpt>
      <trkpt lat="51.258122497007" lon="4.505809451799">
        <ele>3.8</ele>
        <time>2019-04-27T10:30:03Z</time>
      </trkpt>
      <trkpt lat="51.258297008165" lon="4.5059334201">
        <ele>4.2</ele>
        <time>2019-04-27T10:30:11Z</time>
      </trkpt>
      <trkpt lat="51.258479733585" lon="4.506052191623">
        <ele>3</ele>
        <time>2019-04-27T10:30:19Z</time>
      </trkpt>
      <trkpt lat="51.258665057394" lon="4.506174651182">
        <ele>1.8</ele>
        <time>2019-04-27T10:30:27Z</time>
      </trkpt>
      <trkpt lat="51.258851219393" lon="4.506299541492">
        <ele>2.2</ele>
        <time>2019-04-27T10:30:35Z</time>
      </trkpt>
      <trkpt lat="51.259028161302" lon="4.506442788163">
        <ele>1.6</ele>
        <time>2019-04-27T10:30:43Z</time>
      </trkpt>
      <trkpt lat="51.259216418776" lon="4.506560972953">
        <ele>1.4</ele>
        <time>2019-04-27T10:30:52Z</time>
      </trkpt>
      <trkpt lat="51.259398976558" lon="4.506673038956">
        <ele>2</ele>
        <time>2019-04-27T10:31:00Z</time>
      </trkpt>
      <trkpt lat="51.259577091933" lon="4.506784015312">
        <ele>3.2</ele>
        <time>2019-04-27T10:31:08Z</time>
      </trkpt>
      <trkpt lat="51.259756464593" lon="4.506871438529">
        <ele>6</ele>
        <time>2019-04-27T10:31:16Z</time>
      </trkpt>
      <trkpt lat="51.259950421759" lon="4.506919047721">
        <ele>2.6</ele>
        <time>2019-04-27T10:31:24Z</time>
      </trkpt>
      <trkpt lat="51.260147815504" lon="4.506978391573">
        <ele>3.2</ele>
        <time>2019-04-27T10:31:32Z</time>
      </trkpt>
      <trkpt lat="51.260330540924" lon="4.507059528365">
        <ele>4.8</ele>
        <time>2019-04-27T10:31:40Z</time>
      </trkpt>
      <trkpt lat="51.260515445638" lon="4.507164972667">
        <ele>5.2</ele>
        <time>2019-04-27T10:31:48Z</time>
      </trkpt>
      <trkpt lat="51.260685179113" lon="4.507268824408">
        <ele>6.4</ele>
        <time>2019-04-27T10:31:56Z</time>
      </trkpt>
      <trkpt lat="51.260867066343" lon="4.50737426871">
        <ele>6.6</ele>
        <time>2019-04-27T10:32:04Z</time>
      </trkpt>
      <trkpt lat="51.261051635781" lon="4.507498572287">
        <ele>5.8</ele>
        <time>2019-04-27T10:32:12Z</time>
      </trkpt>
      <trkpt lat="51.261230170251" lon="4.507635281076">
        <ele>5</ele>
        <time>2019-04-27T10:32:20Z</time>
      </trkpt>
      <trkpt lat="51.26141130311" lon="4.507751957124">
        <ele>5.6</ele>
        <time>2019-04-27T10:32:28Z</time>
      </trkpt>
      <trkpt lat="51.261584389345" lon="4.507866789154">
        <ele>5.4</ele>
        <time>2019-04-27T10:32:36Z</time>
      </trkpt>
      <trkpt lat="51.261752530259" lon="4.507982710831">
        <ele>6.2</ele>
        <time>2019-04-27T10:32:43Z</time>
      </trkpt>
      <trkpt lat="51.261935255679" lon="4.508117491783">
        <ele>5.8</ele>
        <time>2019-04-27T10:32:51Z</time>
      </trkpt>
      <trkpt lat="51.262114460701" lon="4.508243136464">
        <ele>6.6</ele>
        <time>2019-04-27T10:32:59Z</time>
      </trkpt>
      <trkpt lat="51.262286289651" lon="4.508333493346">
        <ele>5</ele>
        <time>2019-04-27T10:33:07Z</time>
      </trkpt>
      <trkpt lat="51.262469853261" lon="4.508454947077">
        <ele>4.4</ele>
        <time>2019-04-27T10:33:15Z</time>
      </trkpt>
      <trkpt lat="51.262656266717" lon="4.508582519595">
        <ele>3.8</ele>
        <time>2019-04-27T10:33:24Z</time>
      </trkpt>
      <trkpt lat="51.262835807015" lon="4.508740602229">
        <ele>2.6</ele>
        <time>2019-04-27T10:33:32Z</time>
      </trkpt>
      <trkpt lat="51.262882410379" lon="4.508807825067">
        <ele>1.8</ele>
        <time>2019-04-27T10:33:35Z</time>
      </trkpt>
      <trkpt lat="51.263077708649" lon="4.508887369298">
        <ele>2</ele>
        <time>2019-04-27T10:33:43Z</time>
      </trkpt>
      <trkpt lat="51.263263200096" lon="4.508896505569">
        <ele>4.2</ele>
        <time>2019-04-27T10:33:50Z</time>
      </trkpt>
      <trkpt lat="51.263442321299" lon="4.50884026302">
        <ele>5.6</ele>
        <time>2019-04-27T10:33:57Z</time>
      </trkpt>
      <trkpt lat="51.263622029235" lon="4.50879332438">
        <ele>3.2</ele>
        <time>2019-04-27T10:34:04Z</time>
      </trkpt>
      <trkpt lat="51.263797462402" lon="4.508712439045">
        <ele>3.8</ele>
        <time>2019-04-27T10:34:11Z</time>
      </trkpt>
      <trkpt lat="51.263993012129" lon="4.508667847337">
        <ele>4.8</ele>
        <time>2019-04-27T10:34:19Z</time>
      </trkpt>
      <trkpt lat="51.264129469461" lon="4.508889297135">
        <ele>4</ele>
        <time>2019-04-27T10:34:26Z</time>
      </trkpt>
      <trkpt lat="51.264255030323" lon="4.509124157973">
        <ele>3.8</ele>
        <time>2019-04-27T10:34:33Z</time>
      </trkpt>
      <trkpt lat="51.264376232597" lon="4.509357342431">
        <ele>3.2</ele>
        <time>2019-04-27T10:34:40Z</time>
      </trkpt>
      <trkpt lat="51.264509672445" lon="4.509585078654">
        <ele>4</ele>
        <time>2019-04-27T10:34:47Z</time>
      </trkpt>
      <trkpt lat="51.26463833461" lon="4.509792949774">
        <ele>3.8</ele>
        <time>2019-04-27T10:34:54Z</time>
      </trkpt>
      <trkpt lat="51.264777641788" lon="4.510025798956">
        <ele>4.2</ele>
        <time>2019-04-27T10:35:02Z</time>
      </trkpt>
      <trkpt lat="51.264900771899" lon="4.510277926508">
        <ele>3.8</ele>
        <time>2019-04-27T10:35:10Z</time>
      </trkpt>
      <trkpt lat="51.265022309449" lon="4.510510859509">
        <ele>2.8</ele>
        <time>2019-04-27T10:35:17Z</time>
      </trkpt>
      <trkpt lat="51.265141080972" lon="4.510728202176">
        <ele>0</ele>
        <time>2019-04-27T10:35:24Z</time>
      </trkpt>
      <trkpt lat="51.265292206629" lon="4.510946718309">
        <ele>0</ele>
        <time>2019-04-27T10:35:32Z</time>
      </trkpt>
      <trkpt lat="51.265361776399" lon="4.511083846193">
        <ele>0</ele>
        <time>2019-04-27T10:35:37Z</time>
      </trkpt>
      <trkpt lat="51.265334116129" lon="4.511286688173">
        <ele>0.8</ele>
        <time>2019-04-27T10:35:43Z</time>
      </trkpt>
      <trkpt lat="51.265470238185" lon="4.511476705846">
        <ele>2.8</ele>
        <time>2019-04-27T10:35:52Z</time>
      </trkpt>
      <trkpt lat="51.265433022549" lon="4.511634285566">
        <ele>2.8</ele>
        <time>2019-04-27T10:35:58Z</time>
      </trkpt>
      <trkpt lat="51.265417096939" lon="4.512139462679">
        <ele>0</ele>
        <time>2019-04-27T10:37:19Z</time>
      </trkpt>
      <trkpt lat="51.265607617526" lon="4.511833774786">
        <ele>28.4</ele>
        <time>2019-04-27T10:37:23Z</time>
      </trkpt>
      <trkpt lat="51.26560141492" lon="4.511700837852">
        <ele>21.4</ele>
        <time>2019-04-27T10:37:27Z</time>
      </trkpt>
      <trkpt lat="51.265766370712" lon="4.511838217193">
        <ele>6.4</ele>
        <time>2019-04-27T10:37:38Z</time>
      </trkpt>
      <trkpt lat="51.265931075047" lon="4.512024714468">
        <ele>1.4</ele>
        <time>2019-04-27T10:37:47Z</time>
      </trkpt>
      <trkpt lat="51.266113465191" lon="4.512022954269">
        <ele>2.4</ele>
        <time>2019-04-27T10:37:55Z</time>
      </trkpt>
      <trkpt lat="51.266262327735" lon="4.512243901153">
        <ele>2.6</ele>
        <time>2019-04-27T10:38:03Z</time>
      </trkpt>
      <trkpt lat="51.266415045953" lon="4.512424028184">
        <ele>3.8</ele>
        <time>2019-04-27T10:38:10Z</time>
      </trkpt>
      <trkpt lat="51.266528704517" lon="4.512683112713">
        <ele>5.2</ele>
        <time>2019-04-27T10:38:18Z</time>
      </trkpt>
      <trkpt lat="51.266644877651" lon="4.512908921099">
        <ele>5.2</ele>
        <time>2019-04-27T10:38:25Z</time>
      </trkpt>
      <trkpt lat="51.266792902005" lon="4.513113690916">
        <ele>4.2</ele>
        <time>2019-04-27T10:38:33Z</time>
      </trkpt>
      <trkpt lat="51.26695509177" lon="4.513309408281">
        <ele>3.6</ele>
        <time>2019-04-27T10:38:41Z</time>
      </trkpt>
      <trkpt lat="51.267142175778" lon="4.513373278359">
        <ele>3.8</ele>
        <time>2019-04-27T10:38:49Z</time>
      </trkpt>
      <trkpt lat="51.26717805031" lon="4.513404542846">
        <ele>3.6</ele>
        <time>2019-04-27T10:38:51Z</time>
      </trkpt>
      <trkpt lat="51.267203279829" lon="4.51351317227">
        <ele>3.4</ele>
        <time>2019-04-27T10:38:54Z</time>
      </trkpt>
      <trkpt lat="51.267247703899" lon="4.513756079732">
        <ele>3</ele>
        <time>2019-04-27T10:39:03Z</time>
      </trkpt>
      <trkpt lat="51.267259438559" lon="4.513762869071">
        <ele>2.2</ele>
        <time>2019-04-27T10:39:06Z</time>
      </trkpt>
      <trkpt lat="51.26730294062" lon="4.513769742229">
        <ele>0</ele>
        <time>2019-04-27T10:39:12Z</time>
      </trkpt>
      <trkpt lat="51.2674051998" lon="4.513731269308">
        <ele>0</ele>
        <time>2019-04-27T10:39:17Z</time>
      </trkpt>
      <trkpt lat="51.267560684045" lon="4.513904607">
        <ele>0</ele>
        <time>2019-04-27T10:39:24Z</time>
      </trkpt>
      <trkpt lat="51.267715833014" lon="4.514096049596">
        <ele>0</ele>
        <time>2019-04-27T10:39:31Z</time>
      </trkpt>
      <trkpt lat="51.267870730526" lon="4.514294030074">
        <ele>2</ele>
        <time>2019-04-27T10:39:39Z</time>
      </trkpt>
      <trkpt lat="51.268022359097" lon="4.514468122137">
        <ele>1.2</ele>
        <time>2019-04-27T10:39:46Z</time>
      </trkpt>
      <trkpt lat="51.268173568573" lon="4.514671047936">
        <ele>0</ele>
        <time>2019-04-27T10:39:54Z</time>
      </trkpt>
      <trkpt lat="51.268310445" lon="4.51488361292">
        <ele>0</ele>
        <time>2019-04-27T10:40:02Z</time>
      </trkpt>
      <trkpt lat="51.268451177101" lon="4.515080419932">
        <ele>0</ele>
        <time>2019-04-27T10:40:10Z</time>
      </trkpt>
      <trkpt lat="51.268587634433" lon="4.515269347958">
        <ele>0</ele>
        <time>2019-04-27T10:40:17Z</time>
      </trkpt>
      <trkpt lat="51.268729959095" lon="4.51546112583">
        <ele>1.6</ele>
        <time>2019-04-27T10:40:24Z</time>
      </trkpt>
      <trkpt lat="51.268874965965" lon="4.515645276173">
        <ele>2</ele>
        <time>2019-04-27T10:40:31Z</time>
      </trkpt>
      <trkpt lat="51.269015195152" lon="4.515836215855">
        <ele>2.2</ele>
        <time>2019-04-27T10:40:39Z</time>
      </trkpt>
      <trkpt lat="51.269170511759" lon="4.515988766435">
        <ele>3.8</ele>
        <time>2019-04-27T10:40:46Z</time>
      </trkpt>
      <trkpt lat="51.269309064566" lon="4.516180879583">
        <ele>2.6</ele>
        <time>2019-04-27T10:40:53Z</time>
      </trkpt>
      <trkpt lat="51.269455244902" lon="4.516398138431">
        <ele>3</ele>
        <time>2019-04-27T10:41:01Z</time>
      </trkpt>
      <trkpt lat="51.269613746631" lon="4.516594107253">
        <ele>3.2</ele>
        <time>2019-04-27T10:41:09Z</time>
      </trkpt>
      <trkpt lat="51.269775684939" lon="4.516776832673">
        <ele>2.2</ele>
        <time>2019-04-27T10:41:17Z</time>
      </trkpt>
      <trkpt lat="51.269924296026" lon="4.51699585172">
        <ele>0.4</ele>
        <time>2019-04-27T10:41:26Z</time>
      </trkpt>
      <trkpt lat="51.270081205194" lon="4.517191736723">
        <ele>0</ele>
        <time>2019-04-27T10:41:34Z</time>
      </trkpt>
      <trkpt lat="51.270233085222" lon="4.517385442432">
        <ele>0</ele>
        <time>2019-04-27T10:41:42Z</time>
      </trkpt>
      <trkpt lat="51.270380941938" lon="4.517593900285">
        <ele>0.4</ele>
        <time>2019-04-27T10:41:50Z</time>
      </trkpt>
      <trkpt lat="51.270534582165" lon="4.517802441957">
        <ele>3.2</ele>
        <time>2019-04-27T10:41:59Z</time>
      </trkpt>
      <trkpt lat="51.270684031442" lon="4.517969241767">
        <ele>4</ele>
        <time>2019-04-27T10:42:07Z</time>
      </trkpt>
      <trkpt lat="51.270821578421" lon="4.518166467874">
        <ele>2.2</ele>
        <time>2019-04-27T10:42:14Z</time>
      </trkpt>
      <trkpt lat="51.270961137056" lon="4.518359754488">
        <ele>0.6</ele>
        <time>2019-04-27T10:42:21Z</time>
      </trkpt>
      <trkpt lat="51.271105892469" lon="4.518550358894">
        <ele>0</ele>
        <time>2019-04-27T10:42:28Z</time>
      </trkpt>
      <trkpt lat="51.271266154397" lon="4.518762504783">
        <ele>0.4</ele>
        <time>2019-04-27T10:42:36Z</time>
      </trkpt>
      <trkpt lat="51.271415268398" lon="4.518959647071">
        <ele>0</ele>
        <time>2019-04-27T10:42:44Z</time>
      </trkpt>
      <trkpt lat="51.271559939992" lon="4.519168188743">
        <ele>0</ele>
        <time>2019-04-27T10:42:52Z</time>
      </trkpt>
      <trkpt lat="51.271710395097" lon="4.519371785094">
        <ele>0</ele>
        <time>2019-04-27T10:43:00Z</time>
      </trkpt>
      <trkpt lat="51.271850624284" lon="4.519554426695">
        <ele>2.2</ele>
        <time>2019-04-27T10:43:07Z</time>
      </trkpt>
      <trkpt lat="51.272009712746" lon="4.519767159317">
        <ele>3.6</ele>
        <time>2019-04-27T10:43:15Z</time>
      </trkpt>
      <trkpt lat="51.272158742928" lon="4.519973354057">
        <ele>4.4</ele>
        <time>2019-04-27T10:43:23Z</time>
      </trkpt>
      <trkpt lat="51.272460239871" lon="4.520363950597">
        <ele>3</ele>
        <time>2019-04-27T10:43:39Z</time>
      </trkpt>
      <trkpt lat="51.272609772967" lon="4.520562936903">
        <ele>1.4</ele>
        <time>2019-04-27T10:43:47Z</time>
      </trkpt>
      <trkpt lat="51.272768945248" lon="4.520756977888">
        <ele>0.4</ele>
        <time>2019-04-27T10:43:55Z</time>
      </trkpt>
      <trkpt lat="51.272922585475" lon="4.520969291415">
        <ele>2.4</ele>
        <time>2019-04-27T10:44:03Z</time>
      </trkpt>
      <trkpt lat="51.273066586517" lon="4.521152519749">
        <ele>2.4</ele>
        <time>2019-04-27T10:44:11Z</time>
      </trkpt>
      <trkpt lat="51.273207402437" lon="4.521346812191">
        <ele>4.2</ele>
        <time>2019-04-27T10:44:19Z</time>
      </trkpt>
      <trkpt lat="51.273359114827" lon="4.52153716514">
        <ele>4.6</ele>
        <time>2019-04-27T10:44:27Z</time>
      </trkpt>
      <trkpt lat="51.273514850529" lon="4.521745706812">
        <ele>4.2</ele>
        <time>2019-04-27T10:44:35Z</time>
      </trkpt>
      <trkpt lat="51.273650050576" lon="4.521937568503">
        <ele>5.8</ele>
        <time>2019-04-27T10:44:42Z</time>
      </trkpt>
      <trkpt lat="51.273790615039" lon="4.522125825977">
        <ele>5.8</ele>
        <time>2019-04-27T10:44:49Z</time>
      </trkpt>
      <trkpt lat="51.273929251665" lon="4.52230997632">
        <ele>5</ele>
        <time>2019-04-27T10:44:56Z</time>
      </trkpt>
      <trkpt lat="51.274077108381" lon="4.522480883261">
        <ele>4.6</ele>
        <time>2019-04-27T10:45:04Z</time>
      </trkpt>
      <trkpt lat="51.274237789404" lon="4.522645419958">
        <ele>3.6</ele>
        <time>2019-04-27T10:45:12Z</time>
      </trkpt>
      <trkpt lat="51.27439318983" lon="4.522827893921">
        <ele>4</ele>
        <time>2019-04-27T10:45:20Z</time>
      </trkpt>
      <trkpt lat="51.274535346854" lon="4.523029478616">
        <ele>6.8</ele>
        <time>2019-04-27T10:45:27Z</time>
      </trkpt>
      <trkpt lat="51.274686640149" lon="4.523203989774">
        <ele>9</ele>
        <time>2019-04-27T10:45:34Z</time>
      </trkpt>
      <trkpt lat="51.274846482982" lon="4.523374729077">
        <ele>7.6</ele>
        <time>2019-04-27T10:45:41Z</time>
      </trkpt>
      <trkpt lat="51.274995680802" lon="4.523541864163">
        <ele>5</ele>
        <time>2019-04-27T10:45:48Z</time>
      </trkpt>
      <trkpt lat="51.275155272178" lon="4.523680165513">
        <ele>4.8</ele>
        <time>2019-04-27T10:45:55Z</time>
      </trkpt>
      <trkpt lat="51.275321149979" lon="4.523815700836">
        <ele>4.6</ele>
        <time>2019-04-27T10:46:02Z</time>
      </trkpt>
      <trkpt lat="51.275492476015" lon="4.523969927796">
        <ele>4.2</ele>
        <time>2019-04-27T10:46:10Z</time>
      </trkpt>
      <trkpt lat="51.275670004657" lon="4.524121975462">
        <ele>3.2</ele>
        <time>2019-04-27T10:46:18Z</time>
      </trkpt>
      <trkpt lat="51.275842168883" lon="4.524258600432">
        <ele>3</ele>
        <time>2019-04-27T10:46:26Z</time>
      </trkpt>
      <trkpt lat="51.276016931498" lon="4.524419449093">
        <ele>0.6</ele>
        <time>2019-04-27T10:46:34Z</time>
      </trkpt>
      <trkpt lat="51.276183982765" lon="4.5245831476">
        <ele>0</ele>
        <time>2019-04-27T10:46:42Z</time>
      </trkpt>
      <trkpt lat="51.276344831426" lon="4.524713318507">
        <ele>0</ele>
        <time>2019-04-27T10:46:49Z</time>
      </trkpt>
      <trkpt lat="51.276523617353" lon="4.52486561763">
        <ele>0</ele>
        <time>2019-04-27T10:46:57Z</time>
      </trkpt>
      <trkpt lat="51.276691003896" lon="4.524995285623">
        <ele>2.6</ele>
        <time>2019-04-27T10:47:04Z</time>
      </trkpt>
      <trkpt lat="51.276858725715" lon="4.5251279711">
        <ele>2.8</ele>
        <time>2019-04-27T10:47:11Z</time>
      </trkpt>
      <trkpt lat="51.277011779209" lon="4.52528135987">
        <ele>2.4</ele>
        <time>2019-04-27T10:47:18Z</time>
      </trkpt>
      <trkpt lat="51.27716089321" lon="4.525477915425">
        <ele>1.6</ele>
        <time>2019-04-27T10:47:26Z</time>
      </trkpt>
      <trkpt lat="51.277342612802" lon="4.525587047763">
        <ele>1</ele>
        <time>2019-04-27T10:47:34Z</time>
      </trkpt>
      <trkpt lat="51.277514777028" lon="4.525730210615">
        <ele>2</ele>
        <time>2019-04-27T10:47:42Z</time>
      </trkpt>
      <trkpt lat="51.277689958738" lon="4.525872619096">
        <ele>2.6</ele>
        <time>2019-04-27T10:47:50Z</time>
      </trkpt>
      <trkpt lat="51.277868660846" lon="4.526014440844">
        <ele>0.8</ele>
        <time>2019-04-27T10:47:58Z</time>
      </trkpt>
      <trkpt lat="51.278038981054" lon="4.52619498697">
        <ele>0.6</ele>
        <time>2019-04-27T10:48:05Z</time>
      </trkpt>
      <trkpt lat="51.278150041229" lon="4.526430183084">
        <ele>0</ele>
        <time>2019-04-27T10:48:12Z</time>
      </trkpt>
      <trkpt lat="51.278307201854" lon="4.526517857758">
        <ele>2.4</ele>
        <time>2019-04-27T10:48:19Z</time>
      </trkpt>
      <trkpt lat="51.278493782948" lon="4.526599581283">
        <ele>3.4</ele>
        <time>2019-04-27T10:48:27Z</time>
      </trkpt>
      <trkpt lat="51.278671479228" lon="4.526723717222">
        <ele>3</ele>
        <time>2019-04-27T10:48:35Z</time>
      </trkpt>
      <trkpt lat="51.27883308226" lon="4.526870903386">
        <ele>3.6</ele>
        <time>2019-04-27T10:48:42Z</time>
      </trkpt>
      <trkpt lat="51.279002983373" lon="4.527006019614">
        <ele>3.6</ele>
        <time>2019-04-27T10:48:49Z</time>
      </trkpt>
      <trkpt lat="51.279170118459" lon="4.527147589905">
        <ele>5.4</ele>
        <time>2019-04-27T10:48:57Z</time>
      </trkpt>
      <trkpt lat="51.279355190811" lon="4.527291423309">
        <ele>8.2</ele>
        <time>2019-04-27T10:49:05Z</time>
      </trkpt>
      <trkpt lat="51.279530707797" lon="4.527452942522">
        <ele>8.6</ele>
        <time>2019-04-27T10:49:13Z</time>
      </trkpt>
      <trkpt lat="51.279711589199" lon="4.527591662967">
        <ele>8.8</ele>
        <time>2019-04-27T10:49:21Z</time>
      </trkpt>
      <trkpt lat="51.280043680077" lon="4.527858542663">
        <ele>12.6</ele>
        <time>2019-04-27T10:49:36Z</time>
      </trkpt>
      <trkpt lat="51.280211485715" lon="4.528029114328">
        <ele>13</ele>
        <time>2019-04-27T10:49:45Z</time>
      </trkpt>
      <trkpt lat="51.280381889742" lon="4.52817395356">
        <ele>14.4</ele>
        <time>2019-04-27T10:49:53Z</time>
      </trkpt>
      <trkpt lat="51.280555897986" lon="4.528326671778">
        <ele>15</ele>
        <time>2019-04-27T10:50:01Z</time>
      </trkpt>
      <trkpt lat="51.280723955081" lon="4.528461033635">
        <ele>14.6</ele>
        <time>2019-04-27T10:50:09Z</time>
      </trkpt>
      <trkpt lat="51.280900561714" lon="4.528601262822">
        <ele>13.2</ele>
        <time>2019-04-27T10:50:17Z</time>
      </trkpt>
      <trkpt lat="51.281083706229" lon="4.528762279121">
        <ele>12.8</ele>
        <time>2019-04-27T10:50:25Z</time>
      </trkpt>
      <trkpt lat="51.281258720301" lon="4.528912231312">
        <ele>10.8</ele>
        <time>2019-04-27T10:50:32Z</time>
      </trkpt>
      <trkpt lat="51.281421161523" lon="4.529070062489">
        <ele>9</ele>
        <time>2019-04-27T10:50:39Z</time>
      </trkpt>
      <trkpt lat="51.281599863631" lon="4.529224373268">
        <ele>9.6</ele>
        <time>2019-04-27T10:50:47Z</time>
      </trkpt>
      <trkpt lat="51.281758784455" lon="4.529376840029">
        <ele>7.8</ele>
        <time>2019-04-27T10:50:54Z</time>
      </trkpt>
      <trkpt lat="51.28192516517" lon="4.529551351187">
        <ele>9.8</ele>
        <time>2019-04-27T10:51:02Z</time>
      </trkpt>
      <trkpt lat="51.282079643587" lon="4.529745224534">
        <ele>12.2</ele>
        <time>2019-04-27T10:51:10Z</time>
      </trkpt>
      <trkpt lat="51.282210652684" lon="4.529945635763">
        <ele>12.2</ele>
        <time>2019-04-27T10:51:17Z</time>
      </trkpt>
      <trkpt lat="51.282359934323" lon="4.530148813019">
        <ele>13.2</ele>
        <time>2019-04-27T10:51:25Z</time>
      </trkpt>
      <trkpt lat="51.282483902624" lon="4.530403622779">
        <ele>10.4</ele>
        <time>2019-04-27T10:51:33Z</time>
      </trkpt>
      <trkpt lat="51.282591861496" lon="4.530675783072">
        <ele>7</ele>
        <time>2019-04-27T10:51:41Z</time>
      </trkpt>
      <trkpt lat="51.282696383789" lon="4.530911649738">
        <ele>3.4</ele>
        <time>2019-04-27T10:51:49Z</time>
      </trkpt>
      <trkpt lat="51.282750195587" lon="4.531036959143">
        <ele>0.2</ele>
        <time>2019-04-27T10:51:53Z</time>
      </trkpt>
      <trkpt lat="51.282881875236" lon="4.531296043672">
        <ele>0.8</ele>
        <time>2019-04-27T10:52:01Z</time>
      </trkpt>
      <trkpt lat="51.283013219609" lon="4.531550853432">
        <ele>0</ele>
        <time>2019-04-27T10:52:09Z</time>
      </trkpt>
      <trkpt lat="51.28313048239" lon="4.531788815573">
        <ele>0</ele>
        <time>2019-04-27T10:52:16Z</time>
      </trkpt>
      <trkpt lat="51.283254953605" lon="4.532049911758">
        <ele>0</ele>
        <time>2019-04-27T10:52:23Z</time>
      </trkpt>
      <trkpt lat="51.283394931335" lon="4.532294914695">
        <ele>2</ele>
        <time>2019-04-27T10:52:30Z</time>
      </trkpt>
      <trkpt lat="51.283536082531" lon="4.532512676457">
        <ele>3</ele>
        <time>2019-04-27T10:52:38Z</time>
      </trkpt>
      <trkpt lat="51.28366943856" lon="4.532733539522">
        <ele>1.8</ele>
        <time>2019-04-27T10:52:46Z</time>
      </trkpt>
      <trkpt lat="51.283808745738" lon="4.532930178896">
        <ele>1.2</ele>
        <time>2019-04-27T10:52:54Z</time>
      </trkpt>
      <trkpt lat="51.283954004065" lon="4.533136960369">
        <ele>1.2</ele>
        <time>2019-04-27T10:53:02Z</time>
      </trkpt>
      <trkpt lat="51.28411200288" lon="4.533335024666">
        <ele>3.6</ele>
        <time>2019-04-27T10:53:11Z</time>
      </trkpt>
      <trkpt lat="51.284275785206" lon="4.533512218032">
        <ele>4.4</ele>
        <time>2019-04-27T10:53:18Z</time>
      </trkpt>
      <trkpt lat="51.28443051508" lon="4.53369594928">
        <ele>5.6</ele>
        <time>2019-04-27T10:53:26Z</time>
      </trkpt>
      <trkpt lat="51.284575270493" lon="4.533896025233">
        <ele>6.8</ele>
        <time>2019-04-27T10:53:34Z</time>
      </trkpt>
      <trkpt lat="51.284738885181" lon="4.53408654582">
        <ele>6.2</ele>
        <time>2019-04-27T10:53:42Z</time>
      </trkpt>
      <trkpt lat="51.284887077173" lon="4.534271115258">
        <ele>4.8</ele>
        <time>2019-04-27T10:53:50Z</time>
      </trkpt>
      <trkpt lat="51.285045327445" lon="4.534430287539">
        <ele>4.2</ele>
        <time>2019-04-27T10:53:57Z</time>
      </trkpt>
      <trkpt lat="51.285214055092" lon="4.534588537811">
        <ele>4.4</ele>
        <time>2019-04-27T10:54:05Z</time>
      </trkpt>
      <trkpt lat="51.285366605672" lon="4.534750140843">
        <ele>4.2</ele>
        <time>2019-04-27T10:54:13Z</time>
      </trkpt>
      <trkpt lat="51.285540697735" lon="4.534909983676">
        <ele>6.2</ele>
        <time>2019-04-27T10:54:21Z</time>
      </trkpt>
      <trkpt lat="51.285704060966" lon="4.535072843993">
        <ele>7.2</ele>
        <time>2019-04-27T10:54:29Z</time>
      </trkpt>
      <trkpt lat="51.285875303183" lon="4.535206535298">
        <ele>8</ele>
        <time>2019-04-27T10:54:37Z</time>
      </trkpt>
      <trkpt lat="51.286051323083" lon="4.535346932123">
        <ele>9.2</ele>
        <time>2019-04-27T10:54:45Z</time>
      </trkpt>
      <trkpt lat="51.286224576956" lon="4.535457070289">
        <ele>8</ele>
        <time>2019-04-27T10:54:52Z</time>
      </trkpt>
      <trkpt lat="51.286393304603" lon="4.535561676401">
        <ele>7.8</ele>
        <time>2019-04-27T10:54:59Z</time>
      </trkpt>
      <trkpt lat="51.286568653951" lon="4.53565060836">
        <ele>7.4</ele>
        <time>2019-04-27T10:55:06Z</time>
      </trkpt>
      <trkpt lat="51.286757162882" lon="4.535737696301">
        <ele>7.6</ele>
        <time>2019-04-27T10:55:14Z</time>
      </trkpt>
      <trkpt lat="51.286953215523" lon="4.535798213619">
        <ele>9</ele>
        <time>2019-04-27T10:55:22Z</time>
      </trkpt>
      <trkpt lat="51.287251192068" lon="4.535927713974">
        <ele>11</ele>
        <time>2019-04-27T10:55:34Z</time>
      </trkpt>
      <trkpt lat="51.287447244709" lon="4.536015304829">
        <ele>11.6</ele>
        <time>2019-04-27T10:55:42Z</time>
      </trkpt>
      <trkpt lat="51.287621839686" lon="4.536122090235">
        <ele>10.6</ele>
        <time>2019-04-27T10:55:49Z</time>
      </trkpt>
      <trkpt lat="51.287793836274" lon="4.536245220346">
        <ele>10.8</ele>
        <time>2019-04-27T10:55:56Z</time>
      </trkpt>
      <trkpt lat="51.287970610545" lon="4.536402967704">
        <ele>10.8</ele>
        <time>2019-04-27T10:56:04Z</time>
      </trkpt>
      <trkpt lat="51.288118970175" lon="4.53656675003">
        <ele>11.8</ele>
        <time>2019-04-27T10:56:11Z</time>
      </trkpt>
      <trkpt lat="51.288262552122" lon="4.536740842093">
        <ele>10</ele>
        <time>2019-04-27T10:56:18Z</time>
      </trkpt>
      <trkpt lat="51.288398171264" lon="4.536957681846">
        <ele>8.6</ele>
        <time>2019-04-27T10:56:25Z</time>
      </trkpt>
      <trkpt lat="51.288522977755" lon="4.537180724205">
        <ele>5.4</ele>
        <time>2019-04-27T10:56:32Z</time>
      </trkpt>
      <trkpt lat="51.288657591069" lon="4.537426816789">
        <ele>2</ele>
        <time>2019-04-27T10:56:40Z</time>
      </trkpt>
      <trkpt lat="51.28877988299" lon="4.537638711221">
        <ele>1</ele>
        <time>2019-04-27T10:56:47Z</time>
      </trkpt>
      <trkpt lat="51.288898403056" lon="4.537863094684">
        <ele>2</ele>
        <time>2019-04-27T10:56:54Z</time>
      </trkpt>
      <trkpt lat="51.289027400497" lon="4.538106924155">
        <ele>3.2</ele>
        <time>2019-04-27T10:57:02Z</time>
      </trkpt>
      <trkpt lat="51.289141729613" lon="4.538328876867">
        <ele>4</ele>
        <time>2019-04-27T10:57:09Z</time>
      </trkpt>
      <trkpt lat="51.289253963254" lon="4.53856164223">
        <ele>3.8</ele>
        <time>2019-04-27T10:57:17Z</time>
      </trkpt>
      <trkpt lat="51.289385139989" lon="4.538800274923">
        <ele>3.6</ele>
        <time>2019-04-27T10:57:25Z</time>
      </trkpt>
      <trkpt lat="51.289505923168" lon="4.539039997263">
        <ele>2</ele>
        <time>2019-04-27T10:57:33Z</time>
      </trkpt>
      <trkpt lat="51.289624862329" lon="4.53925566355">
        <ele>1.2</ele>
        <time>2019-04-27T10:57:40Z</time>
      </trkpt>
      <trkpt lat="51.289751596657" lon="4.539506952912">
        <ele>0.6</ele>
        <time>2019-04-27T10:57:48Z</time>
      </trkpt>
      <trkpt lat="51.289880845555" lon="4.539747094347">
        <ele>0.4</ele>
        <time>2019-04-27T10:57:56Z</time>
      </trkpt>
      <trkpt lat="51.290025852425" lon="4.539970471982">
        <ele>1.2</ele>
        <time>2019-04-27T10:58:04Z</time>
      </trkpt>
      <trkpt lat="51.29015702916" lon="4.540214636729">
        <ele>1.8</ele>
        <time>2019-04-27T10:58:12Z</time>
      </trkpt>
      <trkpt lat="51.290288708809" lon="4.540453269422">
        <ele>5</ele>
        <time>2019-04-27T10:58:20Z</time>
      </trkpt>
      <trkpt lat="51.290407731789" lon="4.540675808867">
        <ele>8.2</ele>
        <time>2019-04-27T10:58:27Z</time>
      </trkpt>
      <trkpt lat="51.290523485828" lon="4.540896671932">
        <ele>9.8</ele>
        <time>2019-04-27T10:58:34Z</time>
      </trkpt>
      <trkpt lat="51.290647118853" lon="4.541137735376">
        <ele>9.2</ele>
        <time>2019-04-27T10:58:42Z</time>
      </trkpt>
      <trkpt lat="51.290781396891" lon="4.541377792992">
        <ele>9.2</ele>
        <time>2019-04-27T10:58:50Z</time>
      </trkpt>
      <trkpt lat="51.290914166187" lon="4.541612570011">
        <ele>9</ele>
        <time>2019-04-27T10:58:58Z</time>
      </trkpt>
      <trkpt lat="51.291043582723" lon="4.541839468044">
        <ele>9.6</ele>
        <time>2019-04-27T10:59:06Z</time>
      </trkpt>
      <trkpt lat="51.29116118078" lon="4.542059744376">
        <ele>9.6</ele>
        <time>2019-04-27T10:59:14Z</time>
      </trkpt>
      <trkpt lat="51.291287579832" lon="4.542284211658">
        <ele>7.6</ele>
        <time>2019-04-27T10:59:22Z</time>
      </trkpt>
      <trkpt lat="51.291405848441" lon="4.542503146886">
        <ele>7</ele>
        <time>2019-04-27T10:59:30Z</time>
      </trkpt>
      <trkpt lat="51.291526463982" lon="4.542724177589">
        <ele>8.8</ele>
        <time>2019-04-27T10:59:38Z</time>
      </trkpt>
      <trkpt lat="51.291644481134" lon="4.542960882445">
        <ele>12</ele>
        <time>2019-04-27T10:59:46Z</time>
      </trkpt>
      <trkpt lat="51.291769958177" lon="4.543184092442">
        <ele>15</ele>
        <time>2019-04-27T10:59:55Z</time>
      </trkpt>
      <trkpt lat="51.291886382768" lon="4.543405290783">
        <ele>15.6</ele>
        <time>2019-04-27T11:00:03Z</time>
      </trkpt>
      <trkpt lat="51.291990737423" lon="4.543669907366">
        <ele>16</ele>
        <time>2019-04-27T11:00:12Z</time>
      </trkpt>
      <trkpt lat="51.292100875589" lon="4.54391432357">
        <ele>16.2</ele>
        <time>2019-04-27T11:00:20Z</time>
      </trkpt>
      <trkpt lat="51.292219060379" lon="4.544148849132">
        <ele>15.4</ele>
        <time>2019-04-27T11:00:28Z</time>
      </trkpt>
      <trkpt lat="51.292352667865" lon="4.544394103526">
        <ele>14.2</ele>
        <time>2019-04-27T11:00:35Z</time>
      </trkpt>
      <trkpt lat="51.292470936474" lon="4.544616056238">
        <ele>10</ele>
        <time>2019-04-27T11:00:41Z</time>
      </trkpt>
      <trkpt lat="51.292605717426" lon="4.544816635105">
        <ele>6.2</ele>
        <time>2019-04-27T11:00:47Z</time>
      </trkpt>
      <trkpt lat="51.29273362522" lon="4.545039509826">
        <ele>3.6</ele>
        <time>2019-04-27T11:00:54Z</time>
      </trkpt>
      <trkpt lat="51.292865472507" lon="4.545244195824">
        <ele>1.6</ele>
        <time>2019-04-27T11:01:01Z</time>
      </trkpt>
      <trkpt lat="51.292990027541" lon="4.545465980898">
        <ele>1.6</ele>
        <time>2019-04-27T11:01:09Z</time>
      </trkpt>
      <trkpt lat="51.293041995321" lon="4.545545106034">
        <ele>2.2</ele>
        <time>2019-04-27T11:01:12Z</time>
      </trkpt>
      <trkpt lat="51.293165209251" lon="4.545788600229">
        <ele>3.8</ele>
        <time>2019-04-27T11:01:20Z</time>
      </trkpt>
      <trkpt lat="51.293382300461" lon="4.546213897835">
        <ele>0.4</ele>
        <time>2019-04-27T11:01:34Z</time>
      </trkpt>
      <trkpt lat="51.293510543531" lon="4.546452530528">
        <ele>0</ele>
        <time>2019-04-27T11:01:42Z</time>
      </trkpt>
      <trkpt lat="51.293626549027" lon="4.546684122425">
        <ele>0</ele>
        <time>2019-04-27T11:01:50Z</time>
      </trkpt>
      <trkpt lat="51.293741548695" lon="4.546925185869">
        <ele>0</ele>
        <time>2019-04-27T11:01:58Z</time>
      </trkpt>
      <trkpt lat="51.293865684634" lon="4.547185108588">
        <ele>2</ele>
        <time>2019-04-27T11:02:06Z</time>
      </trkpt>
      <trkpt lat="51.293994346799" lon="4.547402199798">
        <ele>5.4</ele>
        <time>2019-04-27T11:02:13Z</time>
      </trkpt>
      <trkpt lat="51.294111358123" lon="4.547631109487">
        <ele>8</ele>
        <time>2019-04-27T11:02:20Z</time>
      </trkpt>
      <trkpt lat="51.29425996921" lon="4.547860102995">
        <ele>11.4</ele>
        <time>2019-04-27T11:02:28Z</time>
      </trkpt>
      <trkpt lat="51.29438905047" lon="4.54809353891">
        <ele>13</ele>
        <time>2019-04-27T11:02:36Z</time>
      </trkpt>
      <trkpt lat="51.29450052974" lon="4.548319179658">
        <ele>14.2</ele>
        <time>2019-04-27T11:02:44Z</time>
      </trkpt>
      <trkpt lat="51.294617373426" lon="4.5485721454">
        <ele>14.2</ele>
        <time>2019-04-27T11:02:53Z</time>
      </trkpt>
      <trkpt lat="51.294738910976" lon="4.54882276421">
        <ele>15.6</ele>
        <time>2019-04-27T11:03:02Z</time>
      </trkpt>
      <trkpt lat="51.294868830426" lon="4.549060893989">
        <ele>15.4</ele>
        <time>2019-04-27T11:03:10Z</time>
      </trkpt>
      <trkpt lat="51.294994810383" lon="4.549271950231">
        <ele>13.2</ele>
        <time>2019-04-27T11:03:17Z</time>
      </trkpt>
      <trkpt lat="51.295121963806" lon="4.549487365061">
        <ele>8.4</ele>
        <time>2019-04-27T11:03:24Z</time>
      </trkpt>
      <trkpt lat="51.29525657712" lon="4.549725746297">
        <ele>6.2</ele>
        <time>2019-04-27T11:03:32Z</time>
      </trkpt>
      <trkpt lat="51.295376270652" lon="4.549968905216">
        <ele>4</ele>
        <time>2019-04-27T11:03:40Z</time>
      </trkpt>
      <trkpt lat="51.29549797584" lon="4.550188930091">
        <ele>2.6</ele>
        <time>2019-04-27T11:03:48Z</time>
      </trkpt>
      <trkpt lat="51.295612388775" lon="4.550433094838">
        <ele>2.6</ele>
        <time>2019-04-27T11:03:56Z</time>
      </trkpt>
      <trkpt lat="51.295731747031" lon="4.55065840031">
        <ele>2.2</ele>
        <time>2019-04-27T11:04:04Z</time>
      </trkpt>
      <trkpt lat="51.295858648997" lon="4.550888315827">
        <ele>2</ele>
        <time>2019-04-27T11:04:12Z</time>
      </trkpt>
      <trkpt lat="51.295982784936" lon="4.551131474746">
        <ele>4.2</ele>
        <time>2019-04-27T11:04:20Z</time>
      </trkpt>
      <trkpt lat="51.296105412133" lon="4.55137589095">
        <ele>5.8</ele>
        <time>2019-04-27T11:04:28Z</time>
      </trkpt>
      <trkpt lat="51.296249245537" lon="4.551599100947">
        <ele>5.2</ele>
        <time>2019-04-27T11:04:36Z</time>
      </trkpt>
      <trkpt lat="51.296380925186" lon="4.551827926817">
        <ele>5.6</ele>
        <time>2019-04-27T11:04:44Z</time>
      </trkpt>
      <trkpt lat="51.296501876003" lon="4.552063877302">
        <ele>5.6</ele>
        <time>2019-04-27T11:04:52Z</time>
      </trkpt>
      <trkpt lat="51.296628275055" lon="4.552306617126">
        <ele>5.8</ele>
        <time>2019-04-27T11:05:00Z</time>
      </trkpt>
      <trkpt lat="51.296764732387" lon="4.552529324209">
        <ele>5.8</ele>
        <time>2019-04-27T11:05:08Z</time>
      </trkpt>
      <trkpt lat="51.296889455059" lon="4.552752701844">
        <ele>7.4</ele>
        <time>2019-04-27T11:05:16Z</time>
      </trkpt>
      <trkpt lat="51.297016273206" lon="4.552962752258">
        <ele>9.2</ele>
        <time>2019-04-27T11:05:24Z</time>
      </trkpt>
      <trkpt lat="51.297135212367" lon="4.553201552589">
        <ele>10.4</ele>
        <time>2019-04-27T11:05:32Z</time>
      </trkpt>
      <trkpt lat="51.297259348306" lon="4.55344622025">
        <ele>11.6</ele>
        <time>2019-04-27T11:05:41Z</time>
      </trkpt>
      <trkpt lat="51.297380215304" lon="4.553686529323">
        <ele>12.2</ele>
        <time>2019-04-27T11:05:50Z</time>
      </trkpt>
      <trkpt lat="51.297517510826" lon="4.553911750976">
        <ele>11.2</ele>
        <time>2019-04-27T11:05:59Z</time>
      </trkpt>
      <trkpt lat="51.297623038947" lon="4.554172008971">
        <ele>10.2</ele>
        <time>2019-04-27T11:06:08Z</time>
      </trkpt>
      <trkpt lat="51.297742983936" lon="4.554398655547">
        <ele>10.2</ele>
        <time>2019-04-27T11:06:16Z</time>
      </trkpt>
      <trkpt lat="51.29787089173" lon="4.554628738702">
        <ele>9.6</ele>
        <time>2019-04-27T11:06:24Z</time>
      </trkpt>
      <trkpt lat="51.297988741244" lon="4.554861420246">
        <ele>8.4</ele>
        <time>2019-04-27T11:06:32Z</time>
      </trkpt>
      <trkpt lat="51.298117738685" lon="4.55507566161">
        <ele>8.2</ele>
        <time>2019-04-27T11:06:40Z</time>
      </trkpt>
      <trkpt lat="51.298232403077" lon="4.555302559643">
        <ele>7.6</ele>
        <time>2019-04-27T11:06:48Z</time>
      </trkpt>
      <trkpt lat="51.298347738021" lon="4.555534570635">
        <ele>6.8</ele>
        <time>2019-04-27T11:06:56Z</time>
      </trkpt>
      <trkpt lat="51.298468688838" lon="4.555750153103">
        <ele>9.6</ele>
        <time>2019-04-27T11:07:03Z</time>
      </trkpt>
      <trkpt lat="51.298603805066" lon="4.555989456348">
        <ele>12</ele>
        <time>2019-04-27T11:07:11Z</time>
      </trkpt>
      <trkpt lat="51.298738083104" lon="4.556221215883">
        <ele>13.6</ele>
        <time>2019-04-27T11:07:19Z</time>
      </trkpt>
      <trkpt lat="51.298856435532" lon="4.556447527183">
        <ele>12.6</ele>
        <time>2019-04-27T11:07:26Z</time>
      </trkpt>
      <trkpt lat="51.298975709969" lon="4.556693284491">
        <ele>11</ele>
        <time>2019-04-27T11:07:34Z</time>
      </trkpt>
      <trkpt lat="51.299196824491" lon="4.557070637629">
        <ele>13.6</ele>
        <time>2019-04-27T11:07:47Z</time>
      </trkpt>
      <trkpt lat="51.299315176919" lon="4.55731362891">
        <ele>14.4</ele>
        <time>2019-04-27T11:07:55Z</time>
      </trkpt>
      <trkpt lat="51.299405198525" lon="4.55755670401">
        <ele>15</ele>
        <time>2019-04-27T11:08:03Z</time>
      </trkpt>
      <trkpt lat="51.299539392744" lon="4.557773962858">
        <ele>14.8</ele>
        <time>2019-04-27T11:08:11Z</time>
      </trkpt>
      <trkpt lat="51.299666462348" lon="4.5580185467">
        <ele>15.6</ele>
        <time>2019-04-27T11:08:19Z</time>
      </trkpt>
      <trkpt lat="51.299784647138" lon="4.558243433077">
        <ele>15</ele>
        <time>2019-04-27T11:08:26Z</time>
      </trkpt>
      <trkpt lat="51.299885732852" lon="4.558500003036">
        <ele>13.4</ele>
        <time>2019-04-27T11:08:34Z</time>
      </trkpt>
      <trkpt lat="51.299989416955" lon="4.558757578823">
        <ele>13.4</ele>
        <time>2019-04-27T11:08:42Z</time>
      </trkpt>
      <trkpt lat="51.300094861257" lon="4.559006185977">
        <ele>13</ele>
        <time>2019-04-27T11:08:50Z</time>
      </trkpt>
      <trkpt lat="51.300205753794" lon="4.559239286616">
        <ele>11.8</ele>
        <time>2019-04-27T11:08:58Z</time>
      </trkpt>
      <trkpt lat="51.300313796485" lon="4.559496778584">
        <ele>12.8</ele>
        <time>2019-04-27T11:09:06Z</time>
      </trkpt>
      <trkpt lat="51.300425443393" lon="4.559725688273">
        <ele>11.8</ele>
        <time>2019-04-27T11:09:13Z</time>
      </trkpt>
      <trkpt lat="51.300546561848" lon="4.559984437526">
        <ele>12.4</ele>
        <time>2019-04-27T11:09:21Z</time>
      </trkpt>
      <trkpt lat="51.300668015579" lon="4.560229859558">
        <ele>15.2</ele>
        <time>2019-04-27T11:09:29Z</time>
      </trkpt>
      <trkpt lat="51.30080036578" lon="4.560470084812">
        <ele>15</ele>
        <time>2019-04-27T11:09:37Z</time>
      </trkpt>
      <trkpt lat="51.300900613304" lon="4.560732103006">
        <ele>13.8</ele>
        <time>2019-04-27T11:09:45Z</time>
      </trkpt>
      <trkpt lat="51.301020977388" lon="4.560982554178">
        <ele>14.2</ele>
        <time>2019-04-27T11:09:53Z</time>
      </trkpt>
      <trkpt lat="51.301142431119" lon="4.56122210888">
        <ele>14.8</ele>
        <time>2019-04-27T11:10:01Z</time>
      </trkpt>
      <trkpt lat="51.301248462154" lon="4.561465435437">
        <ele>14.8</ele>
        <time>2019-04-27T11:10:09Z</time>
      </trkpt>
      <trkpt lat="51.301367904229" lon="4.561713120582">
        <ele>15.4</ele>
        <time>2019-04-27T11:10:17Z</time>
      </trkpt>
      <trkpt lat="51.301496650213" lon="4.561957117691">
        <ele>15.6</ele>
        <time>2019-04-27T11:10:25Z</time>
      </trkpt>
      <trkpt lat="51.301602010696" lon="4.562208826148">
        <ele>15.8</ele>
        <time>2019-04-27T11:10:33Z</time>
      </trkpt>
      <trkpt lat="51.30170812555" lon="4.562449721954">
        <ele>16.4</ele>
        <time>2019-04-27T11:10:41Z</time>
      </trkpt>
      <trkpt lat="51.301822706123" lon="4.56267972129">
        <ele>13.8</ele>
        <time>2019-04-27T11:10:49Z</time>
      </trkpt>
      <trkpt lat="51.301932425194" lon="4.562918689259">
        <ele>11.6</ele>
        <time>2019-04-27T11:10:57Z</time>
      </trkpt>
      <trkpt lat="51.30203669603" lon="4.563157070495">
        <ele>11</ele>
        <time>2019-04-27T11:11:05Z</time>
      </trkpt>
      <trkpt lat="51.302140044857" lon="4.563411544979">
        <ele>9.6</ele>
        <time>2019-04-27T11:11:13Z</time>
      </trkpt>
      <trkpt lat="51.302237442535" lon="4.56367297644">
        <ele>8.6</ele>
        <time>2019-04-27T11:11:21Z</time>
      </trkpt>
      <trkpt lat="51.302367026709" lon="4.563904903613">
        <ele>10.8</ele>
        <time>2019-04-27T11:11:29Z</time>
      </trkpt>
      <trkpt lat="51.302475237038" lon="4.564158791364">
        <ele>9.8</ele>
        <time>2019-04-27T11:11:37Z</time>
      </trkpt>
      <trkpt lat="51.302571964164" lon="4.564419133178">
        <ele>8.6</ele>
        <time>2019-04-27T11:11:45Z</time>
      </trkpt>
      <trkpt lat="51.302685538909" lon="4.564684755589">
        <ele>8.4</ele>
        <time>2019-04-27T11:11:53Z</time>
      </trkpt>
      <trkpt lat="51.302787462813" lon="4.564938056607">
        <ele>7.6</ele>
        <time>2019-04-27T11:12:01Z</time>
      </trkpt>
      <trkpt lat="51.302881675369" lon="4.565198649878">
        <ele>7.2</ele>
        <time>2019-04-27T11:12:09Z</time>
      </trkpt>
      <trkpt lat="51.302993992829" lon="4.565453208181">
        <ele>7.2</ele>
        <time>2019-04-27T11:12:17Z</time>
      </trkpt>
      <trkpt lat="51.303109746868" lon="4.565700055136">
        <ele>7.6</ele>
        <time>2019-04-27T11:12:25Z</time>
      </trkpt>
      <trkpt lat="51.303232206427" lon="4.565945393349">
        <ele>7.8</ele>
        <time>2019-04-27T11:12:33Z</time>
      </trkpt>
      <trkpt lat="51.303354163072" lon="4.566194168141">
        <ele>9.2</ele>
        <time>2019-04-27T11:12:41Z</time>
      </trkpt>
      <trkpt lat="51.303444939049" lon="4.566461215475">
        <ele>9.4</ele>
        <time>2019-04-27T11:12:49Z</time>
      </trkpt>
      <trkpt lat="51.303551640636" lon="4.566726586429">
        <ele>8.8</ele>
        <time>2019-04-27T11:12:57Z</time>
      </trkpt>
      <trkpt lat="51.303676447127" lon="4.566977791972">
        <ele>10.6</ele>
        <time>2019-04-27T11:13:05Z</time>
      </trkpt>
      <trkpt lat="51.303784992732" lon="4.567236541225">
        <ele>11.4</ele>
        <time>2019-04-27T11:13:13Z</time>
      </trkpt>
      <trkpt lat="51.30389915421" lon="4.567486992397">
        <ele>10.2</ele>
        <time>2019-04-27T11:13:21Z</time>
      </trkpt>
      <trkpt lat="51.303985152504" lon="4.567751357523">
        <ele>10.2</ele>
        <time>2019-04-27T11:13:29Z</time>
      </trkpt>
      <trkpt lat="51.303999904648" lon="4.568035923028">
        <ele>12</ele>
        <time>2019-04-27T11:13:37Z</time>
      </trkpt>
      <trkpt lat="51.303859256366" lon="4.568218229353">
        <ele>14</ele>
        <time>2019-04-27T11:13:46Z</time>
      </trkpt>
      <trkpt lat="51.303532194628" lon="4.568563982728">
        <ele>22.2</ele>
        <time>2019-04-27T11:14:02Z</time>
      </trkpt>
      <trkpt lat="51.303364640447" lon="4.568701445888">
        <ele>24.6</ele>
        <time>2019-04-27T11:14:10Z</time>
      </trkpt>
      <trkpt lat="51.303207731279" lon="4.568879309806">
        <ele>24.6</ele>
        <time>2019-04-27T11:14:19Z</time>
      </trkpt>
      <trkpt lat="51.303041769659" lon="4.569010318903">
        <ele>22.8</ele>
        <time>2019-04-27T11:14:27Z</time>
      </trkpt>
      <trkpt lat="51.30286398956" lon="4.569155241954">
        <ele>21.6</ele>
        <time>2019-04-27T11:14:36Z</time>
      </trkpt>
      <trkpt lat="51.302678498113" lon="4.569275689857">
        <ele>17.4</ele>
        <time>2019-04-27T11:14:45Z</time>
      </trkpt>
      <trkpt lat="51.302512536493" lon="4.56944391459">
        <ele>19.2</ele>
        <time>2019-04-27T11:14:53Z</time>
      </trkpt>
      <trkpt lat="51.302338528249" lon="4.56951935169">
        <ele>19</ele>
        <time>2019-04-27T11:15:00Z</time>
      </trkpt>
      <trkpt lat="51.302167118394" lon="4.569683553111">
        <ele>19</ele>
        <time>2019-04-27T11:15:10Z</time>
      </trkpt>
      <trkpt lat="51.302010041588" lon="4.569831912741">
        <ele>16.8</ele>
        <time>2019-04-27T11:15:17Z</time>
      </trkpt>
      <trkpt lat="51.301847013633" lon="4.56997784162">
        <ele>14.2</ele>
        <time>2019-04-27T11:15:25Z</time>
      </trkpt>
      <trkpt lat="51.301689182456" lon="4.570124273413">
        <ele>13.4</ele>
        <time>2019-04-27T11:15:32Z</time>
      </trkpt>
      <trkpt lat="51.301536128962" lon="4.570290151214">
        <ele>17.4</ele>
        <time>2019-04-27T11:15:39Z</time>
      </trkpt>
      <trkpt lat="51.301372346636" lon="4.570427865831">
        <ele>19.4</ele>
        <time>2019-04-27T11:15:46Z</time>
      </trkpt>
      <trkpt lat="51.301205127731" lon="4.570549990114">
        <ele>19</ele>
        <time>2019-04-27T11:15:53Z</time>
      </trkpt>
      <trkpt lat="51.301028269641" lon="4.570685357799">
        <ele>16.2</ele>
        <time>2019-04-27T11:16:02Z</time>
      </trkpt>
      <trkpt lat="51.300859458175" lon="4.570812175946">
        <ele>12.2</ele>
        <time>2019-04-27T11:16:11Z</time>
      </trkpt>
      <trkpt lat="51.300689892338" lon="4.570976880281">
        <ele>8.6</ele>
        <time>2019-04-27T11:16:20Z</time>
      </trkpt>
      <trkpt lat="51.300519991225" lon="4.571073858864">
        <ele>8.6</ele>
        <time>2019-04-27T11:16:27Z</time>
      </trkpt>
      <trkpt lat="51.300361405677" lon="4.571210400015">
        <ele>8.6</ele>
        <time>2019-04-27T11:16:35Z</time>
      </trkpt>
      <trkpt lat="51.300184379949" lon="4.571369907572">
        <ele>5</ele>
        <time>2019-04-27T11:16:44Z</time>
      </trkpt>
      <trkpt lat="51.300033254292" lon="4.571532851708">
        <ele>8.2</ele>
        <time>2019-04-27T11:16:51Z</time>
      </trkpt>
      <trkpt lat="51.299878440599" lon="4.57168272008">
        <ele>13.4</ele>
        <time>2019-04-27T11:16:58Z</time>
      </trkpt>
      <trkpt lat="51.299696804826" lon="4.571802916526">
        <ele>14.8</ele>
        <time>2019-04-27T11:17:06Z</time>
      </trkpt>
      <trkpt lat="51.299528328636" lon="4.571955886201">
        <ele>15.4</ele>
        <time>2019-04-27T11:17:14Z</time>
      </trkpt>
      <trkpt lat="51.299380974834" lon="4.572142718752">
        <ele>22.4</ele>
        <time>2019-04-27T11:17:21Z</time>
      </trkpt>
      <trkpt lat="51.299219790897" lon="4.572322594326">
        <ele>24.4</ele>
        <time>2019-04-27T11:17:29Z</time>
      </trkpt>
      <trkpt lat="51.299055421838" lon="4.572456956183">
        <ele>21.4</ele>
        <time>2019-04-27T11:17:38Z</time>
      </trkpt>
      <trkpt lat="51.298897087747" lon="4.572600119035">
        <ele>19.8</ele>
        <time>2019-04-27T11:17:46Z</time>
      </trkpt>
      <trkpt lat="51.298845622881" lon="4.572631970255">
        <ele>18.4</ele>
        <time>2019-04-27T11:17:49Z</time>
      </trkpt>
      <trkpt lat="51.298744872443" lon="4.57236416855">
        <ele>9.4</ele>
        <time>2019-04-27T11:17:56Z</time>
      </trkpt>
      <trkpt lat="51.29860011703" lon="4.572210863599">
        <ele>9.4</ele>
        <time>2019-04-27T11:18:02Z</time>
      </trkpt>
      <trkpt lat="51.298539432074" lon="4.57229124602">
        <ele>9.2</ele>
        <time>2019-04-27T11:18:06Z</time>
      </trkpt>
      <trkpt lat="51.298542449558" lon="4.572352769166">
        <ele>9.2</ele>
        <time>2019-04-27T11:18:08Z</time>
      </trkpt>
      <trkpt lat="51.29864789386" lon="4.572341788877">
        <ele>11.8</ele>
        <time>2019-04-27T11:18:14Z</time>
      </trkpt>
      <trkpt lat="51.29876775503" lon="4.57257539243">
        <ele>14.2</ele>
        <time>2019-04-27T11:18:22Z</time>
      </trkpt>
      <trkpt lat="51.29876272589" lon="4.572619145948">
        <ele>14</ele>
        <time>2019-04-27T11:18:24Z</time>
      </trkpt>
      <trkpt lat="51.298584107601" lon="4.572768092311">
        <ele>11.8</ele>
        <time>2019-04-27T11:18:34Z</time>
      </trkpt>
      <trkpt lat="51.298424348587" lon="4.572928857153">
        <ele>11.2</ele>
        <time>2019-04-27T11:18:41Z</time>
      </trkpt>
      <trkpt lat="51.298242293719" lon="4.573049137418">
        <ele>15.6</ele>
        <time>2019-04-27T11:18:48Z</time>
      </trkpt>
      <trkpt lat="51.298190745034" lon="4.573031200152">
        <ele>16.2</ele>
        <time>2019-04-27T11:18:50Z</time>
      </trkpt>
      <trkpt lat="51.298101058704" lon="4.572790639622">
        <ele>16.6</ele>
        <time>2019-04-27T11:18:56Z</time>
      </trkpt>
      <trkpt lat="51.298121426721" lon="4.572729116476">
        <ele>15.8</ele>
        <time>2019-04-27T11:18:58Z</time>
      </trkpt>
      <trkpt lat="51.298152607389" lon="4.572730876675">
        <ele>15.6</ele>
        <time>2019-04-27T11:19:00Z</time>
      </trkpt>
      <trkpt lat="51.298248412506" lon="4.572975795793">
        <ele>16.6</ele>
        <time>2019-04-27T11:19:09Z</time>
      </trkpt>
      <trkpt lat="51.298435915609" lon="4.57288719911">
        <ele>21.4</ele>
        <time>2019-04-27T11:19:18Z</time>
      </trkpt>
      <trkpt lat="51.298610091491" lon="4.572774462555">
        <ele>26.6</ele>
        <time>2019-04-27T11:19:30Z</time>
      </trkpt>
      <trkpt lat="51.298773454722" lon="4.572658037964">
        <ele>19.2</ele>
        <time>2019-04-27T11:19:37Z</time>
      </trkpt>
      <trkpt lat="51.298921059981" lon="4.57248402972">
        <ele>17.8</ele>
        <time>2019-04-27T11:19:46Z</time>
      </trkpt>
      <trkpt lat="51.299108143989" lon="4.572360061419">
        <ele>22.6</ele>
        <time>2019-04-27T11:19:55Z</time>
      </trkpt>
      <trkpt lat="51.299278380378" lon="4.572220586603">
        <ele>24.4</ele>
        <time>2019-04-27T11:20:02Z</time>
      </trkpt>
      <trkpt lat="51.29945507083" lon="4.572060827589">
        <ele>24</ele>
        <time>2019-04-27T11:20:09Z</time>
      </trkpt>
      <trkpt lat="51.299777187247" lon="4.571747595986">
        <ele>20.4</ele>
        <time>2019-04-27T11:20:22Z</time>
      </trkpt>
      <trkpt lat="51.299935521338" lon="4.571588423705">
        <ele>17.2</ele>
        <time>2019-04-27T11:20:29Z</time>
      </trkpt>
      <trkpt lat="51.300098549293" lon="4.571418019678">
        <ele>16.8</ele>
        <time>2019-04-27T11:20:37Z</time>
      </trkpt>
      <trkpt lat="51.30026308599" lon="4.57128038888">
        <ele>14.6</ele>
        <time>2019-04-27T11:20:44Z</time>
      </trkpt>
      <trkpt lat="51.30042737123" lon="4.571134879096">
        <ele>16.2</ele>
        <time>2019-04-27T11:20:52Z</time>
      </trkpt>
      <trkpt lat="51.300593919583" lon="4.571031027355">
        <ele>21</ele>
        <time>2019-04-27T11:21:00Z</time>
      </trkpt>
      <trkpt lat="51.300763317782" lon="4.570874956377">
        <ele>26.2</ele>
        <time>2019-04-27T11:21:07Z</time>
      </trkpt>
      <trkpt lat="51.300938918587" lon="4.570731458249">
        <ele>27.8</ele>
        <time>2019-04-27T11:21:15Z</time>
      </trkpt>
      <trkpt lat="51.301109825528" lon="4.570577315108">
        <ele>27.6</ele>
        <time>2019-04-27T11:21:24Z</time>
      </trkpt>
      <trkpt lat="51.301271177103" lon="4.570429793668">
        <ele>23.8</ele>
        <time>2019-04-27T11:21:30Z</time>
      </trkpt>
      <trkpt lat="51.301436300533" lon="4.570265173152">
        <ele>26.2</ele>
        <time>2019-04-27T11:21:38Z</time>
      </trkpt>
      <trkpt lat="51.301602765067" lon="4.570146485448">
        <ele>32.8</ele>
        <time>2019-04-27T11:21:47Z</time>
      </trkpt>
      <trkpt lat="51.301775264569" lon="4.570022684785">
        <ele>33.6</ele>
        <time>2019-04-27T11:21:55Z</time>
      </trkpt>
      <trkpt lat="51.301940136542" lon="4.569847586894">
        <ele>27.4</ele>
        <time>2019-04-27T11:22:02Z</time>
      </trkpt>
      <trkpt lat="51.302097716262" lon="4.569653210633">
        <ele>22.6</ele>
        <time>2019-04-27T11:22:09Z</time>
      </trkpt>
      <trkpt lat="51.302253451964" lon="4.569490685592">
        <ele>21.2</ele>
        <time>2019-04-27T11:22:16Z</time>
      </trkpt>
      <trkpt lat="51.302419245946" lon="4.569369064223">
        <ele>21.8</ele>
        <time>2019-04-27T11:22:24Z</time>
      </trkpt>
      <trkpt lat="51.302595601122" lon="4.569238725678">
        <ele>31.6</ele>
        <time>2019-04-27T11:22:33Z</time>
      </trkpt>
      <trkpt lat="51.302764328769" lon="4.56909019841">
        <ele>27.8</ele>
        <time>2019-04-27T11:22:42Z</time>
      </trkpt>
      <trkpt lat="51.302938504651" lon="4.56896698448">
        <ele>27.2</ele>
        <time>2019-04-27T11:22:53Z</time>
      </trkpt>
      <trkpt lat="51.303118715501" lon="4.56883035951">
        <ele>30.2</ele>
        <time>2019-04-27T11:23:02Z</time>
      </trkpt>
      <trkpt lat="51.303284090388" lon="4.568715359842">
        <ele>34.2</ele>
        <time>2019-04-27T11:23:09Z</time>
      </trkpt>
      <trkpt lat="51.303465055609" lon="4.568575465931">
        <ele>34.8</ele>
        <time>2019-04-27T11:23:18Z</time>
      </trkpt>
      <trkpt lat="51.303632106876" lon="4.568418221487">
        <ele>34.2</ele>
        <time>2019-04-27T11:23:25Z</time>
      </trkpt>
      <trkpt lat="51.303815167572" lon="4.568250834944">
        <ele>35.2</ele>
        <time>2019-04-27T11:23:34Z</time>
      </trkpt>
      <trkpt lat="51.303923042625" lon="4.567983536153">
        <ele>32.8</ele>
        <time>2019-04-27T11:23:40Z</time>
      </trkpt>
      <trkpt lat="51.303857412348" lon="4.567682458305">
        <ele>28.8</ele>
        <time>2019-04-27T11:23:47Z</time>
      </trkpt>
      <trkpt lat="51.303758673566" lon="4.56738699633">
        <ele>30.8</ele>
        <time>2019-04-27T11:23:54Z</time>
      </trkpt>
      <trkpt lat="51.303643087165" lon="4.567115003675">
        <ele>25.4</ele>
        <time>2019-04-27T11:24:02Z</time>
      </trkpt>
      <trkpt lat="51.303574858499" lon="4.56682373265">
        <ele>21</ele>
        <time>2019-04-27T11:24:10Z</time>
      </trkpt>
      <trkpt lat="51.303451141655" lon="4.566608401639">
        <ele>18.2</ele>
        <time>2019-04-27T11:24:17Z</time>
      </trkpt>
      <trkpt lat="51.303388612681" lon="4.566296930235">
        <ele>20.4</ele>
        <time>2019-04-27T11:24:24Z</time>
      </trkpt>
      <trkpt lat="51.303283755112" lon="4.566031559281">
        <ele>23.6</ele>
        <time>2019-04-27T11:24:31Z</time>
      </trkpt>
      <trkpt lat="51.303156434051" lon="4.565798961556">
        <ele>25</ele>
        <time>2019-04-27T11:24:39Z</time>
      </trkpt>
      <trkpt lat="51.303035986148" lon="4.565560664139">
        <ele>24.4</ele>
        <time>2019-04-27T11:24:47Z</time>
      </trkpt>
      <trkpt lat="51.302939510479" lon="4.565300992877">
        <ele>21</ele>
        <time>2019-04-27T11:24:55Z</time>
      </trkpt>
      <trkpt lat="51.302819146395" lon="4.565052888637">
        <ele>19.8</ele>
        <time>2019-04-27T11:25:02Z</time>
      </trkpt>
      <trkpt lat="51.302696435379" lon="4.56481459122">
        <ele>20</ele>
        <time>2019-04-27T11:25:09Z</time>
      </trkpt>
      <trkpt lat="51.30258319591" lon="4.564549639361">
        <ele>20</ele>
        <time>2019-04-27T11:25:17Z</time>
      </trkpt>
      <trkpt lat="51.302457718867" lon="4.56429575161">
        <ele>19.2</ele>
        <time>2019-04-27T11:25:25Z</time>
      </trkpt>
      <trkpt lat="51.302339031163" lon="4.564063740618">
        <ele>17.2</ele>
        <time>2019-04-27T11:25:33Z</time>
      </trkpt>
      <trkpt lat="51.302244650969" lon="4.563815133464">
        <ele>16.8</ele>
        <time>2019-04-27T11:25:40Z</time>
      </trkpt>
      <trkpt lat="51.302143397617" lon="4.563577758056">
        <ele>18.2</ele>
        <time>2019-04-27T11:25:47Z</time>
      </trkpt>
      <trkpt lat="51.302022027705" lon="4.563330575825">
        <ele>19.2</ele>
        <time>2019-04-27T11:25:55Z</time>
      </trkpt>
      <trkpt lat="51.301909123512" lon="4.563079370282">
        <ele>19.6</ele>
        <time>2019-04-27T11:26:03Z</time>
      </trkpt>
      <trkpt lat="51.301810049454" lon="4.562818777011">
        <ele>18.8</ele>
        <time>2019-04-27T11:26:11Z</time>
      </trkpt>
      <trkpt lat="51.301643333463" lon="4.562466569573">
        <ele>18.4</ele>
        <time>2019-04-27T11:26:23Z</time>
      </trkpt>
      <trkpt lat="51.301520203352" lon="4.562211843632">
        <ele>15.4</ele>
        <time>2019-04-27T11:26:32Z</time>
      </trkpt>
      <trkpt lat="51.301398414345" lon="4.562000703571">
        <ele>18.2</ele>
        <time>2019-04-27T11:26:39Z</time>
      </trkpt>
      <trkpt lat="51.301289449645" lon="4.561730303477">
        <ele>20.8</ele>
        <time>2019-04-27T11:26:47Z</time>
      </trkpt>
      <trkpt lat="51.30118006585" lon="4.561460490116">
        <ele>21.2</ele>
        <time>2019-04-27T11:26:55Z</time>
      </trkpt>
      <trkpt lat="51.301057187196" lon="4.561206853822">
        <ele>20.2</ele>
        <time>2019-04-27T11:27:03Z</time>
      </trkpt>
      <trkpt lat="51.300933218895" lon="4.560959671591">
        <ele>18.8</ele>
        <time>2019-04-27T11:27:11Z</time>
      </trkpt>
      <trkpt lat="51.300813190087" lon="4.560719781613">
        <ele>19</ele>
        <time>2019-04-27T11:27:19Z</time>
      </trkpt>
      <trkpt lat="51.300707159052" lon="4.560479640178">
        <ele>19.6</ele>
        <time>2019-04-27T11:27:27Z</time>
      </trkpt>
      <trkpt lat="51.300589560995" lon="4.560239331105">
        <ele>18</ele>
        <time>2019-04-27T11:27:35Z</time>
      </trkpt>
      <trkpt lat="51.300480261019" lon="4.559972786685">
        <ele>18.4</ele>
        <time>2019-04-27T11:27:43Z</time>
      </trkpt>
      <trkpt lat="51.300358807288" lon="4.559727029377">
        <ele>19</ele>
        <time>2019-04-27T11:27:51Z</time>
      </trkpt>
      <trkpt lat="51.300245064905" lon="4.559482110259">
        <ele>19</ele>
        <time>2019-04-27T11:27:58Z</time>
      </trkpt>
      <trkpt lat="51.300137106033" lon="4.559250015448">
        <ele>17</ele>
        <time>2019-04-27T11:28:05Z</time>
      </trkpt>
      <trkpt lat="51.300021519632" lon="4.558985650322">
        <ele>17.2</ele>
        <time>2019-04-27T11:28:13Z</time>
      </trkpt>
      <trkpt lat="51.299916159149" lon="4.558751292398">
        <ele>17.6</ele>
        <time>2019-04-27T11:28:20Z</time>
      </trkpt>
      <trkpt lat="51.299791520296" lon="4.558500254493">
        <ele>17</ele>
        <time>2019-04-27T11:28:28Z</time>
      </trkpt>
      <trkpt lat="51.299686495089" lon="4.558259274868">
        <ele>16.4</ele>
        <time>2019-04-27T11:28:35Z</time>
      </trkpt>
      <trkpt lat="51.299573926172" lon="4.557992478991">
        <ele>16.8</ele>
        <time>2019-04-27T11:28:43Z</time>
      </trkpt>
      <trkpt lat="51.299456914848" lon="4.55776289875">
        <ele>16.2</ele>
        <time>2019-04-27T11:28:50Z</time>
      </trkpt>
      <trkpt lat="51.299341496085" lon="4.557540526943">
        <ele>16.8</ele>
        <time>2019-04-27T11:28:57Z</time>
      </trkpt>
      <trkpt lat="51.299239488362" lon="4.557299966413">
        <ele>16.6</ele>
        <time>2019-04-27T11:29:05Z</time>
      </trkpt>
      <trkpt lat="51.299122812314" lon="4.557065021756">
        <ele>17</ele>
        <time>2019-04-27T11:29:13Z</time>
      </trkpt>
      <trkpt lat="51.299004627524" lon="4.556829071271">
        <ele>16.4</ele>
        <time>2019-04-27T11:29:21Z</time>
      </trkpt>
      <trkpt lat="51.298871522952" lon="4.556613153527">
        <ele>16</ele>
        <time>2019-04-27T11:29:29Z</time>
      </trkpt>
      <trkpt lat="51.298754595447" lon="4.556374353196">
        <ele>14.6</ele>
        <time>2019-04-27T11:29:37Z</time>
      </trkpt>
      <trkpt lat="51.298624759816" lon="4.55616111766">
        <ele>14</ele>
        <time>2019-04-27T11:29:45Z</time>
      </trkpt>
      <trkpt lat="51.298499869506" lon="4.555936566559">
        <ele>13</ele>
        <time>2019-04-27T11:29:53Z</time>
      </trkpt>
      <trkpt lat="51.298377074671" lon="4.555706148128">
        <ele>12.8</ele>
        <time>2019-04-27T11:30:01Z</time>
      </trkpt>
      <trkpt lat="51.298250927076" lon="4.555471706385">
        <ele>14.4</ele>
        <time>2019-04-27T11:30:09Z</time>
      </trkpt>
      <trkpt lat="51.2981248633" lon="4.555227541638">
        <ele>14.6</ele>
        <time>2019-04-27T11:30:17Z</time>
      </trkpt>
      <trkpt lat="51.298004331578" lon="4.5549926808">
        <ele>13.6</ele>
        <time>2019-04-27T11:30:25Z</time>
      </trkpt>
      <trkpt lat="51.297878183983" lon="4.554751617356">
        <ele>13.4</ele>
        <time>2019-04-27T11:30:34Z</time>
      </trkpt>
      <trkpt lat="51.297750695284" lon="4.554526563341">
        <ele>13</ele>
        <time>2019-04-27T11:30:42Z</time>
      </trkpt>
      <trkpt lat="51.297619015635" lon="4.554298072747">
        <ele>13.6</ele>
        <time>2019-04-27T11:30:50Z</time>
      </trkpt>
      <trkpt lat="51.297496975171" lon="4.554066899945">
        <ele>11.6</ele>
        <time>2019-04-27T11:30:58Z</time>
      </trkpt>
      <trkpt lat="51.297375940535" lon="4.553824327759">
        <ele>13.6</ele>
        <time>2019-04-27T11:31:06Z</time>
      </trkpt>
      <trkpt lat="51.297254738261" lon="4.55358368341">
        <ele>13.6</ele>
        <time>2019-04-27T11:31:14Z</time>
      </trkpt>
      <trkpt lat="51.297140241507" lon="4.553354186988">
        <ele>13.8</ele>
        <time>2019-04-27T11:31:22Z</time>
      </trkpt>
      <trkpt lat="51.297009400048" lon="4.553152518474">
        <ele>14.8</ele>
        <time>2019-04-27T11:31:30Z</time>
      </trkpt>
      <trkpt lat="51.29688769486" lon="4.552918244369">
        <ele>15</ele>
        <time>2019-04-27T11:31:38Z</time>
      </trkpt>
      <trkpt lat="51.296777221418" lon="4.55267257088">
        <ele>13.6</ele>
        <time>2019-04-27T11:31:46Z</time>
      </trkpt>
      <trkpt lat="51.296659874818" lon="4.552443158277">
        <ele>13.2</ele>
        <time>2019-04-27T11:31:53Z</time>
      </trkpt>
      <trkpt lat="51.296520316183" lon="4.552221708479">
        <ele>13.6</ele>
        <time>2019-04-27T11:32:01Z</time>
      </trkpt>
      <trkpt lat="51.296385283774" lon="4.551977040818">
        <ele>14.6</ele>
        <time>2019-04-27T11:32:09Z</time>
      </trkpt>
      <trkpt lat="51.296253520306" lon="4.551744862188">
        <ele>14.6</ele>
        <time>2019-04-27T11:32:17Z</time>
      </trkpt>
      <trkpt lat="51.296008852645" lon="4.551284360602">
        <ele>13</ele>
        <time>2019-04-27T11:32:32Z</time>
      </trkpt>
      <trkpt lat="51.295896619004" lon="4.551053271619">
        <ele>14.2</ele>
        <time>2019-04-27T11:32:39Z</time>
      </trkpt>
      <trkpt lat="51.295758820568" lon="4.550808352501">
        <ele>12.6</ele>
        <time>2019-04-27T11:32:47Z</time>
      </trkpt>
      <trkpt lat="51.29564298271" lon="4.550556224949">
        <ele>12.4</ele>
        <time>2019-04-27T11:32:55Z</time>
      </trkpt>
      <trkpt lat="51.29553737077" lon="4.550302672474">
        <ele>12.2</ele>
        <time>2019-04-27T11:33:03Z</time>
      </trkpt>
      <trkpt lat="51.295412648098" lon="4.550090526585">
        <ele>11.8</ele>
        <time>2019-04-27T11:33:10Z</time>
      </trkpt>
      <trkpt lat="51.295273760015" lon="4.549864718199">
        <ele>11.8</ele>
        <time>2019-04-27T11:33:18Z</time>
      </trkpt>
      <trkpt lat="51.295153228293" lon="4.549623990031">
        <ele>11.8</ele>
        <time>2019-04-27T11:33:26Z</time>
      </trkpt>
      <trkpt lat="51.295031020191" lon="4.549410251581">
        <ele>9.8</ele>
        <time>2019-04-27T11:33:33Z</time>
      </trkpt>
      <trkpt lat="51.294916104342" lon="4.549187963593">
        <ele>10</ele>
        <time>2019-04-27T11:33:40Z</time>
      </trkpt>
      <trkpt lat="51.294790040566" lon="4.548951342556">
        <ele>9</ele>
        <time>2019-04-27T11:33:48Z</time>
      </trkpt>
      <trkpt lat="51.294669341206" lon="4.548711201121">
        <ele>8.2</ele>
        <time>2019-04-27T11:33:56Z</time>
      </trkpt>
      <trkpt lat="51.294548641846" lon="4.548491092427">
        <ele>8.8</ele>
        <time>2019-04-27T11:34:03Z</time>
      </trkpt>
      <trkpt lat="51.294433306902" lon="4.548267630973">
        <ele>8.8</ele>
        <time>2019-04-27T11:34:10Z</time>
      </trkpt>
      <trkpt lat="51.294300789063" lon="4.548042157863">
        <ele>9.8</ele>
        <time>2019-04-27T11:34:17Z</time>
      </trkpt>
      <trkpt lat="51.294170115242" lon="4.547798328392">
        <ele>12</ele>
        <time>2019-04-27T11:34:25Z</time>
      </trkpt>
      <trkpt lat="51.294038938507" lon="4.5475663174">
        <ele>14</ele>
        <time>2019-04-27T11:34:33Z</time>
      </trkpt>
      <trkpt lat="51.293907342677" lon="4.547332881485">
        <ele>14.4</ele>
        <time>2019-04-27T11:34:41Z</time>
      </trkpt>
      <trkpt lat="51.293784966937" lon="4.547099110294">
        <ele>12.4</ele>
        <time>2019-04-27T11:34:49Z</time>
      </trkpt>
      <trkpt lat="51.293658484066" lon="4.546859555592">
        <ele>13</ele>
        <time>2019-04-27T11:34:57Z</time>
      </trkpt>
      <trkpt lat="51.293546920977" lon="4.546611283714">
        <ele>11.4</ele>
        <time>2019-04-27T11:35:05Z</time>
      </trkpt>
      <trkpt lat="51.29342764654" lon="4.546378099256">
        <ele>11.4</ele>
        <time>2019-04-27T11:35:13Z</time>
      </trkpt>
      <trkpt lat="51.29330694718" lon="4.546127228989">
        <ele>11.8</ele>
        <time>2019-04-27T11:35:22Z</time>
      </trkpt>
      <trkpt lat="51.29318960058" lon="4.545895637092">
        <ele>12</ele>
        <time>2019-04-27T11:35:30Z</time>
      </trkpt>
      <trkpt lat="51.293055825456" lon="4.545696566967">
        <ele>13.2</ele>
        <time>2019-04-27T11:35:37Z</time>
      </trkpt>
      <trkpt lat="51.292917105011" lon="4.545454832971">
        <ele>15.4</ele>
        <time>2019-04-27T11:35:45Z</time>
      </trkpt>
      <trkpt lat="51.292786850285" lon="4.545219720676">
        <ele>14.4</ele>
        <time>2019-04-27T11:35:53Z</time>
      </trkpt>
      <trkpt lat="51.292653661894" lon="4.544999192887">
        <ele>11.8</ele>
        <time>2019-04-27T11:36:01Z</time>
      </trkpt>
      <trkpt lat="51.292534806552" lon="4.544763493859">
        <ele>12.8</ele>
        <time>2019-04-27T11:36:09Z</time>
      </trkpt>
      <trkpt lat="51.292411592622" lon="4.544518323284">
        <ele>12.4</ele>
        <time>2019-04-27T11:36:17Z</time>
      </trkpt>
      <trkpt lat="51.292291815271" lon="4.544280193505">
        <ele>11</ele>
        <time>2019-04-27T11:36:25Z</time>
      </trkpt>
      <trkpt lat="51.292158123966" lon="4.544036615491">
        <ele>9</ele>
        <time>2019-04-27T11:36:34Z</time>
      </trkpt>
      <trkpt lat="51.292020493168" lon="4.543824218145">
        <ele>5.8</ele>
        <time>2019-04-27T11:36:42Z</time>
      </trkpt>
      <trkpt lat="51.291896943962" lon="4.543592290972">
        <ele>5.8</ele>
        <time>2019-04-27T11:36:50Z</time>
      </trkpt>
      <trkpt lat="51.291781189923" lon="4.543355669935">
        <ele>6.4</ele>
        <time>2019-04-27T11:36:58Z</time>
      </trkpt>
      <trkpt lat="51.291661244934" lon="4.543132879033">
        <ele>7.2</ele>
        <time>2019-04-27T11:37:05Z</time>
      </trkpt>
      <trkpt lat="51.291541802859" lon="4.54289843729">
        <ele>11.2</ele>
        <time>2019-04-27T11:37:12Z</time>
      </trkpt>
      <trkpt lat="51.291417918377" lon="4.542658128217">
        <ele>13</ele>
        <time>2019-04-27T11:37:20Z</time>
      </trkpt>
      <trkpt lat="51.291300404139" lon="4.542420166076">
        <ele>11.8</ele>
        <time>2019-04-27T11:37:28Z</time>
      </trkpt>
      <trkpt lat="51.291173669811" lon="4.542185724333">
        <ele>10.8</ele>
        <time>2019-04-27T11:37:36Z</time>
      </trkpt>
      <trkpt lat="51.291054311555" lon="4.54195547354">
        <ele>11</ele>
        <time>2019-04-27T11:37:44Z</time>
      </trkpt>
      <trkpt lat="51.290935456213" lon="4.54173922052">
        <ele>11</ele>
        <time>2019-04-27T11:37:51Z</time>
      </trkpt>
      <trkpt lat="51.290804866211" lon="4.541505449329">
        <ele>10</ele>
        <time>2019-04-27T11:37:59Z</time>
      </trkpt>
      <trkpt lat="51.290671510182" lon="4.541255333433">
        <ele>11</ele>
        <time>2019-04-27T11:38:07Z</time>
      </trkpt>
      <trkpt lat="51.290548212433" lon="4.541022903346">
        <ele>11.4</ele>
        <time>2019-04-27T11:38:15Z</time>
      </trkpt>
      <trkpt lat="51.290424998503" lon="4.540799777168">
        <ele>12.8</ele>
        <time>2019-04-27T11:38:23Z</time>
      </trkpt>
      <trkpt lat="51.290208745483" lon="4.540416724338">
        <ele>13.4</ele>
        <time>2019-04-27T11:38:37Z</time>
      </trkpt>
      <trkpt lat="51.290089554865" lon="4.540181695862">
        <ele>11.8</ele>
        <time>2019-04-27T11:38:45Z</time>
      </trkpt>
      <trkpt lat="51.28996676003" lon="4.539956474209">
        <ele>11.2</ele>
        <time>2019-04-27T11:38:53Z</time>
      </trkpt>
      <trkpt lat="51.289847988507" lon="4.539713482928">
        <ele>9.6</ele>
        <time>2019-04-27T11:39:01Z</time>
      </trkpt>
      <trkpt lat="51.289712369365" lon="4.539503935428">
        <ele>8.6</ele>
        <time>2019-04-27T11:39:09Z</time>
      </trkpt>
      <trkpt lat="51.289583958657" lon="4.539270331875">
        <ele>9.4</ele>
        <time>2019-04-27T11:39:17Z</time>
      </trkpt>
      <trkpt lat="51.28946133146" lon="4.539043098566">
        <ele>10.4</ele>
        <time>2019-04-27T11:39:25Z</time>
      </trkpt>
      <trkpt lat="51.28933476477" lon="4.53881980475">
        <ele>10.2</ele>
        <time>2019-04-27T11:39:33Z</time>
      </trkpt>
      <trkpt lat="51.289225464794" lon="4.538581926428">
        <ele>10.6</ele>
        <time>2019-04-27T11:39:41Z</time>
      </trkpt>
      <trkpt lat="51.289099401018" lon="4.538353435834">
        <ele>11.4</ele>
        <time>2019-04-27T11:39:49Z</time>
      </trkpt>
      <trkpt lat="51.288976187088" lon="4.538118574996">
        <ele>10.2</ele>
        <time>2019-04-27T11:39:57Z</time>
      </trkpt>
      <trkpt lat="51.288847357285" lon="4.537887402194">
        <ele>10.6</ele>
        <time>2019-04-27T11:40:05Z</time>
      </trkpt>
      <trkpt lat="51.288722215518" lon="4.537672909373">
        <ele>10.4</ele>
        <time>2019-04-27T11:40:13Z</time>
      </trkpt>
      <trkpt lat="51.288585506729" lon="4.537451459575">
        <ele>11.4</ele>
        <time>2019-04-27T11:40:21Z</time>
      </trkpt>
      <trkpt lat="51.28846304717" lon="4.537217269289">
        <ele>11.4</ele>
        <time>2019-04-27T11:40:29Z</time>
      </trkpt>
      <trkpt lat="51.288324326725" lon="4.536996825319">
        <ele>10.6</ele>
        <time>2019-04-27T11:40:37Z</time>
      </trkpt>
      <trkpt lat="51.288172530516" lon="4.536777219539">
        <ele>10.2</ele>
        <time>2019-04-27T11:40:45Z</time>
      </trkpt>
      <trkpt lat="51.288009670199" lon="4.536590638445">
        <ele>8.8</ele>
        <time>2019-04-27T11:40:53Z</time>
      </trkpt>
      <trkpt lat="51.287846055511" lon="4.536433729277">
        <ele>6.4</ele>
        <time>2019-04-27T11:41:01Z</time>
      </trkpt>
      <trkpt lat="51.287667437222" lon="4.536283777086">
        <ele>5</ele>
        <time>2019-04-27T11:41:09Z</time>
      </trkpt>
      <trkpt lat="51.287496446462" lon="4.536145894831">
        <ele>4.2</ele>
        <time>2019-04-27T11:41:17Z</time>
      </trkpt>
      <trkpt lat="51.287305422961" lon="4.5360495868">
        <ele>3.2</ele>
        <time>2019-04-27T11:41:26Z</time>
      </trkpt>
      <trkpt lat="51.287116243478" lon="4.535962498859">
        <ele>3.6</ele>
        <time>2019-04-27T11:41:34Z</time>
      </trkpt>
      <trkpt lat="51.286929410927" lon="4.535883457542">
        <ele>4</ele>
        <time>2019-04-27T11:41:42Z</time>
      </trkpt>
      <trkpt lat="51.286748026611" lon="4.535824281328">
        <ele>4</ele>
        <time>2019-04-27T11:41:49Z</time>
      </trkpt>
      <trkpt lat="51.286568067218" lon="4.535748844228">
        <ele>4.4</ele>
        <time>2019-04-27T11:41:56Z</time>
      </trkpt>
      <trkpt lat="51.286394813345" lon="4.535673993861">
        <ele>6.2</ele>
        <time>2019-04-27T11:42:03Z</time>
      </trkpt>
      <trkpt lat="51.286219547816" lon="4.535587492653">
        <ele>7.2</ele>
        <time>2019-04-27T11:42:10Z</time>
      </trkpt>
      <trkpt lat="51.286035565111" lon="4.535484479102">
        <ele>9.4</ele>
        <time>2019-04-27T11:42:18Z</time>
      </trkpt>
      <trkpt lat="51.285861640686" lon="4.535364953208">
        <ele>9.4</ele>
        <time>2019-04-27T11:42:26Z</time>
      </trkpt>
      <trkpt lat="51.285685201691" lon="4.535212654085">
        <ele>10.8</ele>
        <time>2019-04-27T11:42:34Z</time>
      </trkpt>
      <trkpt lat="51.285513037465" lon="4.535043339705">
        <ele>11.4</ele>
        <time>2019-04-27T11:42:42Z</time>
      </trkpt>
      <trkpt lat="51.285344225999" lon="4.534894058066">
        <ele>13.8</ele>
        <time>2019-04-27T11:42:50Z</time>
      </trkpt>
      <trkpt lat="51.285177510008" lon="4.534729353731">
        <ele>13.6</ele>
        <time>2019-04-27T11:42:58Z</time>
      </trkpt>
      <trkpt lat="51.285023366867" lon="4.534537827316">
        <ele>13.2</ele>
        <time>2019-04-27T11:43:06Z</time>
      </trkpt>
      <trkpt lat="51.284865451871" lon="4.534358287018">
        <ele>11.6</ele>
        <time>2019-04-27T11:43:14Z</time>
      </trkpt>
      <trkpt lat="51.284716505508" lon="4.53416198292">
        <ele>10.6</ele>
        <time>2019-04-27T11:43:22Z</time>
      </trkpt>
      <trkpt lat="51.284554986295" lon="4.53397171379">
        <ele>9.8</ele>
        <time>2019-04-27T11:43:30Z</time>
      </trkpt>
      <trkpt lat="51.284409476511" lon="4.533796783537">
        <ele>8.8</ele>
        <time>2019-04-27T11:43:38Z</time>
      </trkpt>
      <trkpt lat="51.284259440501" lon="4.533621685646">
        <ele>8.6</ele>
        <time>2019-04-27T11:43:46Z</time>
      </trkpt>
      <trkpt lat="51.284114768907" lon="4.533444157004">
        <ele>9.4</ele>
        <time>2019-04-27T11:43:54Z</time>
      </trkpt>
      <trkpt lat="51.283963894707" lon="4.533256234806">
        <ele>8.6</ele>
        <time>2019-04-27T11:44:02Z</time>
      </trkpt>
      <trkpt lat="51.283822156778" lon="4.533077951793">
        <ele>9.6</ele>
        <time>2019-04-27T11:44:09Z</time>
      </trkpt>
      <trkpt lat="51.283668265094" lon="4.532879133125">
        <ele>9.6</ele>
        <time>2019-04-27T11:44:17Z</time>
      </trkpt>
      <trkpt lat="51.283521162749" lon="4.53265659368">
        <ele>9.2</ele>
        <time>2019-04-27T11:44:25Z</time>
      </trkpt>
      <trkpt lat="51.283394931335" lon="4.532452494415">
        <ele>9.6</ele>
        <time>2019-04-27T11:44:32Z</time>
      </trkpt>
      <trkpt lat="51.28313215877" lon="4.532022586764">
        <ele>12.2</ele>
        <time>2019-04-27T11:44:48Z</time>
      </trkpt>
      <trkpt lat="51.283007687555" lon="4.53177733237">
        <ele>11.4</ele>
        <time>2019-04-27T11:44:57Z</time>
      </trkpt>
      <trkpt lat="51.282892268792" lon="4.531539537867">
        <ele>12.6</ele>
        <time>2019-04-27T11:45:06Z</time>
      </trkpt>
      <trkpt lat="51.282819849176" lon="4.531276430026">
        <ele>11.8</ele>
        <time>2019-04-27T11:45:15Z</time>
      </trkpt>
      <trkpt lat="51.282699988006" lon="4.531037797333">
        <ele>11</ele>
        <time>2019-04-27T11:45:23Z</time>
      </trkpt>
      <trkpt lat="51.282592448229" lon="4.530790698921">
        <ele>10.2</ele>
        <time>2019-04-27T11:45:31Z</time>
      </trkpt>
      <trkpt lat="51.282484489357" lon="4.53055860411">
        <ele>8.6</ele>
        <time>2019-04-27T11:45:38Z</time>
      </trkpt>
      <trkpt lat="51.282366975119" lon="4.530300860685">
        <ele>9</ele>
        <time>2019-04-27T11:45:46Z</time>
      </trkpt>
      <trkpt lat="51.28222272262" lon="4.530084942941">
        <ele>7.8</ele>
        <time>2019-04-27T11:45:54Z</time>
      </trkpt>
      <trkpt lat="51.282079811225" lon="4.529878245287">
        <ele>7.8</ele>
        <time>2019-04-27T11:46:02Z</time>
      </trkpt>
      <trkpt lat="51.281939917314" lon="4.529666183217">
        <ele>5</ele>
        <time>2019-04-27T11:46:11Z</time>
      </trkpt>
      <trkpt lat="51.281783594879" lon="4.529522014537">
        <ele>2.4</ele>
        <time>2019-04-27T11:46:18Z</time>
      </trkpt>
      <trkpt lat="51.281623249132" lon="4.529378013495">
        <ele>2.4</ele>
        <time>2019-04-27T11:46:25Z</time>
      </trkpt>
      <trkpt lat="51.281457538969" lon="4.529210207857">
        <ele>1.6</ele>
        <time>2019-04-27T11:46:34Z</time>
      </trkpt>
      <trkpt lat="51.281291661168" lon="4.52903309831">
        <ele>3.4</ele>
        <time>2019-04-27T11:46:43Z</time>
      </trkpt>
      <trkpt lat="51.281105834445" lon="4.528903681774">
        <ele>5.4</ele>
        <time>2019-04-27T11:46:51Z</time>
      </trkpt>
      <trkpt lat="51.280933334943" lon="4.528802679879">
        <ele>7</ele>
        <time>2019-04-27T11:46:58Z</time>
      </trkpt>
      <trkpt lat="51.280802996398" lon="4.528706455667">
        <ele>6.6</ele>
        <time>2019-04-27T11:47:04Z</time>
      </trkpt>
      <trkpt lat="51.280632257095" lon="4.528579805158">
        <ele>5.6</ele>
        <time>2019-04-27T11:47:12Z</time>
      </trkpt>
      <trkpt lat="51.280466295475" lon="4.528427254578">
        <ele>7.2</ele>
        <time>2019-04-27T11:47:20Z</time>
      </trkpt>
      <trkpt lat="51.280293963611" lon="4.52827621274">
        <ele>7.2</ele>
        <time>2019-04-27T11:47:28Z</time>
      </trkpt>
      <trkpt lat="51.280129510733" lon="4.528102875048">
        <ele>8</ele>
        <time>2019-04-27T11:47:36Z</time>
      </trkpt>
      <trkpt lat="51.27996296238" lon="4.527937164885">
        <ele>7.8</ele>
        <time>2019-04-27T11:47:44Z</time>
      </trkpt>
      <trkpt lat="51.279795156742" lon="4.527823087226">
        <ele>7</ele>
        <time>2019-04-27T11:47:51Z</time>
      </trkpt>
      <trkpt lat="51.279617125186" lon="4.527681516935">
        <ele>5</ele>
        <time>2019-04-27T11:47:59Z</time>
      </trkpt>
      <trkpt lat="51.279438087802" lon="4.527522009378">
        <ele>5.4</ele>
        <time>2019-04-27T11:48:07Z</time>
      </trkpt>
      <trkpt lat="51.279265755938" lon="4.527388485711">
        <ele>6</ele>
        <time>2019-04-27T11:48:15Z</time>
      </trkpt>
      <trkpt lat="51.279091747694" lon="4.527233252923">
        <ele>5</ele>
        <time>2019-04-27T11:48:24Z</time>
      </trkpt>
      <trkpt lat="51.278911704482" lon="4.527090676804">
        <ele>3.8</ele>
        <time>2019-04-27T11:48:33Z</time>
      </trkpt>
      <trkpt lat="51.278744988491" lon="4.52696276901">
        <ele>4.6</ele>
        <time>2019-04-27T11:48:41Z</time>
      </trkpt>
      <trkpt lat="51.278592773187" lon="4.526788257852">
        <ele>3.6</ele>
        <time>2019-04-27T11:48:49Z</time>
      </trkpt>
      <trkpt lat="51.278432008345" lon="4.526636964557">
        <ele>2.6</ele>
        <time>2019-04-27T11:48:57Z</time>
      </trkpt>
      <trkpt lat="51.278242325948" lon="4.526587678985">
        <ele>3</ele>
        <time>2019-04-27T11:49:06Z</time>
      </trkpt>
      <trkpt lat="51.278188178874" lon="4.52665934423">
        <ele>3</ele>
        <time>2019-04-27T11:49:10Z</time>
      </trkpt>
      <trkpt lat="51.278172001807" lon="4.526545937123">
        <ele>3.2</ele>
        <time>2019-04-27T11:49:15Z</time>
      </trkpt>
      <trkpt lat="51.278101510028" lon="4.526471924946">
        <ele>4</ele>
        <time>2019-04-27T11:49:19Z</time>
      </trkpt>
      <trkpt lat="51.277981062125" lon="4.526222479602">
        <ele>7.4</ele>
        <time>2019-04-27T11:49:28Z</time>
      </trkpt>
      <trkpt lat="51.277804706949" lon="4.526081076949">
        <ele>7.2</ele>
        <time>2019-04-27T11:49:36Z</time>
      </trkpt>
      <trkpt lat="51.277636314578" lon="4.525938836106">
        <ele>8</ele>
        <time>2019-04-27T11:49:44Z</time>
      </trkpt>
      <trkpt lat="51.27747269989" lon="4.525807659371">
        <ele>7.4</ele>
        <time>2019-04-27T11:49:52Z</time>
      </trkpt>
      <trkpt lat="51.277311935048" lon="4.52565100166">
        <ele>5.6</ele>
        <time>2019-04-27T11:50:01Z</time>
      </trkpt>
      <trkpt lat="51.277152176034" lon="4.52550934755">
        <ele>6</ele>
        <time>2019-04-27T11:50:09Z</time>
      </trkpt>
      <trkpt lat="51.276985124767" lon="4.525373896046">
        <ele>6.4</ele>
        <time>2019-04-27T11:50:17Z</time>
      </trkpt>
      <trkpt lat="51.276814553102" lon="4.525246407347">
        <ele>5.6</ele>
        <time>2019-04-27T11:50:25Z</time>
      </trkpt>
      <trkpt lat="51.27665127369" lon="4.525082038288">
        <ele>4.4</ele>
        <time>2019-04-27T11:50:33Z</time>
      </trkpt>
      <trkpt lat="51.276493023418" lon="4.524929487708">
        <ele>6.2</ele>
        <time>2019-04-27T11:50:41Z</time>
      </trkpt>
      <trkpt lat="51.276316584423" lon="4.524768136133">
        <ele>5.8</ele>
        <time>2019-04-27T11:50:49Z</time>
      </trkpt>
      <trkpt lat="51.276144587835" lon="4.524628661317">
        <ele>5.8</ele>
        <time>2019-04-27T11:50:57Z</time>
      </trkpt>
      <trkpt lat="51.275817526097" lon="4.52439204028">
        <ele>7</ele>
        <time>2019-04-27T11:51:12Z</time>
      </trkpt>
      <trkpt lat="51.275652570305" lon="4.524262539925">
        <ele>6.2</ele>
        <time>2019-04-27T11:51:20Z</time>
      </trkpt>
      <trkpt lat="51.2754853514" lon="4.524100853074">
        <ele>5.6</ele>
        <time>2019-04-27T11:51:28Z</time>
      </trkpt>
      <trkpt lat="51.275311091699" lon="4.523945704105">
        <ele>6</ele>
        <time>2019-04-27T11:51:36Z</time>
      </trkpt>
      <trkpt lat="51.27513079703" lon="4.523794075534">
        <ele>4.6</ele>
        <time>2019-04-27T11:51:44Z</time>
      </trkpt>
      <trkpt lat="51.274963410487" lon="4.523633645968">
        <ele>5.6</ele>
        <time>2019-04-27T11:51:52Z</time>
      </trkpt>
      <trkpt lat="51.274808177699" lon="4.523459470086">
        <ele>10</ele>
        <time>2019-04-27T11:52:01Z</time>
      </trkpt>
      <trkpt lat="51.274640791156" lon="4.523305494583">
        <ele>9.8</ele>
        <time>2019-04-27T11:52:09Z</time>
      </trkpt>
      <trkpt lat="51.274494946096" lon="4.523115393091">
        <ele>9.6</ele>
        <time>2019-04-27T11:52:17Z</time>
      </trkpt>
      <trkpt lat="51.274341892602" lon="4.522907270514">
        <ele>10.2</ele>
        <time>2019-04-27T11:52:26Z</time>
      </trkpt>
      <trkpt lat="51.274195293171" lon="4.522722030524">
        <ele>10.8</ele>
        <time>2019-04-27T11:52:34Z</time>
      </trkpt>
      <trkpt lat="51.274054477251" lon="4.522538299276">
        <ele>8.2</ele>
        <time>2019-04-27T11:52:42Z</time>
      </trkpt>
      <trkpt lat="51.27390787782" lon="4.522342498092">
        <ele>7.8</ele>
        <time>2019-04-27T11:52:49Z</time>
      </trkpt>
      <trkpt lat="51.27376454733" lon="4.522146696908">
        <ele>8.2</ele>
        <time>2019-04-27T11:52:57Z</time>
      </trkpt>
      <trkpt lat="51.27362205503" lon="4.521949638439">
        <ele>8.4</ele>
        <time>2019-04-27T11:53:05Z</time>
      </trkpt>
      <trkpt lat="51.27346447531" lon="4.521812007641">
        <ele>7.6</ele>
        <time>2019-04-27T11:53:12Z</time>
      </trkpt>
      <trkpt lat="51.273320390449" lon="4.521636155379">
        <ele>7.4</ele>
        <time>2019-04-27T11:53:19Z</time>
      </trkpt>
      <trkpt lat="51.273176808502" lon="4.521423255119">
        <ele>10.2</ele>
        <time>2019-04-27T11:53:27Z</time>
      </trkpt>
      <trkpt lat="51.27303616022" lon="4.521222089519">
        <ele>8.2</ele>
        <time>2019-04-27T11:53:35Z</time>
      </trkpt>
      <trkpt lat="51.272882687631" lon="4.521017068245">
        <ele>6.8</ele>
        <time>2019-04-27T11:53:43Z</time>
      </trkpt>
      <trkpt lat="51.272729969413" lon="4.520804167985">
        <ele>7.4</ele>
        <time>2019-04-27T11:53:52Z</time>
      </trkpt>
      <trkpt lat="51.272570629494" lon="4.520617335434">
        <ele>5.2</ele>
        <time>2019-04-27T11:54:00Z</time>
      </trkpt>
      <trkpt lat="51.27242176695" lon="4.520412900893">
        <ele>7.6</ele>
        <time>2019-04-27T11:54:08Z</time>
      </trkpt>
      <trkpt lat="51.272272150035" lon="4.520247274549">
        <ele>7</ele>
        <time>2019-04-27T11:54:16Z</time>
      </trkpt>
      <trkpt lat="51.272140721843" lon="4.520032865547">
        <ele>5.8</ele>
        <time>2019-04-27T11:54:24Z</time>
      </trkpt>
      <trkpt lat="51.27197920263" lon="4.51983228668">
        <ele>5.2</ele>
        <time>2019-04-27T11:54:32Z</time>
      </trkpt>
      <trkpt lat="51.271833609027" lon="4.519615363108">
        <ele>5.6</ele>
        <time>2019-04-27T11:54:41Z</time>
      </trkpt>
      <trkpt lat="51.271681226085" lon="4.519421992675">
        <ele>5.8</ele>
        <time>2019-04-27T11:54:49Z</time>
      </trkpt>
      <trkpt lat="51.27153999107" lon="4.519235579219">
        <ele>6</ele>
        <time>2019-04-27T11:54:57Z</time>
      </trkpt>
      <trkpt lat="51.271385009739" lon="4.519043046976">
        <ele>5.8</ele>
        <time>2019-04-27T11:55:05Z</time>
      </trkpt>
      <trkpt lat="51.271253497728" lon="4.518819250246">
        <ele>7.4</ele>
        <time>2019-04-27T11:55:13Z</time>
      </trkpt>
      <trkpt lat="51.271100695691" lon="4.518622191777">
        <ele>4.8</ele>
        <time>2019-04-27T11:55:21Z</time>
      </trkpt>
      <trkpt lat="51.270956275554" lon="4.518438963443">
        <ele>4</ele>
        <time>2019-04-27T11:55:29Z</time>
      </trkpt>
      <trkpt lat="51.270812609788" lon="4.518254394005">
        <ele>2.8</ele>
        <time>2019-04-27T11:55:37Z</time>
      </trkpt>
      <trkpt lat="51.270660478303" lon="4.518058341364">
        <ele>1.2</ele>
        <time>2019-04-27T11:55:45Z</time>
      </trkpt>
      <trkpt lat="51.270545562454" lon="4.51781224878">
        <ele>2.6</ele>
        <time>2019-04-27T11:55:55Z</time>
      </trkpt>
      <trkpt lat="51.270396113177" lon="4.517647292988">
        <ele>2.8</ele>
        <time>2019-04-27T11:56:02Z</time>
      </trkpt>
      <trkpt lat="51.270234342507" lon="4.517470015803">
        <ele>3.2</ele>
        <time>2019-04-27T11:56:10Z</time>
      </trkpt>
      <trkpt lat="51.270079947909" lon="4.517299025043">
        <ele>3.6</ele>
        <time>2019-04-27T11:56:18Z</time>
      </trkpt>
      <trkpt lat="51.269925553311" lon="4.517102050393">
        <ele>3</ele>
        <time>2019-04-27T11:56:26Z</time>
      </trkpt>
      <trkpt lat="51.269879117585" lon="4.517059302703">
        <ele>2.4</ele>
        <time>2019-04-27T11:56:28Z</time>
      </trkpt>
      <trkpt lat="51.269739642769" lon="4.516872553971">
        <ele>1.8</ele>
        <time>2019-04-27T11:56:36Z</time>
      </trkpt>
      <trkpt lat="51.269601425238" lon="4.516663341747">
        <ele>0.4</ele>
        <time>2019-04-27T11:56:44Z</time>
      </trkpt>
      <trkpt lat="51.269452395056" lon="4.516467037649">
        <ele>2</ele>
        <time>2019-04-27T11:56:52Z</time>
      </trkpt>
      <trkpt lat="51.269303867788" lon="4.516260088538">
        <ele>4.8</ele>
        <time>2019-04-27T11:57:00Z</time>
      </trkpt>
      <trkpt lat="51.269148718819" lon="4.516070657598">
        <ele>3</ele>
        <time>2019-04-27T11:57:08Z</time>
      </trkpt>
      <trkpt lat="51.268987115787" lon="4.515901846132">
        <ele>4.4</ele>
        <time>2019-04-27T11:57:16Z</time>
      </trkpt>
      <trkpt lat="51.268974962032" lon="4.515834707113">
        <ele>4.6</ele>
        <time>2019-04-27T11:57:19Z</time>
      </trkpt>
      <trkpt lat="51.268861303468" lon="4.515732783209">
        <ele>4.2</ele>
        <time>2019-04-27T11:57:24Z</time>
      </trkpt>
      <trkpt lat="51.268770443672" lon="4.515579813534">
        <ele>7.2</ele>
        <time>2019-04-27T11:57:30Z</time>
      </trkpt>
      <trkpt lat="51.268620659119" lon="4.515390382594">
        <ele>6.6</ele>
        <time>2019-04-27T11:57:38Z</time>
      </trkpt>
      <trkpt lat="51.268481771036" lon="4.515190306641">
        <ele>2</ele>
        <time>2019-04-27T11:57:46Z</time>
      </trkpt>
      <trkpt lat="51.268333411406" lon="4.514973215431">
        <ele>1</ele>
        <time>2019-04-27T11:57:54Z</time>
      </trkpt>
      <trkpt lat="51.268181279921" lon="4.51480649944">
        <ele>3.2</ele>
        <time>2019-04-27T11:58:02Z</time>
      </trkpt>
      <trkpt lat="51.268019341613" lon="4.514616649405">
        <ele>4.2</ele>
        <time>2019-04-27T11:58:10Z</time>
      </trkpt>
      <trkpt lat="51.267869976155" lon="4.514418249832">
        <ele>4.4</ele>
        <time>2019-04-27T11:58:18Z</time>
      </trkpt>
      <trkpt lat="51.267728405864" lon="4.514173246895">
        <ele>6.6</ele>
        <time>2019-04-27T11:58:27Z</time>
      </trkpt>
      <trkpt lat="51.267574430361" lon="4.513996221167">
        <ele>9.4</ele>
        <time>2019-04-27T11:58:35Z</time>
      </trkpt>
      <trkpt lat="51.267415174261" lon="4.513805030028">
        <ele>9</ele>
        <time>2019-04-27T11:58:43Z</time>
      </trkpt>
      <trkpt lat="51.267262539862" lon="4.513606127541">
        <ele>6.2</ele>
        <time>2019-04-27T11:58:51Z</time>
      </trkpt>
      <trkpt lat="51.267185761658" lon="4.513524487835">
        <ele>4.6</ele>
        <time>2019-04-27T11:58:55Z</time>
      </trkpt>
      <trkpt lat="51.267012423966" lon="4.513436310247">
        <ele>3.2</ele>
        <time>2019-04-27T11:59:03Z</time>
      </trkpt>
      <trkpt lat="51.266845121242" lon="4.513285771323">
        <ele>3.8</ele>
        <time>2019-04-27T11:59:11Z</time>
      </trkpt>
      <trkpt lat="51.266697180707" lon="4.513087707026">
        <ele>4.6</ele>
        <time>2019-04-27T11:59:19Z</time>
      </trkpt>
      <trkpt lat="51.266549743086" lon="4.512874722947">
        <ele>5.4</ele>
        <time>2019-04-27T11:59:27Z</time>
      </trkpt>
      <trkpt lat="51.266427618803" lon="4.512639862109">
        <ele>5.2</ele>
        <time>2019-04-27T11:59:35Z</time>
      </trkpt>
      <trkpt lat="51.266329718211" lon="4.512391841688">
        <ele>4.8</ele>
        <time>2019-04-27T11:59:43Z</time>
      </trkpt>
      <trkpt lat="51.266181190943" lon="4.512176929772">
        <ele>4.4</ele>
        <time>2019-04-27T11:59:51Z</time>
      </trkpt>
      <trkpt lat="51.266035848797" lon="4.512029827427">
        <ele>2.8</ele>
        <time>2019-04-27T11:59:59Z</time>
      </trkpt>
      <trkpt lat="51.265841053441" lon="4.511965705892">
        <ele>1.6</ele>
        <time>2019-04-27T12:00:08Z</time>
      </trkpt>
      <trkpt lat="51.265685485377" lon="4.511807287982">
        <ele>3</ele>
        <time>2019-04-27T12:00:16Z</time>
      </trkpt>
      <trkpt lat="51.265514075522" lon="4.511742244438">
        <ele>4.8</ele>
        <time>2019-04-27T12:00:25Z</time>
      </trkpt>
      <trkpt lat="51.26545305529" lon="4.511648367158">
        <ele>18.6</ele>
        <time>2019-04-27T12:01:28Z</time>
      </trkpt>
      <trkpt lat="51.265485828519" lon="4.511654653583">
        <ele>15.6</ele>
        <time>2019-04-27T12:01:31Z</time>
      </trkpt>
      <trkpt lat="51.26549161203" lon="4.511650630271">
        <ele>16.6</ele>
        <time>2019-04-27T12:01:32Z</time>
      </trkpt>
      <trkpt lat="51.265539472679" lon="4.511598913948">
        <ele>22.2</ele>
        <time>2019-04-27T12:01:35Z</time>
      </trkpt>
      <trkpt lat="51.265564702198" lon="4.511658928352">
        <ele>21.6</ele>
        <time>2019-04-27T12:01:39Z</time>
      </trkpt>
      <trkpt lat="51.265480799379" lon="4.511713494521">
        <ele>18.2</ele>
        <time>2019-04-27T12:01:43Z</time>
      </trkpt>
      <trkpt lat="51.265467639796" lon="4.511640739629">
        <ele>19.2</ele>
        <time>2019-04-27T12:01:50Z</time>
      </trkpt>
      <trkpt lat="51.265586578957" lon="4.511455918734">
        <ele>18.8</ele>
        <time>2019-04-27T12:02:02Z</time>
      </trkpt>
      <trkpt lat="51.265452300919" lon="4.511261626292">
        <ele>15.2</ele>
        <time>2019-04-27T12:02:11Z</time>
      </trkpt>
      <trkpt lat="51.265284327643" lon="4.511124917503">
        <ele>13.6</ele>
        <time>2019-04-27T12:02:20Z</time>
      </trkpt>
      <trkpt lat="51.265121048231" lon="4.510992148207">
        <ele>14.6</ele>
        <time>2019-04-27T12:02:28Z</time>
      </trkpt>
      <trkpt lat="51.265002444346" lon="4.510764495803">
        <ele>13.4</ele>
        <time>2019-04-27T12:02:35Z</time>
      </trkpt>
      <trkpt lat="51.264898005872" lon="4.510520582513">
        <ele>9.2</ele>
        <time>2019-04-27T12:02:42Z</time>
      </trkpt>
      <trkpt lat="51.264779485806" lon="4.510288906797">
        <ele>8.4</ele>
        <time>2019-04-27T12:02:50Z</time>
      </trkpt>
      <trkpt lat="51.264664989052" lon="4.510037701254">
        <ele>6</ele>
        <time>2019-04-27T12:02:58Z</time>
      </trkpt>
      <trkpt lat="51.264541356027" lon="4.50980418152">
        <ele>5.8</ele>
        <time>2019-04-27T12:03:06Z</time>
      </trkpt>
      <trkpt lat="51.264417387726" lon="4.509552305425">
        <ele>5</ele>
        <time>2019-04-27T12:03:16Z</time>
      </trkpt>
      <trkpt lat="51.264292748873" lon="4.509322976641">
        <ele>4.2</ele>
        <time>2019-04-27T12:03:24Z</time>
      </trkpt>
      <trkpt lat="51.264161488319" lon="4.509087109975">
        <ele>3</ele>
        <time>2019-04-27T12:03:32Z</time>
      </trkpt>
      <trkpt lat="51.264022097322" lon="4.508864821987">
        <ele>3.2</ele>
        <time>2019-04-27T12:03:40Z</time>
      </trkpt>
      <trkpt lat="51.263891758777" lon="4.508745799007">
        <ele>2.4</ele>
        <time>2019-04-27T12:03:47Z</time>
      </trkpt>
      <trkpt lat="51.263704088036" lon="4.508847303816">
        <ele>1.8</ele>
        <time>2019-04-27T12:03:56Z</time>
      </trkpt>
      <trkpt lat="51.263522368444" lon="4.508910335704">
        <ele>1.8</ele>
        <time>2019-04-27T12:04:04Z</time>
      </trkpt>
      <trkpt lat="51.263334530065" lon="4.508970014832">
        <ele>2.2</ele>
        <time>2019-04-27T12:04:12Z</time>
      </trkpt>
      <trkpt lat="51.263154319215" lon="4.509004883536">
        <ele>3</ele>
        <time>2019-04-27T12:04:21Z</time>
      </trkpt>
      <trkpt lat="51.26299548221" lon="4.50892911116">
        <ele>6.4</ele>
        <time>2019-04-27T12:04:30Z</time>
      </trkpt>
      <trkpt lat="51.262887020424" lon="4.5091604516">
        <ele>10.2</ele>
        <time>2019-04-27T12:04:39Z</time>
      </trkpt>
      <trkpt lat="51.262806805641" lon="4.509269332481">
        <ele>7.8</ele>
        <time>2019-04-27T12:04:44Z</time>
      </trkpt>
      <trkpt lat="51.262726926134" lon="4.509154165175">
        <ele>5.4</ele>
        <time>2019-04-27T12:04:51Z</time>
      </trkpt>
      <trkpt lat="51.262821893061" lon="4.508893739542">
        <ele>0.4</ele>
        <time>2019-04-27T12:05:00Z</time>
      </trkpt>
      <trkpt lat="51.26281778593" lon="4.50882769017">
        <ele>1.4</ele>
        <time>2019-04-27T12:05:02Z</time>
      </trkpt>
      <trkpt lat="51.262624331678" lon="4.508617975032">
        <ele>0.8</ele>
        <time>2019-04-27T12:05:14Z</time>
      </trkpt>
      <trkpt lat="51.262561802704" lon="4.508554021135">
        <ele>0.2</ele>
        <time>2019-04-27T12:05:18Z</time>
      </trkpt>
      <trkpt lat="51.262392739781" lon="4.508447068091">
        <ele>0</ele>
        <time>2019-04-27T12:05:27Z</time>
      </trkpt>
      <trkpt lat="51.262209930542" lon="4.508346988205">
        <ele>0.6</ele>
        <time>2019-04-27T12:05:35Z</time>
      </trkpt>
      <trkpt lat="51.262027288941" lon="4.508273478942">
        <ele>0</ele>
        <time>2019-04-27T12:05:42Z</time>
      </trkpt>
      <trkpt lat="51.261863590434" lon="4.508129058805">
        <ele>0</ele>
        <time>2019-04-27T12:05:51Z</time>
      </trkpt>
      <trkpt lat="51.261693521683" lon="4.508019339734">
        <ele>0</ele>
        <time>2019-04-27T12:05:58Z</time>
      </trkpt>
      <trkpt lat="51.261514316661" lon="4.507908950111">
        <ele>0</ele>
        <time>2019-04-27T12:06:05Z</time>
      </trkpt>
      <trkpt lat="51.261341146607" lon="4.507770564942">
        <ele>0</ele>
        <time>2019-04-27T12:06:13Z</time>
      </trkpt>
      <trkpt lat="51.261175268806" lon="4.507631509221">
        <ele>0</ele>
        <time>2019-04-27T12:06:22Z</time>
      </trkpt>
      <trkpt lat="51.261003775132" lon="4.507524053263">
        <ele>2.4</ele>
        <time>2019-04-27T12:06:32Z</time>
      </trkpt>
      <trkpt lat="51.260822306997" lon="4.507437468236">
        <ele>5.2</ele>
        <time>2019-04-27T12:06:40Z</time>
      </trkpt>
      <trkpt lat="51.260650980961" lon="4.507311572098">
        <ele>3.6</ele>
        <time>2019-04-27T12:06:48Z</time>
      </trkpt>
      <trkpt lat="51.260477894726" lon="4.507189615453">
        <ele>5.2</ele>
        <time>2019-04-27T12:06:55Z</time>
      </trkpt>
      <trkpt lat="51.260289218157" lon="4.507074280509">
        <ele>6.4</ele>
        <time>2019-04-27T12:07:02Z</time>
      </trkpt>
      <trkpt lat="51.260103894348" lon="4.507052571388">
        <ele>3.4</ele>
        <time>2019-04-27T12:07:09Z</time>
      </trkpt>
      <trkpt lat="51.259917480892" lon="4.506993981907">
        <ele>3.2</ele>
        <time>2019-04-27T12:07:15Z</time>
      </trkpt>
      <trkpt lat="51.259763589208" lon="4.50688308937">
        <ele>3</ele>
        <time>2019-04-27T12:07:23Z</time>
      </trkpt>
      <trkpt lat="51.259770881461" lon="4.506854758548">
        <ele>3.2</ele>
        <time>2019-04-27T12:07:25Z</time>
      </trkpt>
      <trkpt lat="51.259748585607" lon="4.506892896193">
        <ele>4</ele>
        <time>2019-04-27T12:07:28Z</time>
      </trkpt>
      <trkpt lat="51.25956393235" lon="4.506802455492">
        <ele>4.4</ele>
        <time>2019-04-27T12:07:36Z</time>
      </trkpt>
      <trkpt lat="51.259374752867" lon="4.506709667859">
        <ele>5.8</ele>
        <time>2019-04-27T12:07:45Z</time>
      </trkpt>
      <trkpt lat="51.259196218397" lon="4.506592907992">
        <ele>7.6</ele>
        <time>2019-04-27T12:07:53Z</time>
      </trkpt>
      <trkpt lat="51.259017767746" lon="4.506500707092">
        <ele>5.2</ele>
        <time>2019-04-27T12:08:00Z</time>
      </trkpt>
      <trkpt lat="51.258850129746" lon="4.506394173143">
        <ele>3.8</ele>
        <time>2019-04-27T12:08:07Z</time>
      </trkpt>
      <trkpt lat="51.258656507856" lon="4.5063106056">
        <ele>4.8</ele>
        <time>2019-04-27T12:08:15Z</time>
      </trkpt>
      <trkpt lat="51.258486606743" lon="4.506174986458">
        <ele>5.6</ele>
        <time>2019-04-27T12:08:23Z</time>
      </trkpt>
      <trkpt lat="51.258307653178" lon="4.506051185795">
        <ele>5.2</ele>
        <time>2019-04-27T12:08:31Z</time>
      </trkpt>
      <trkpt lat="51.258141104825" lon="4.505939455068">
        <ele>5.8</ele>
        <time>2019-04-27T12:08:39Z</time>
      </trkpt>
      <trkpt lat="51.257962318898" lon="4.505801321356">
        <ele>4.8</ele>
        <time>2019-04-27T12:08:47Z</time>
      </trkpt>
      <trkpt lat="51.257792585423" lon="4.505686489326">
        <ele>8.2</ele>
        <time>2019-04-27T12:08:55Z</time>
      </trkpt>
      <trkpt lat="51.257620924111" lon="4.505574758599">
        <ele>5</ele>
        <time>2019-04-27T12:09:03Z</time>
      </trkpt>
      <trkpt lat="51.257453872844" lon="4.505444420054">
        <ele>3.2</ele>
        <time>2019-04-27T12:09:11Z</time>
      </trkpt>
      <trkpt lat="51.257272237071" lon="4.505315338794">
        <ele>8.2</ele>
        <time>2019-04-27T12:09:20Z</time>
      </trkpt>
      <trkpt lat="51.257104347614" lon="4.505178965281">
        <ele>9.8</ele>
        <time>2019-04-27T12:09:28Z</time>
      </trkpt>
      <trkpt lat="51.256921370737" lon="4.505051895677">
        <ele>7.8</ele>
        <time>2019-04-27T12:09:35Z</time>
      </trkpt>
      <trkpt lat="51.256750631434" lon="4.504931196317">
        <ele>8.8</ele>
        <time>2019-04-27T12:09:42Z</time>
      </trkpt>
      <trkpt lat="51.256567570738" lon="4.504819381771">
        <ele>9.4</ele>
        <time>2019-04-27T12:09:50Z</time>
      </trkpt>
      <trkpt lat="51.256401190023" lon="4.504705220293">
        <ele>9.6</ele>
        <time>2019-04-27T12:09:59Z</time>
      </trkpt>
      <trkpt lat="51.25623128891" lon="4.504550909514">
        <ele>13.4</ele>
        <time>2019-04-27T12:10:10Z</time>
      </trkpt>
      <trkpt lat="51.256057029209" lon="4.504403304255">
        <ele>15.6</ele>
        <time>2019-04-27T12:10:17Z</time>
      </trkpt>
      <trkpt lat="51.255903724258" lon="4.504230385658">
        <ele>20.6</ele>
        <time>2019-04-27T12:10:28Z</time>
      </trkpt>
      <trkpt lat="51.255756454275" lon="4.504047827876">
        <ele>18.8</ele>
        <time>2019-04-27T12:10:39Z</time>
      </trkpt>
      <trkpt lat="51.255554701942" lon="4.503995021906">
        <ele>13.4</ele>
        <time>2019-04-27T12:10:46Z</time>
      </trkpt>
      <trkpt lat="51.25535370398" lon="4.503847249009">
        <ele>15</ele>
        <time>2019-04-27T12:10:53Z</time>
      </trkpt>
      <trkpt lat="51.255190089292" lon="4.503712468057">
        <ele>16.8</ele>
        <time>2019-04-27T12:11:01Z</time>
      </trkpt>
      <trkpt lat="51.255032761029" lon="4.50353452032">
        <ele>17.8</ele>
        <time>2019-04-27T12:11:12Z</time>
      </trkpt>
      <trkpt lat="51.254823381167" lon="4.503439301936">
        <ele>16.8</ele>
        <time>2019-04-27T12:11:18Z</time>
      </trkpt>
      <trkpt lat="51.254762360935" lon="4.503413066589">
        <ele>18.6</ele>
        <time>2019-04-27T12:11:20Z</time>
      </trkpt>
      <trkpt lat="51.254334213483" lon="4.503474673554">
        <ele>11.2</ele>
        <time>2019-04-27T12:11:33Z</time>
      </trkpt>
      <trkpt lat="51.254147213294" lon="4.503546674075">
        <ele>5.8</ele>
        <time>2019-04-27T12:11:40Z</time>
      </trkpt>
      <trkpt lat="51.254000446225" lon="4.503515912502">
        <ele>2.4</ele>
        <time>2019-04-27T12:11:46Z</time>
      </trkpt>
      <trkpt lat="51.253800873186" lon="4.503534017406">
        <ele>0.2</ele>
        <time>2019-04-27T12:11:54Z</time>
      </trkpt>
      <trkpt lat="51.253620075603" lon="4.503569640481">
        <ele>0</ele>
        <time>2019-04-27T12:12:01Z</time>
      </trkpt>
      <trkpt lat="51.253428297731" lon="4.503563102599">
        <ele>0.8</ele>
        <time>2019-04-27T12:12:08Z</time>
      </trkpt>
      <trkpt lat="51.253239537343" lon="4.503508201154">
        <ele>2</ele>
        <time>2019-04-27T12:12:15Z</time>
      </trkpt>
      <trkpt lat="51.253053207706" lon="4.503417341358">
        <ele>4.2</ele>
        <time>2019-04-27T12:12:23Z</time>
      </trkpt>
      <trkpt lat="51.252877606901" lon="4.503316758558">
        <ele>3.8</ele>
        <time>2019-04-27T12:12:30Z</time>
      </trkpt>
      <trkpt lat="51.252676944215" lon="4.503243165476">
        <ele>4.4</ele>
        <time>2019-04-27T12:12:38Z</time>
      </trkpt>
      <trkpt lat="51.252498409745" lon="4.503153311508">
        <ele>5.2</ele>
        <time>2019-04-27T12:12:47Z</time>
      </trkpt>
      <trkpt lat="51.252309230262" lon="4.50314895292">
        <ele>7.6</ele>
        <time>2019-04-27T12:12:54Z</time>
      </trkpt>
      <trkpt lat="51.252106136825" lon="4.503103523022">
        <ele>7.4</ele>
        <time>2019-04-27T12:13:02Z</time>
      </trkpt>
      <trkpt lat="51.251912766392" lon="4.503033366519">
        <ele>7</ele>
        <time>2019-04-27T12:13:10Z</time>
      </trkpt>
      <trkpt lat="51.251721407615" lon="4.502924653276">
        <ele>7.6</ele>
        <time>2019-04-27T12:13:18Z</time>
      </trkpt>
      <trkpt lat="51.251534994159" lon="4.50281954425">
        <ele>6</ele>
        <time>2019-04-27T12:13:26Z</time>
      </trkpt>
      <trkpt lat="51.25134380302" lon="4.502775455456">
        <ele>3.8</ele>
        <time>2019-04-27T12:13:35Z</time>
      </trkpt>
      <trkpt lat="51.251169627138" lon="4.502691971732">
        <ele>2.2</ele>
        <time>2019-04-27T12:13:43Z</time>
      </trkpt>
      <trkpt lat="51.25098421951" lon="4.502625251808">
        <ele>1.2</ele>
        <time>2019-04-27T12:13:52Z</time>
      </trkpt>
      <trkpt lat="51.250803757203" lon="4.502571523829">
        <ele>1</ele>
        <time>2019-04-27T12:14:01Z</time>
      </trkpt>
      <trkpt lat="51.250624216905" lon="4.502476137807">
        <ele>1</ele>
        <time>2019-04-27T12:14:11Z</time>
      </trkpt>
      <trkpt lat="51.250482227519" lon="4.502503714258">
        <ele>0</ele>
        <time>2019-04-27T12:14:18Z</time>
      </trkpt>
      <trkpt lat="51.25037653176" lon="4.502775623094">
        <ele>5</ele>
        <time>2019-04-27T12:14:27Z</time>
      </trkpt>
      <trkpt lat="51.25033210769" lon="4.502896406273">
        <ele>6.4</ele>
        <time>2019-04-27T12:14:31Z</time>
      </trkpt>
      <trkpt lat="51.250287767439" lon="4.50291845067">
        <ele>6.2</ele>
        <time>2019-04-27T12:14:33Z</time>
      </trkpt>
      <trkpt lat="51.250114262109" lon="4.502820550078">
        <ele>4.2</ele>
        <time>2019-04-27T12:14:40Z</time>
      </trkpt>
      <trkpt lat="51.249925334083" lon="4.502734551784">
        <ele>2.6</ele>
        <time>2019-04-27T12:14:48Z</time>
      </trkpt>
      <trkpt lat="51.249733220935" lon="4.502687613144">
        <ele>3.6</ele>
        <time>2019-04-27T12:14:56Z</time>
      </trkpt>
      <trkpt lat="51.249606821883" lon="4.502650146051">
        <ele>3</ele>
        <time>2019-04-27T12:15:02Z</time>
      </trkpt>
      <trkpt lat="51.249570695894" lon="4.502671352258">
        <ele>2.8</ele>
        <time>2019-04-27T12:15:04Z</time>
      </trkpt>
      <trkpt lat="51.249392161424" lon="4.502611924587">
        <ele>2</ele>
        <time>2019-04-27T12:15:13Z</time>
      </trkpt>
      <trkpt lat="51.249203484855" lon="4.502647799119">
        <ele>2</ele>
        <time>2019-04-27T12:15:21Z</time>
      </trkpt>
      <trkpt lat="51.24914355427" lon="4.502928173674">
        <ele>6.4</ele>
        <time>2019-04-27T12:15:30Z</time>
      </trkpt>
      <trkpt lat="51.249167275047" lon="4.503240650906">
        <ele>7.6</ele>
        <time>2019-04-27T12:15:38Z</time>
      </trkpt>
      <trkpt lat="51.249037774692" lon="4.503416586987">
        <ele>7</ele>
        <time>2019-04-27T12:15:47Z</time>
      </trkpt>
      <trkpt lat="51.248862928258" lon="4.503495795942">
        <ele>2.2</ele>
        <time>2019-04-27T12:15:55Z</time>
      </trkpt>
      <trkpt lat="51.24867416787" lon="4.503508704068">
        <ele>0</ele>
        <time>2019-04-27T12:16:02Z</time>
      </trkpt>
      <trkpt lat="51.248481551808" lon="4.50350602186">
        <ele>0</ele>
        <time>2019-04-27T12:16:10Z</time>
      </trkpt>
      <trkpt lat="51.248284744796" lon="4.50352194747">
        <ele>0</ele>
        <time>2019-04-27T12:16:18Z</time>
      </trkpt>
      <trkpt lat="51.248081483721" lon="4.503541896392">
        <ele>0</ele>
        <time>2019-04-27T12:16:26Z</time>
      </trkpt>
      <trkpt lat="51.247888280926" lon="4.503579447304">
        <ele>0</ele>
        <time>2019-04-27T12:16:35Z</time>
      </trkpt>
      <trkpt lat="51.247689043163" lon="4.503593361258">
        <ele>0</ele>
        <time>2019-04-27T12:16:44Z</time>
      </trkpt>
      <trkpt lat="51.247490056857" lon="4.503601324063">
        <ele>0</ele>
        <time>2019-04-27T12:16:53Z</time>
      </trkpt>
      <trkpt lat="51.24729031618" lon="4.503554553061">
        <ele>1.8</ele>
        <time>2019-04-27T12:17:01Z</time>
      </trkpt>
      <trkpt lat="51.247084708173" lon="4.503558157278">
        <ele>4</ele>
        <time>2019-04-27T12:17:09Z</time>
      </trkpt>
      <trkpt lat="51.246901898934" lon="4.503555055975">
        <ele>1</ele>
        <time>2019-04-27T12:17:17Z</time>
      </trkpt>
      <trkpt lat="51.246707941768" lon="4.503575256354">
        <ele>0</ele>
        <time>2019-04-27T12:17:25Z</time>
      </trkpt>
      <trkpt lat="51.246492443119" lon="4.503444917809">
        <ele>0</ele>
        <time>2019-04-27T12:17:31Z</time>
      </trkpt>
      <trkpt lat="51.246316423219" lon="4.503324637544">
        <ele>4.8</ele>
        <time>2019-04-27T12:17:38Z</time>
      </trkpt>
      <trkpt lat="51.2461989928" lon="4.503040742591">
        <ele>12</ele>
        <time>2019-04-27T12:17:48Z</time>
      </trkpt>
      <trkpt lat="51.246070582092" lon="4.502815018024">
        <ele>14</ele>
        <time>2019-04-27T12:17:56Z</time>
      </trkpt>
      <trkpt lat="51.245919707892" lon="4.502614020062">
        <ele>15</ele>
        <time>2019-04-27T12:18:04Z</time>
      </trkpt>
      <trkpt lat="51.245765061837" lon="4.50245828436">
        <ele>15.4</ele>
        <time>2019-04-27T12:18:11Z</time>
      </trkpt>
      <trkpt lat="51.245627179582" lon="4.502211940319">
        <ele>19</ele>
        <time>2019-04-27T12:18:20Z</time>
      </trkpt>
      <trkpt lat="51.245469432224" lon="4.502004069199">
        <ele>18.6</ele>
        <time>2019-04-27T12:18:28Z</time>
      </trkpt>
      <trkpt lat="51.245355019289" lon="4.501721766807">
        <ele>14.6</ele>
        <time>2019-04-27T12:18:36Z</time>
      </trkpt>
      <trkpt lat="51.245248820616" lon="4.501466118857">
        <ele>15.2</ele>
        <time>2019-04-27T12:18:44Z</time>
      </trkpt>
      <trkpt lat="51.245103897565" lon="4.501272161691">
        <ele>16.8</ele>
        <time>2019-04-27T12:18:52Z</time>
      </trkpt>
      <trkpt lat="51.244920920688" lon="4.501206363776">
        <ele>14.2</ele>
        <time>2019-04-27T12:19:02Z</time>
      </trkpt>
      <trkpt lat="51.244825283209" lon="4.501075857593">
        <ele>12.2</ele>
        <time>2019-04-27T12:19:09Z</time>
      </trkpt>
      <trkpt lat="51.244778176931" lon="4.501042246174">
        <ele>14</ele>
        <time>2019-04-27T12:19:12Z</time>
      </trkpt>
      <trkpt lat="51.244603833411" lon="4.501159425136">
        <ele>11.8</ele>
        <time>2019-04-27T12:19:19Z</time>
      </trkpt>
      <trkpt lat="51.244403757458" lon="4.501183481189">
        <ele>10.4</ele>
        <time>2019-04-27T12:19:25Z</time>
      </trkpt>
      <trkpt lat="51.24430552159" lon="4.501174931651">
        <ele>10.6</ele>
        <time>2019-04-27T12:19:27Z</time>
      </trkpt>
      <trkpt lat="51.244263276814" lon="4.50114232606">
        <ele>10.4</ele>
        <time>2019-04-27T12:19:29Z</time>
      </trkpt>
      <trkpt lat="51.244208543007" lon="4.50099229005">
        <ele>7.8</ele>
        <time>2019-04-27T12:19:34Z</time>
      </trkpt>
      <trkpt lat="51.24421332069" lon="4.500714094789">
        <ele>5.8</ele>
        <time>2019-04-27T12:19:43Z</time>
      </trkpt>
      <trkpt lat="51.244142325997" lon="4.500421817936">
        <ele>7.2</ele>
        <time>2019-04-27T12:19:52Z</time>
      </trkpt>
      <trkpt lat="51.244067894725" lon="4.50015577643">
        <ele>10.4</ele>
        <time>2019-04-27T12:20:00Z</time>
      </trkpt>
      <trkpt lat="51.243997738222" lon="4.499864253948">
        <ele>13.2</ele>
        <time>2019-04-27T12:20:09Z</time>
      </trkpt>
      <trkpt lat="51.243907548978" lon="4.499608522179">
        <ele>15</ele>
        <time>2019-04-27T12:20:16Z</time>
      </trkpt>
      <trkpt lat="51.243781485202" lon="4.499379025757">
        <ele>16.6</ele>
        <time>2019-04-27T12:20:24Z</time>
      </trkpt>
      <trkpt lat="51.243701102781" lon="4.499110134405">
        <ele>14.8</ele>
        <time>2019-04-27T12:20:32Z</time>
      </trkpt>
      <trkpt lat="51.243606135854" lon="4.498851804247">
        <ele>11.8</ele>
        <time>2019-04-27T12:20:39Z</time>
      </trkpt>
      <trkpt lat="51.243466996314" lon="4.498618619789">
        <ele>11.2</ele>
        <time>2019-04-27T12:20:46Z</time>
      </trkpt>
      <trkpt lat="51.243364737134" lon="4.498357942699">
        <ele>12.8</ele>
        <time>2019-04-27T12:20:55Z</time>
      </trkpt>
      <trkpt lat="51.243263316144" lon="4.498092823202">
        <ele>11.6</ele>
        <time>2019-04-27T12:21:04Z</time>
      </trkpt>
      <trkpt lat="51.243121662034" lon="4.497872379232">
        <ele>5.4</ele>
        <time>2019-04-27T12:21:11Z</time>
      </trkpt>
      <trkpt lat="51.243006075633" lon="4.497633411263">
        <ele>0</ele>
        <time>2019-04-27T12:21:18Z</time>
      </trkpt>
      <trkpt lat="51.242883448436" lon="4.497383630643">
        <ele>0</ele>
        <time>2019-04-27T12:21:25Z</time>
      </trkpt>
      <trkpt lat="51.242768951682" lon="4.497118594965">
        <ele>0</ele>
        <time>2019-04-27T12:21:33Z</time>
      </trkpt>
      <trkpt lat="51.242686641424" lon="4.496847272862">
        <ele>4.4</ele>
        <time>2019-04-27T12:21:41Z</time>
      </trkpt>
      <trkpt lat="51.242554123585" lon="4.496619536639">
        <ele>5</ele>
        <time>2019-04-27T12:21:49Z</time>
      </trkpt>
      <trkpt lat="51.242503664547" lon="4.496338323894">
        <ele>4.4</ele>
        <time>2019-04-27T12:21:57Z</time>
      </trkpt>
      <trkpt lat="51.242426886343" lon="4.496059709538">
        <ele>5.4</ele>
        <time>2019-04-27T12:22:05Z</time>
      </trkpt>
      <trkpt lat="51.242325968267" lon="4.495811353841">
        <ele>4.2</ele>
        <time>2019-04-27T12:22:13Z</time>
      </trkpt>
      <trkpt lat="51.242301576938" lon="4.495484711198">
        <ele>8.2</ele>
        <time>2019-04-27T12:22:21Z</time>
      </trkpt>
      <trkpt lat="51.242240891982" lon="4.495188913947">
        <ele>6.4</ele>
        <time>2019-04-27T12:22:29Z</time>
      </trkpt>
      <trkpt lat="51.242162185941" lon="4.494911975971">
        <ele>5.2</ele>
        <time>2019-04-27T12:22:37Z</time>
      </trkpt>
      <trkpt lat="51.242145003046" lon="4.494607126268">
        <ele>6.2</ele>
        <time>2019-04-27T12:22:44Z</time>
      </trkpt>
      <trkpt lat="51.242074511267" lon="4.49431778308">
        <ele>5</ele>
        <time>2019-04-27T12:22:52Z</time>
      </trkpt>
      <trkpt lat="51.241990692267" lon="4.49404956228">
        <ele>2.6</ele>
        <time>2019-04-27T12:23:00Z</time>
      </trkpt>
      <trkpt lat="51.241930007311" lon="4.49377715053">
        <ele>0</ele>
        <time>2019-04-27T12:23:08Z</time>
      </trkpt>
      <trkpt lat="51.241934449718" lon="4.493460817624">
        <ele>0.2</ele>
        <time>2019-04-27T12:23:15Z</time>
      </trkpt>
      <trkpt lat="51.24195607502" lon="4.493169546599">
        <ele>2.8</ele>
        <time>2019-04-27T12:23:23Z</time>
      </trkpt>
      <trkpt lat="51.241980047254" lon="4.492882131248">
        <ele>5.6</ele>
        <time>2019-04-27T12:23:31Z</time>
      </trkpt>
      <trkpt lat="51.241963786368" lon="4.492588680929">
        <ele>8</ele>
        <time>2019-04-27T12:23:39Z</time>
      </trkpt>
      <trkpt lat="51.241918105013" lon="4.492298499551">
        <ele>7</ele>
        <time>2019-04-27T12:23:47Z</time>
      </trkpt>
      <trkpt lat="51.241773517238" lon="4.492012676761">
        <ele>6.2</ele>
        <time>2019-04-27T12:23:57Z</time>
      </trkpt>
      <trkpt lat="51.241646866729" lon="4.491764572521">
        <ele>4.2</ele>
        <time>2019-04-27T12:24:06Z</time>
      </trkpt>
      <trkpt lat="51.241496998357" lon="4.491555779392">
        <ele>1</ele>
        <time>2019-04-27T12:24:15Z</time>
      </trkpt>
      <trkpt lat="51.241337742257" lon="4.491413035635">
        <ele>0.4</ele>
        <time>2019-04-27T12:24:23Z</time>
      </trkpt>
      <trkpt lat="51.241176893596" lon="4.491277332674">
        <ele>2</ele>
        <time>2019-04-27T12:24:31Z</time>
      </trkpt>
      <trkpt lat="51.240993916719" lon="4.491159399341">
        <ele>2.6</ele>
        <time>2019-04-27T12:24:40Z</time>
      </trkpt>
      <trkpt lat="51.240807670901" lon="4.491077424359">
        <ele>2.8</ele>
        <time>2019-04-27T12:24:48Z</time>
      </trkpt>
      <trkpt lat="51.240608433138" lon="4.491017745231">
        <ele>3.6</ele>
        <time>2019-04-27T12:24:56Z</time>
      </trkpt>
      <trkpt lat="51.240431575048" lon="4.490960748311">
        <ele>4.4</ele>
        <time>2019-04-27T12:25:04Z</time>
      </trkpt>
      <trkpt lat="51.240256141881" lon="4.490890591808">
        <ele>4.2</ele>
        <time>2019-04-27T12:25:12Z</time>
      </trkpt>
      <trkpt lat="51.240067884407" lon="4.490805599342">
        <ele>4.6</ele>
        <time>2019-04-27T12:25:20Z</time>
      </trkpt>
      <trkpt lat="51.239888930842" lon="4.490726222749">
        <ele>5.4</ele>
        <time>2019-04-27T12:25:28Z</time>
      </trkpt>
      <trkpt lat="51.239708384716" lon="4.49064902545">
        <ele>6.4</ele>
        <time>2019-04-27T12:25:36Z</time>
      </trkpt>
      <trkpt lat="51.239525575477" lon="4.490567050468">
        <ele>6.8</ele>
        <time>2019-04-27T12:25:44Z</time>
      </trkpt>
      <trkpt lat="51.239348046835" lon="4.490472334998">
        <ele>5.8</ele>
        <time>2019-04-27T12:25:52Z</time>
      </trkpt>
      <trkpt lat="51.239166411062" lon="4.490391868758">
        <ele>4.2</ele>
        <time>2019-04-27T12:26:00Z</time>
      </trkpt>
      <trkpt lat="51.238981925443" lon="4.490311905432">
        <ele>3</ele>
        <time>2019-04-27T12:26:08Z</time>
      </trkpt>
      <trkpt lat="51.238796182539" lon="4.490226410052">
        <ele>2.4</ele>
        <time>2019-04-27T12:26:16Z</time>
      </trkpt>
      <trkpt lat="51.238596525681" lon="4.490164635449">
        <ele>1.4</ele>
        <time>2019-04-27T12:26:24Z</time>
      </trkpt>
      <trkpt lat="51.238402652334" lon="4.490131107849">
        <ele>2.2</ele>
        <time>2019-04-27T12:26:32Z</time>
      </trkpt>
      <trkpt lat="51.238199055983" lon="4.490138064826">
        <ele>1.6</ele>
        <time>2019-04-27T12:26:40Z</time>
      </trkpt>
      <trkpt lat="51.238010044138" lon="4.490143764518">
        <ele>0</ele>
        <time>2019-04-27T12:26:48Z</time>
      </trkpt>
      <trkpt lat="51.237820194103" lon="4.490166563286">
        <ele>0</ele>
        <time>2019-04-27T12:26:56Z</time>
      </trkpt>
      <trkpt lat="51.237637636321" lon="4.490250214648">
        <ele>0</ele>
        <time>2019-04-27T12:27:04Z</time>
      </trkpt>
      <trkpt lat="51.237457844566" lon="4.490335290933">
        <ele>0</ele>
        <time>2019-04-27T12:27:12Z</time>
      </trkpt>
      <trkpt lat="51.237270509101" lon="4.490399747744">
        <ele>0</ele>
        <time>2019-04-27T12:27:20Z</time>
      </trkpt>
      <trkpt lat="51.237081413437" lon="4.490461689985">
        <ele>0</ele>
        <time>2019-04-27T12:27:28Z</time>
      </trkpt>
      <trkpt lat="51.236878906733" lon="4.490505024408">
        <ele>0</ele>
        <time>2019-04-27T12:27:36Z</time>
      </trkpt>
      <trkpt lat="51.236674304554" lon="4.490474179016">
        <ele>0</ele>
        <time>2019-04-27T12:27:44Z</time>
      </trkpt>
      <trkpt lat="51.2364927526" lon="4.490426486005">
        <ele>0</ele>
        <time>2019-04-27T12:27:51Z</time>
      </trkpt>
      <trkpt lat="51.236344476789" lon="4.490263206593">
        <ele>0</ele>
        <time>2019-04-27T12:27:58Z</time>
      </trkpt>
      <trkpt lat="51.236351433766" lon="4.489953160112">
        <ele>0</ele>
        <time>2019-04-27T12:28:06Z</time>
      </trkpt>
      <trkpt lat="51.236373478163" lon="4.489661805268">
        <ele>1.2</ele>
        <time>2019-04-27T12:28:13Z</time>
      </trkpt>
      <trkpt lat="51.236381021873" lon="4.489367768216">
        <ele>2</ele>
        <time>2019-04-27T12:28:20Z</time>
      </trkpt>
      <trkpt lat="51.236384542271" lon="4.489061074495">
        <ele>6.8</ele>
        <time>2019-04-27T12:28:27Z</time>
      </trkpt>
      <trkpt lat="51.236391750705" lon="4.488769719651">
        <ele>10.6</ele>
        <time>2019-04-27T12:28:34Z</time>
      </trkpt>
      <trkpt lat="51.236389906687" lon="4.488465456681">
        <ele>7.6</ele>
        <time>2019-04-27T12:28:42Z</time>
      </trkpt>
      <trkpt lat="51.236380016045" lon="4.48815289563">
        <ele>5.2</ele>
        <time>2019-04-27T12:28:50Z</time>
      </trkpt>
      <trkpt lat="51.236368281385" lon="4.487833377602">
        <ele>3.4</ele>
        <time>2019-04-27T12:28:58Z</time>
      </trkpt>
      <trkpt lat="51.236358809838" lon="4.48753263503">
        <ele>2</ele>
        <time>2019-04-27T12:29:06Z</time>
      </trkpt>
      <trkpt lat="51.236341207848" lon="4.487215296296">
        <ele>1.2</ele>
        <time>2019-04-27T12:29:14Z</time>
      </trkpt>
      <trkpt lat="51.236326288066" lon="4.486900555951">
        <ele>2.4</ele>
        <time>2019-04-27T12:29:22Z</time>
      </trkpt>
      <trkpt lat="51.236282283091" lon="4.486621857776">
        <ele>3.6</ele>
        <time>2019-04-27T12:29:30Z</time>
      </trkpt>
      <trkpt lat="51.236281947815" lon="4.486314074408">
        <ele>2</ele>
        <time>2019-04-27T12:29:38Z</time>
      </trkpt>
      <trkpt lat="51.236298041063" lon="4.486016181682">
        <ele>1.6</ele>
        <time>2019-04-27T12:29:46Z</time>
      </trkpt>
      <trkpt lat="51.236297202873" lon="4.485712337807">
        <ele>0.8</ele>
        <time>2019-04-27T12:29:54Z</time>
      </trkpt>
      <trkpt lat="51.236284713842" lon="4.48542123442">
        <ele>1.4</ele>
        <time>2019-04-27T12:30:01Z</time>
      </trkpt>
      <trkpt lat="51.236288737154" lon="4.484963917956">
        <ele>2.8</ele>
        <time>2019-04-27T12:30:12Z</time>
      </trkpt>
      <trkpt lat="51.236300052719" lon="4.484646160127">
        <ele>3.2</ele>
        <time>2019-04-27T12:30:20Z</time>
      </trkpt>
      <trkpt lat="51.236297705787" lon="4.484336365103">
        <ele>4</ele>
        <time>2019-04-27T12:30:28Z</time>
      </trkpt>
      <trkpt lat="51.236293933932" lon="4.484046519001">
        <ele>4.2</ele>
        <time>2019-04-27T12:30:35Z</time>
      </trkpt>
      <trkpt lat="51.236283288919" lon="4.48373144338">
        <ele>3.2</ele>
        <time>2019-04-27T12:30:43Z</time>
      </trkpt>
      <trkpt lat="51.236267028033" lon="4.483441345821">
        <ele>3.2</ele>
        <time>2019-04-27T12:30:50Z</time>
      </trkpt>
      <trkpt lat="51.236275493752" lon="4.483134149186">
        <ele>4.4</ele>
        <time>2019-04-27T12:30:57Z</time>
      </trkpt>
      <trkpt lat="51.236226124361" lon="4.482848661672">
        <ele>5.2</ele>
        <time>2019-04-27T12:31:05Z</time>
      </trkpt>
      <trkpt lat="51.236145155207" lon="4.482562838882">
        <ele>5.4</ele>
        <time>2019-04-27T12:31:14Z</time>
      </trkpt>
      <trkpt lat="51.236135516022" lon="4.482538279915">
        <ele>5.2</ele>
        <time>2019-04-27T12:31:15Z</time>
      </trkpt>
      <trkpt lat="51.236007692047" lon="4.482432500337">
        <ele>5.2</ele>
        <time>2019-04-27T12:31:22Z</time>
      </trkpt>
      <trkpt lat="51.236022863286" lon="4.482115664517">
        <ele>1.6</ele>
        <time>2019-04-27T12:31:31Z</time>
      </trkpt>
      <trkpt lat="51.236044153312" lon="4.481802432914">
        <ele>0</ele>
        <time>2019-04-27T12:31:39Z</time>
      </trkpt>
      <trkpt lat="51.236031580462" lon="4.481481825239">
        <ele>0</ele>
        <time>2019-04-27T12:31:47Z</time>
      </trkpt>
      <trkpt lat="51.236040381457" lon="4.481175131518">
        <ele>1</ele>
        <time>2019-04-27T12:31:55Z</time>
      </trkpt>
      <trkpt lat="51.236051697022" lon="4.480912861867">
        <ele>2.6</ele>
        <time>2019-04-27T12:32:02Z</time>
      </trkpt>
      <trkpt lat="51.236087152459" lon="4.480594433486">
        <ele>4.6</ele>
        <time>2019-04-27T12:32:10Z</time>
      </trkpt>
      <trkpt lat="51.236065694795" lon="4.480275418372">
        <ele>5.6</ele>
        <time>2019-04-27T12:32:18Z</time>
      </trkpt>
      <trkpt lat="51.236091511047" lon="4.47996545571">
        <ele>4</ele>
        <time>2019-04-27T12:32:26Z</time>
      </trkpt>
      <trkpt lat="51.236101401689" lon="4.479641327637">
        <ele>4.8</ele>
        <time>2019-04-27T12:32:33Z</time>
      </trkpt>
      <trkpt lat="51.236094779988" lon="4.479321139057">
        <ele>5</ele>
        <time>2019-04-27T12:32:41Z</time>
      </trkpt>
      <trkpt lat="51.236096707825" lon="4.479026599091">
        <ele>1.6</ele>
        <time>2019-04-27T12:32:49Z</time>
      </trkpt>
      <trkpt lat="51.236097210739" lon="4.478701716647">
        <ele>4.8</ele>
        <time>2019-04-27T12:32:57Z</time>
      </trkpt>
      <trkpt lat="51.236100647318" lon="4.478389407053">
        <ele>9.8</ele>
        <time>2019-04-27T12:33:05Z</time>
      </trkpt>
      <trkpt lat="51.236080027844" lon="4.478078857658">
        <ele>11.6</ele>
        <time>2019-04-27T12:33:13Z</time>
      </trkpt>
      <trkpt lat="51.236030155539" lon="4.477798231646">
        <ele>10.6</ele>
        <time>2019-04-27T12:33:20Z</time>
      </trkpt>
      <trkpt lat="51.235961088683" lon="4.477511822123">
        <ele>10</ele>
        <time>2019-04-27T12:33:27Z</time>
      </trkpt>
      <trkpt lat="51.235869223059" lon="4.477231447568">
        <ele>5.6</ele>
        <time>2019-04-27T12:33:35Z</time>
      </trkpt>
      <trkpt lat="51.235781799842" lon="4.476960125465">
        <ele>2.4</ele>
        <time>2019-04-27T12:33:44Z</time>
      </trkpt>
      <trkpt lat="51.235701668878" lon="4.476702214402">
        <ele>0.8</ele>
        <time>2019-04-27T12:33:52Z</time>
      </trkpt>
      <trkpt lat="51.235633021117" lon="4.476401890925">
        <ele>2</ele>
        <time>2019-04-27T12:34:01Z</time>
      </trkpt>
      <trkpt lat="51.235566385012" lon="4.47610056162">
        <ele>2.8</ele>
        <time>2019-04-27T12:34:09Z</time>
      </trkpt>
      <trkpt lat="51.235503436943" lon="4.475794370813">
        <ele>3.2</ele>
        <time>2019-04-27T12:34:17Z</time>
      </trkpt>
      <trkpt lat="51.235434202449" lon="4.47552723966">
        <ele>4</ele>
        <time>2019-04-27T12:34:24Z</time>
      </trkpt>
      <trkpt lat="51.235388437275" lon="4.475230017486">
        <ele>3.4</ele>
        <time>2019-04-27T12:34:32Z</time>
      </trkpt>
      <trkpt lat="51.235327752319" lon="4.474949810569">
        <ele>4.6</ele>
        <time>2019-04-27T12:34:40Z</time>
      </trkpt>
      <trkpt lat="51.235279388756" lon="4.474655941155">
        <ele>4.6</ele>
        <time>2019-04-27T12:34:48Z</time>
      </trkpt>
      <trkpt lat="51.235247118441" lon="4.474347235778">
        <ele>7</ele>
        <time>2019-04-27T12:34:56Z</time>
      </trkpt>
      <trkpt lat="51.235143518157" lon="4.474096030235">
        <ele>9.4</ele>
        <time>2019-04-27T12:35:03Z</time>
      </trkpt>
      <trkpt lat="51.235017202924" lon="4.473873574609">
        <ele>12.6</ele>
        <time>2019-04-27T12:35:12Z</time>
      </trkpt>
      <trkpt lat="51.234915446658" lon="4.473604264162">
        <ele>16</ele>
        <time>2019-04-27T12:35:21Z</time>
      </trkpt>
      <trkpt lat="51.234781336258" lon="4.473360183234">
        <ele>18.4</ele>
        <time>2019-04-27T12:35:29Z</time>
      </trkpt>
      <trkpt lat="51.23467052754" lon="4.473122388731">
        <ele>16.4</ele>
        <time>2019-04-27T12:35:36Z</time>
      </trkpt>
      <trkpt lat="51.234571788758" lon="4.472842349452">
        <ele>20</ele>
        <time>2019-04-27T12:35:44Z</time>
      </trkpt>
      <trkpt lat="51.234508589232" lon="4.472545211097">
        <ele>28.4</ele>
        <time>2019-04-27T12:35:52Z</time>
      </trkpt>
      <trkpt lat="51.234472044148" lon="4.472248324199">
        <ele>41.2</ele>
        <time>2019-04-27T12:36:00Z</time>
      </trkpt>
      <trkpt lat="51.234374478832" lon="4.471997537751">
        <ele>46.4</ele>
        <time>2019-04-27T12:36:07Z</time>
      </trkpt>
      <trkpt lat="51.234191250498" lon="4.471611048342">
        <ele>47</ele>
        <time>2019-04-27T12:36:19Z</time>
      </trkpt>
      <trkpt lat="51.234039119013" lon="4.471412397312">
        <ele>43.8</ele>
        <time>2019-04-27T12:36:27Z</time>
      </trkpt>
      <trkpt lat="51.233890591745" lon="4.471196144292">
        <ele>37</ele>
        <time>2019-04-27T12:36:35Z</time>
      </trkpt>
      <trkpt lat="51.23377450243" lon="4.470965390585">
        <ele>29.2</ele>
        <time>2019-04-27T12:36:42Z</time>
      </trkpt>
      <trkpt lat="51.233630166112" lon="4.470754334343">
        <ele>22.4</ele>
        <time>2019-04-27T12:36:49Z</time>
      </trkpt>
      <trkpt lat="51.233512400417" lon="4.470525089378">
        <ele>18.6</ele>
        <time>2019-04-27T12:36:57Z</time>
      </trkpt>
      <trkpt lat="51.233396227283" lon="4.470264663745">
        <ele>15.8</ele>
        <time>2019-04-27T12:37:05Z</time>
      </trkpt>
      <trkpt lat="51.233266475471" lon="4.470021923921">
        <ele>14.8</ele>
        <time>2019-04-27T12:37:13Z</time>
      </trkpt>
      <trkpt lat="51.233150469975" lon="4.469761414469">
        <ele>14.6</ele>
        <time>2019-04-27T12:37:21Z</time>
      </trkpt>
      <trkpt lat="51.233037984877" lon="4.469515992437">
        <ele>18</ele>
        <time>2019-04-27T12:37:29Z</time>
      </trkpt>
      <trkpt lat="51.232945281063" lon="4.469235617882">
        <ele>21.4</ele>
        <time>2019-04-27T12:37:37Z</time>
      </trkpt>
      <trkpt lat="51.232854924181" lon="4.468975778982">
        <ele>21</ele>
        <time>2019-04-27T12:37:45Z</time>
      </trkpt>
      <trkpt lat="51.232777140149" lon="4.468702864318">
        <ele>22.8</ele>
        <time>2019-04-27T12:37:53Z</time>
      </trkpt>
      <trkpt lat="51.232679993928" lon="4.468446294359">
        <ele>24.4</ele>
        <time>2019-04-27T12:38:01Z</time>
      </trkpt>
      <trkpt lat="51.232524928778" lon="4.468234902841">
        <ele>23.6</ele>
        <time>2019-04-27T12:38:09Z</time>
      </trkpt>
      <trkpt lat="51.232405654341" lon="4.467993252664">
        <ele>25.4</ele>
        <time>2019-04-27T12:38:17Z</time>
      </trkpt>
      <trkpt lat="51.232304233351" lon="4.467749339374">
        <ele>27</ele>
        <time>2019-04-27T12:38:25Z</time>
      </trkpt>
      <trkpt lat="51.232160902861" lon="4.467528476309">
        <ele>26</ele>
        <time>2019-04-27T12:38:34Z</time>
      </trkpt>
      <trkpt lat="51.231976920156" lon="4.467451530467">
        <ele>21.4</ele>
        <time>2019-04-27T12:38:42Z</time>
      </trkpt>
      <trkpt lat="51.231840965738" lon="4.467249442858">
        <ele>15</ele>
        <time>2019-04-27T12:38:49Z</time>
      </trkpt>
      <trkpt lat="51.231656312481" lon="4.467219854751">
        <ele>13.6</ele>
        <time>2019-04-27T12:38:55Z</time>
      </trkpt>
      <trkpt lat="51.231463277324" lon="4.467233601067">
        <ele>13</ele>
        <time>2019-04-27T12:39:02Z</time>
      </trkpt>
      <trkpt lat="51.231271164176" lon="4.467218765104">
        <ele>12.8</ele>
        <time>2019-04-27T12:39:10Z</time>
      </trkpt>
      <trkpt lat="51.231103023262" lon="4.467109800404">
        <ele>14</ele>
        <time>2019-04-27T12:39:18Z</time>
      </trkpt>
      <trkpt lat="51.231076285001" lon="4.466820708673">
        <ele>13.4</ele>
        <time>2019-04-27T12:39:25Z</time>
      </trkpt>
      <trkpt lat="51.231148536979" lon="4.466531114028">
        <ele>12.2</ele>
        <time>2019-04-27T12:39:32Z</time>
      </trkpt>
      <trkpt lat="51.231195224162" lon="4.466243363401">
        <ele>10</ele>
        <time>2019-04-27T12:39:40Z</time>
      </trkpt>
      <trkpt lat="51.231244928829" lon="4.465952092376">
        <ele>9</ele>
        <time>2019-04-27T12:39:48Z</time>
      </trkpt>
      <trkpt lat="51.231285245768" lon="4.465650679252">
        <ele>5.2</ele>
        <time>2019-04-27T12:39:57Z</time>
      </trkpt>
      <trkpt lat="51.231336040082" lon="4.46535831858">
        <ele>0.2</ele>
        <time>2019-04-27T12:40:05Z</time>
      </trkpt>
      <trkpt lat="51.231381721437" lon="4.46507836312">
        <ele>0</ele>
        <time>2019-04-27T12:40:12Z</time>
      </trkpt>
      <trkpt lat="51.231413153562" lon="4.464785248077">
        <ele>0</ele>
        <time>2019-04-27T12:40:21Z</time>
      </trkpt>
      <trkpt lat="51.231372333709" lon="4.464547705031">
        <ele>0</ele>
        <time>2019-04-27T12:40:29Z</time>
      </trkpt>
      <trkpt lat="51.231366047284" lon="4.464239754025">
        <ele>0</ele>
        <time>2019-04-27T12:40:38Z</time>
      </trkpt>
      <trkpt lat="51.231374093908" lon="4.463918894893">
        <ele>0</ele>
        <time>2019-04-27T12:40:46Z</time>
      </trkpt>
      <trkpt lat="51.231411225725" lon="4.463620331615">
        <ele>0</ele>
        <time>2019-04-27T12:40:54Z</time>
      </trkpt>
      <trkpt lat="51.231422373652" lon="4.463330234056">
        <ele>0</ele>
        <time>2019-04-27T12:41:01Z</time>
      </trkpt>
      <trkpt lat="51.231461600944" lon="4.463040220316">
        <ele>0</ele>
        <time>2019-04-27T12:41:08Z</time>
      </trkpt>
      <trkpt lat="51.231460008383" lon="4.462753056422">
        <ele>0</ele>
        <time>2019-04-27T12:41:16Z</time>
      </trkpt>
      <trkpt lat="51.231436203787" lon="4.462428509254">
        <ele>0</ele>
        <time>2019-04-27T12:41:25Z</time>
      </trkpt>
      <trkpt lat="51.231426061688" lon="4.462127766682">
        <ele>0</ele>
        <time>2019-04-27T12:41:32Z</time>
      </trkpt>
      <trkpt lat="51.231442825488" lon="4.461836914752">
        <ele>0</ele>
        <time>2019-04-27T12:41:39Z</time>
      </trkpt>
      <trkpt lat="51.231449195732" lon="4.46154706865">
        <ele>0</ele>
        <time>2019-04-27T12:41:47Z</time>
      </trkpt>
      <trkpt lat="51.231408040603" lon="4.461238111816">
        <ele>0</ele>
        <time>2019-04-27T12:41:55Z</time>
      </trkpt>
      <trkpt lat="51.231369483863" lon="4.46091926434">
        <ele>0</ele>
        <time>2019-04-27T12:42:03Z</time>
      </trkpt>
      <trkpt lat="51.231324053965" lon="4.460610223687">
        <ele>0</ele>
        <time>2019-04-27T12:42:11Z</time>
      </trkpt>
      <trkpt lat="51.231218693482" lon="4.460359688696">
        <ele>0</ele>
        <time>2019-04-27T12:42:18Z</time>
      </trkpt>
      <trkpt lat="51.231169240272" lon="4.460183752615">
        <ele>0</ele>
        <time>2019-04-27T12:42:23Z</time>
      </trkpt>
      <trkpt lat="51.231137221414" lon="4.45986817408">
        <ele>0.2</ele>
        <time>2019-04-27T12:42:33Z</time>
      </trkpt>
      <trkpt lat="51.231113668275" lon="4.459835568489">
        <ele>1.4</ele>
        <time>2019-04-27T12:42:34Z</time>
      </trkpt>
      <trkpt lat="51.230927925371" lon="4.459810841884">
        <ele>4.4</ele>
        <time>2019-04-27T12:42:43Z</time>
      </trkpt>
      <trkpt lat="51.230748301254" lon="4.459869096089">
        <ele>6.4</ele>
        <time>2019-04-27T12:42:52Z</time>
      </trkpt>
      <trkpt lat="51.230633469224" lon="4.459873370858">
        <ele>7.6</ele>
        <time>2019-04-27T12:42:58Z</time>
      </trkpt>
      <trkpt lat="51.230528611655" lon="4.459626859179">
        <ele>9</ele>
        <time>2019-04-27T12:43:06Z</time>
      </trkpt>
      <trkpt lat="51.230461053541" lon="4.459333576498">
        <ele>9.4</ele>
        <time>2019-04-27T12:43:14Z</time>
      </trkpt>
      <trkpt lat="51.230439428239" lon="4.45904423331">
        <ele>8.4</ele>
        <time>2019-04-27T12:43:22Z</time>
      </trkpt>
      <trkpt lat="51.230261312864" lon="4.459026882777">
        <ele>3.8</ele>
        <time>2019-04-27T12:43:31Z</time>
      </trkpt>
      <trkpt lat="51.230073809761" lon="4.459060745653">
        <ele>0</ele>
        <time>2019-04-27T12:43:40Z</time>
      </trkpt>
      <trkpt lat="51.229877421844" lon="4.45910206842">
        <ele>0</ele>
        <time>2019-04-27T12:43:48Z</time>
      </trkpt>
      <trkpt lat="51.229694109691" lon="4.45907273177">
        <ele>0.8</ele>
        <time>2019-04-27T12:43:57Z</time>
      </trkpt>
      <trkpt lat="51.229660162996" lon="4.459050771192">
        <ele>0.8</ele>
        <time>2019-04-27T12:43:59Z</time>
      </trkpt>
      <trkpt lat="51.229490261883" lon="4.459074659607">
        <ele>3.2</ele>
        <time>2019-04-27T12:44:07Z</time>
      </trkpt>
      <trkpt lat="51.229290856482" lon="4.459091255769">
        <ele>3.2</ele>
        <time>2019-04-27T12:44:16Z</time>
      </trkpt>
      <trkpt lat="51.229095474393" lon="4.459169794172">
        <ele>5.8</ele>
        <time>2019-04-27T12:44:25Z</time>
      </trkpt>
      <trkpt lat="51.228899421752" lon="4.459214218242">
        <ele>6</ele>
        <time>2019-04-27T12:44:34Z</time>
      </trkpt>
      <trkpt lat="51.228738070177" lon="4.459232406965">
        <ele>4</ele>
        <time>2019-04-27T12:44:41Z</time>
      </trkpt>
      <trkpt lat="51.228705632224" lon="4.45893275404">
        <ele>3</ele>
        <time>2019-04-27T12:44:49Z</time>
      </trkpt>
      <trkpt lat="51.228671182615" lon="4.458616504953">
        <ele>5.4</ele>
        <time>2019-04-27T12:44:57Z</time>
      </trkpt>
      <trkpt lat="51.228654586453" lon="4.458317774037">
        <ele>6</ele>
        <time>2019-04-27T12:45:05Z</time>
      </trkpt>
      <trkpt lat="51.228767574465" lon="4.458124403604">
        <ele>4.4</ele>
        <time>2019-04-27T12:45:17Z</time>
      </trkpt>
      <trkpt lat="51.228959603794" lon="4.458090205452">
        <ele>5.2</ele>
        <time>2019-04-27T12:45:26Z</time>
      </trkpt>
      <trkpt lat="51.229148028906" lon="4.458084673398">
        <ele>1.2</ele>
        <time>2019-04-27T12:45:33Z</time>
      </trkpt>
      <trkpt lat="51.229328658851" lon="4.45805181635">
        <ele>2.8</ele>
        <time>2019-04-27T12:45:40Z</time>
      </trkpt>
      <trkpt lat="51.229512976832" lon="4.457949221894">
        <ele>2.6</ele>
        <time>2019-04-27T12:45:49Z</time>
      </trkpt>
      <trkpt lat="51.229709448568" lon="4.457882669608">
        <ele>0</ele>
        <time>2019-04-27T12:45:57Z</time>
      </trkpt>
      <trkpt lat="51.229886558115" lon="4.457801281359">
        <ele>0</ele>
        <time>2019-04-27T12:46:05Z</time>
      </trkpt>
      <trkpt lat="51.230070289363" lon="4.457753336891">
        <ele>0</ele>
        <time>2019-04-27T12:46:12Z</time>
      </trkpt>
      <trkpt lat="51.230085376783" lon="4.457747218104">
        <ele>0</ele>
        <time>2019-04-27T12:46:13Z</time>
      </trkpt>
    </trkseg>
  </trk>
</gpx>